<?xml version="1.0" encoding="UTF-8" standalone="no" ?>
<gpx xmlns="http://www.topografix.com/GPX/1/1" xmlns:xsi="http://www.w3.org/2001/XMLSchema-instance" xsi:schemaLocation="http://www.topografix.com/GPX/1/1 http://www.topografix.com/GPX/1/1/gpx.xsd" version="1.1" creator="VisuGPX - https://www.visugpx.com">
  <metadata>
    <name>le Piolit</name>
    <desc><![CDATA[Le Piolit par la Crête Bonaparte de Ràuanette.]]></desc>
  </metadata>
  <trk>
    <name><![CDATA[Piolit]]></name>
    <trkseg>
      <trkpt lat="44.62094" lon="6.23506">
        <ele>1454.26</ele>
        <time>2015-10-11T06:09:53Z</time>
      </trkpt>
      <trkpt lat="44.62095" lon="6.23507">
        <ele>1454.31</ele>
        <time>2015-10-11T06:09:54Z</time>
      </trkpt>
      <trkpt lat="44.62094" lon="6.23515">
        <ele>1454.72</ele>
        <time>2015-10-11T06:10:04Z</time>
      </trkpt>
      <trkpt lat="44.62091" lon="6.23521">
        <ele>1456.24</ele>
        <time>2015-10-11T06:10:15Z</time>
      </trkpt>
      <trkpt lat="44.62091" lon="6.23528">
        <ele>1457.38</ele>
        <time>2015-10-11T06:10:24Z</time>
      </trkpt>
      <trkpt lat="44.62087" lon="6.23526">
        <ele>1458</ele>
        <time>2015-10-11T06:10:37Z</time>
      </trkpt>
      <trkpt lat="44.62079" lon="6.23524">
        <ele>1458.22</ele>
        <time>2015-10-11T06:10:51Z</time>
      </trkpt>
      <trkpt lat="44.62072" lon="6.23524">
        <ele>1458.17</ele>
        <time>2015-10-11T06:11:05Z</time>
      </trkpt>
      <trkpt lat="44.6208" lon="6.23528">
        <ele>1458.31</ele>
        <time>2015-10-11T06:11:18Z</time>
      </trkpt>
      <trkpt lat="44.62087" lon="6.23548">
        <ele>1460.74</ele>
        <time>2015-10-11T06:11:33Z</time>
      </trkpt>
      <trkpt lat="44.62088" lon="6.23557">
        <ele>1462.79</ele>
        <time>2015-10-11T06:11:43Z</time>
      </trkpt>
      <trkpt lat="44.62095" lon="6.23568">
        <ele>1464.66</ele>
        <time>2015-10-11T06:11:54Z</time>
      </trkpt>
      <trkpt lat="44.62101" lon="6.23582">
        <ele>1466.56</ele>
        <time>2015-10-11T06:12:06Z</time>
      </trkpt>
      <trkpt lat="44.62099" lon="6.23592">
        <ele>1468.61</ele>
        <time>2015-10-11T06:12:17Z</time>
      </trkpt>
      <trkpt lat="44.62101" lon="6.23604">
        <ele>1470.43</ele>
        <time>2015-10-11T06:12:28Z</time>
      </trkpt>
      <trkpt lat="44.62097" lon="6.23611">
        <ele>1472.68</ele>
        <time>2015-10-11T06:12:40Z</time>
      </trkpt>
      <trkpt lat="44.62095" lon="6.23617">
        <ele>1474.71</ele>
        <time>2015-10-11T06:12:52Z</time>
      </trkpt>
      <trkpt lat="44.62096" lon="6.23628">
        <ele>1476.97</ele>
        <time>2015-10-11T06:13:02Z</time>
      </trkpt>
      <trkpt lat="44.62093" lon="6.2364">
        <ele>1479.14</ele>
        <time>2015-10-11T06:13:16Z</time>
      </trkpt>
      <trkpt lat="44.62092" lon="6.23642">
        <ele>1479.76</ele>
        <time>2015-10-11T06:13:19Z</time>
      </trkpt>
      <trkpt lat="44.62084" lon="6.23651">
        <ele>1482.19</ele>
        <time>2015-10-11T06:13:32Z</time>
      </trkpt>
      <trkpt lat="44.62084" lon="6.23662">
        <ele>1483.71</ele>
        <time>2015-10-11T06:13:42Z</time>
      </trkpt>
      <trkpt lat="44.62086" lon="6.23678">
        <ele>1485.76</ele>
        <time>2015-10-11T06:13:56Z</time>
      </trkpt>
      <trkpt lat="44.62086" lon="6.23678">
        <ele>1485.84</ele>
        <time>2015-10-11T06:13:57Z</time>
      </trkpt>
      <trkpt lat="44.62083" lon="6.23688">
        <ele>1487.35</ele>
        <time>2015-10-11T06:14:09Z</time>
      </trkpt>
      <trkpt lat="44.62087" lon="6.23699">
        <ele>1489.02</ele>
        <time>2015-10-11T06:14:21Z</time>
      </trkpt>
      <trkpt lat="44.62087" lon="6.23707">
        <ele>1490.39</ele>
        <time>2015-10-11T06:14:32Z</time>
      </trkpt>
      <trkpt lat="44.62085" lon="6.23717">
        <ele>1492.11</ele>
        <time>2015-10-11T06:14:44Z</time>
      </trkpt>
      <trkpt lat="44.62084" lon="6.23727">
        <ele>1493.62</ele>
        <time>2015-10-11T06:14:55Z</time>
      </trkpt>
      <trkpt lat="44.62082" lon="6.23729">
        <ele>1494.39</ele>
        <time>2015-10-11T06:15:00Z</time>
      </trkpt>
      <trkpt lat="44.62078" lon="6.23739">
        <ele>1496.45</ele>
        <time>2015-10-11T06:15:12Z</time>
      </trkpt>
      <trkpt lat="44.62078" lon="6.23739">
        <ele>1496.59</ele>
        <time>2015-10-11T06:15:13Z</time>
      </trkpt>
      <trkpt lat="44.62071" lon="6.23749">
        <ele>1499</ele>
        <time>2015-10-11T06:15:28Z</time>
      </trkpt>
      <trkpt lat="44.62069" lon="6.23755">
        <ele>1500.31</ele>
        <time>2015-10-11T06:15:37Z</time>
      </trkpt>
      <trkpt lat="44.62067" lon="6.23764">
        <ele>1502.26</ele>
        <time>2015-10-11T06:15:49Z</time>
      </trkpt>
      <trkpt lat="44.62065" lon="6.23774">
        <ele>1504.06</ele>
        <time>2015-10-11T06:16:00Z</time>
      </trkpt>
      <trkpt lat="44.62065" lon="6.23777">
        <ele>1504.66</ele>
        <time>2015-10-11T06:16:04Z</time>
      </trkpt>
      <trkpt lat="44.62063" lon="6.23782">
        <ele>1505.55</ele>
        <time>2015-10-11T06:16:12Z</time>
      </trkpt>
      <trkpt lat="44.62062" lon="6.23786">
        <ele>1506.53</ele>
        <time>2015-10-11T06:16:18Z</time>
      </trkpt>
      <trkpt lat="44.62058" lon="6.23796">
        <ele>1508.53</ele>
        <time>2015-10-11T06:16:31Z</time>
      </trkpt>
      <trkpt lat="44.62055" lon="6.23803">
        <ele>1510.24</ele>
        <time>2015-10-11T06:16:41Z</time>
      </trkpt>
      <trkpt lat="44.62055" lon="6.23804">
        <ele>1510.36</ele>
        <time>2015-10-11T06:16:42Z</time>
      </trkpt>
      <trkpt lat="44.6205" lon="6.23812">
        <ele>1512.23</ele>
        <time>2015-10-11T06:16:54Z</time>
      </trkpt>
      <trkpt lat="44.62049" lon="6.23822">
        <ele>1514.09</ele>
        <time>2015-10-11T06:17:07Z</time>
      </trkpt>
      <trkpt lat="44.62044" lon="6.23824">
        <ele>1515.93</ele>
        <time>2015-10-11T06:17:19Z</time>
      </trkpt>
      <trkpt lat="44.62043" lon="6.23827">
        <ele>1516.09</ele>
        <time>2015-10-11T06:17:21Z</time>
      </trkpt>
      <trkpt lat="44.6204" lon="6.23839">
        <ele>1517.83</ele>
        <time>2015-10-11T06:17:34Z</time>
      </trkpt>
      <trkpt lat="44.62033" lon="6.23849">
        <ele>1519.96</ele>
        <time>2015-10-11T06:17:47Z</time>
      </trkpt>
      <trkpt lat="44.62034" lon="6.23852">
        <ele>1520.42</ele>
        <time>2015-10-11T06:17:50Z</time>
      </trkpt>
      <trkpt lat="44.62038" lon="6.23859">
        <ele>1521.38</ele>
        <time>2015-10-11T06:17:57Z</time>
      </trkpt>
      <trkpt lat="44.62037" lon="6.23861">
        <ele>1521.69</ele>
        <time>2015-10-11T06:17:59Z</time>
      </trkpt>
      <trkpt lat="44.62038" lon="6.2387">
        <ele>1523.16</ele>
        <time>2015-10-11T06:18:08Z</time>
      </trkpt>
      <trkpt lat="44.62038" lon="6.23878">
        <ele>1524.7</ele>
        <time>2015-10-11T06:18:18Z</time>
      </trkpt>
      <trkpt lat="44.62035" lon="6.23882">
        <ele>1525.86</ele>
        <time>2015-10-11T06:18:26Z</time>
      </trkpt>
      <trkpt lat="44.62027" lon="6.23886">
        <ele>1527.66</ele>
        <time>2015-10-11T06:18:38Z</time>
      </trkpt>
      <trkpt lat="44.62025" lon="6.23886">
        <ele>1527.95</ele>
        <time>2015-10-11T06:18:40Z</time>
      </trkpt>
      <trkpt lat="44.62022" lon="6.23887">
        <ele>1528.33</ele>
        <time>2015-10-11T06:18:42Z</time>
      </trkpt>
      <trkpt lat="44.62015" lon="6.23894">
        <ele>1530.42</ele>
        <time>2015-10-11T06:18:53Z</time>
      </trkpt>
      <trkpt lat="44.62009" lon="6.23903">
        <ele>1532.31</ele>
        <time>2015-10-11T06:19:05Z</time>
      </trkpt>
      <trkpt lat="44.62005" lon="6.23909">
        <ele>1533.68</ele>
        <time>2015-10-11T06:19:13Z</time>
      </trkpt>
      <trkpt lat="44.62004" lon="6.2392">
        <ele>1535.59</ele>
        <time>2015-10-11T06:19:27Z</time>
      </trkpt>
      <trkpt lat="44.6201" lon="6.23924">
        <ele>1536.8</ele>
        <time>2015-10-11T06:19:36Z</time>
      </trkpt>
      <trkpt lat="44.62012" lon="6.23929">
        <ele>1537.47</ele>
        <time>2015-10-11T06:19:45Z</time>
      </trkpt>
      <trkpt lat="44.62013" lon="6.23931">
        <ele>1537.95</ele>
        <time>2015-10-11T06:19:47Z</time>
      </trkpt>
      <trkpt lat="44.62009" lon="6.23939">
        <ele>1539.28</ele>
        <time>2015-10-11T06:19:56Z</time>
      </trkpt>
      <trkpt lat="44.62009" lon="6.23944">
        <ele>1540.23</ele>
        <time>2015-10-11T06:20:02Z</time>
      </trkpt>
      <trkpt lat="44.62008" lon="6.23945">
        <ele>1540.66</ele>
        <time>2015-10-11T06:20:04Z</time>
      </trkpt>
      <trkpt lat="44.62007" lon="6.23951">
        <ele>1541.57</ele>
        <time>2015-10-11T06:20:10Z</time>
      </trkpt>
      <trkpt lat="44.62008" lon="6.23954">
        <ele>1542.42</ele>
        <time>2015-10-11T06:20:14Z</time>
      </trkpt>
      <trkpt lat="44.62002" lon="6.23961">
        <ele>1544.36</ele>
        <time>2015-10-11T06:20:27Z</time>
      </trkpt>
      <trkpt lat="44.62004" lon="6.23967">
        <ele>1546.06</ele>
        <time>2015-10-11T06:20:37Z</time>
      </trkpt>
      <trkpt lat="44.61998" lon="6.23978">
        <ele>1547.78</ele>
        <time>2015-10-11T06:20:52Z</time>
      </trkpt>
      <trkpt lat="44.61995" lon="6.23986">
        <ele>1549.24</ele>
        <time>2015-10-11T06:21:01Z</time>
      </trkpt>
      <trkpt lat="44.6199" lon="6.23996">
        <ele>1551.9</ele>
        <time>2015-10-11T06:21:16Z</time>
      </trkpt>
      <trkpt lat="44.61991" lon="6.23997">
        <ele>1552.04</ele>
        <time>2015-10-11T06:21:17Z</time>
      </trkpt>
      <trkpt lat="44.61995" lon="6.24007">
        <ele>1554.18</ele>
        <time>2015-10-11T06:21:30Z</time>
      </trkpt>
      <trkpt lat="44.61993" lon="6.24012">
        <ele>1555.19</ele>
        <time>2015-10-11T06:21:36Z</time>
      </trkpt>
      <trkpt lat="44.61985" lon="6.24017">
        <ele>1556.62</ele>
        <time>2015-10-11T06:21:45Z</time>
      </trkpt>
      <trkpt lat="44.61981" lon="6.24024">
        <ele>1558.57</ele>
        <time>2015-10-11T06:21:58Z</time>
      </trkpt>
      <trkpt lat="44.61977" lon="6.24035">
        <ele>1560.96</ele>
        <time>2015-10-11T06:22:15Z</time>
      </trkpt>
      <trkpt lat="44.61973" lon="6.24045">
        <ele>1564.05</ele>
        <time>2015-10-11T06:22:34Z</time>
      </trkpt>
      <trkpt lat="44.6197" lon="6.24055">
        <ele>1567.2</ele>
        <time>2015-10-11T06:22:53Z</time>
      </trkpt>
      <trkpt lat="44.61972" lon="6.24058">
        <ele>1568.03</ele>
        <time>2015-10-11T06:22:58Z</time>
      </trkpt>
      <trkpt lat="44.61978" lon="6.24076">
        <ele>1570.99</ele>
        <time>2015-10-11T06:23:17Z</time>
      </trkpt>
      <trkpt lat="44.61979" lon="6.24082">
        <ele>1572.18</ele>
        <time>2015-10-11T06:23:27Z</time>
      </trkpt>
      <trkpt lat="44.61985" lon="6.24088">
        <ele>1574.05</ele>
        <time>2015-10-11T06:23:38Z</time>
      </trkpt>
      <trkpt lat="44.61989" lon="6.2409">
        <ele>1574.47</ele>
        <time>2015-10-11T06:23:41Z</time>
      </trkpt>
      <trkpt lat="44.61995" lon="6.24099">
        <ele>1576.51</ele>
        <time>2015-10-11T06:23:54Z</time>
      </trkpt>
      <trkpt lat="44.61995" lon="6.24102">
        <ele>1577.54</ele>
        <time>2015-10-11T06:23:59Z</time>
      </trkpt>
      <trkpt lat="44.61992" lon="6.24104">
        <ele>1577.98</ele>
        <time>2015-10-11T06:24:02Z</time>
      </trkpt>
      <trkpt lat="44.6199" lon="6.24114">
        <ele>1579.8</ele>
        <time>2015-10-11T06:24:13Z</time>
      </trkpt>
      <trkpt lat="44.61981" lon="6.24123">
        <ele>1581.79</ele>
        <time>2015-10-11T06:24:24Z</time>
      </trkpt>
      <trkpt lat="44.61984" lon="6.24129">
        <ele>1582.67</ele>
        <time>2015-10-11T06:24:28Z</time>
      </trkpt>
      <trkpt lat="44.61984" lon="6.24132">
        <ele>1583.2</ele>
        <time>2015-10-11T06:24:31Z</time>
      </trkpt>
      <trkpt lat="44.61986" lon="6.24137">
        <ele>1584.09</ele>
        <time>2015-10-11T06:24:36Z</time>
      </trkpt>
      <trkpt lat="44.61993" lon="6.24139">
        <ele>1585.52</ele>
        <time>2015-10-11T06:24:46Z</time>
      </trkpt>
      <trkpt lat="44.61994" lon="6.24145">
        <ele>1587.34</ele>
        <time>2015-10-11T06:25:00Z</time>
      </trkpt>
      <trkpt lat="44.61999" lon="6.24151">
        <ele>1588.29</ele>
        <time>2015-10-11T06:25:09Z</time>
      </trkpt>
      <trkpt lat="44.62002" lon="6.24156">
        <ele>1589.69</ele>
        <time>2015-10-11T06:25:19Z</time>
      </trkpt>
      <trkpt lat="44.61999" lon="6.24158">
        <ele>1590.44</ele>
        <time>2015-10-11T06:25:24Z</time>
      </trkpt>
      <trkpt lat="44.61997" lon="6.2416">
        <ele>1590.94</ele>
        <time>2015-10-11T06:25:29Z</time>
      </trkpt>
      <trkpt lat="44.61996" lon="6.24164">
        <ele>1592.13</ele>
        <time>2015-10-11T06:25:36Z</time>
      </trkpt>
      <trkpt lat="44.61994" lon="6.24175">
        <ele>1594.34</ele>
        <time>2015-10-11T06:25:49Z</time>
      </trkpt>
      <trkpt lat="44.61992" lon="6.24178">
        <ele>1595.13</ele>
        <time>2015-10-11T06:25:55Z</time>
      </trkpt>
      <trkpt lat="44.61989" lon="6.24192">
        <ele>1598.35</ele>
        <time>2015-10-11T06:26:13Z</time>
      </trkpt>
      <trkpt lat="44.6199" lon="6.24203">
        <ele>1600.26</ele>
        <time>2015-10-11T06:26:27Z</time>
      </trkpt>
      <trkpt lat="44.61983" lon="6.24207">
        <ele>1601.94</ele>
        <time>2015-10-11T06:26:36Z</time>
      </trkpt>
      <trkpt lat="44.61983" lon="6.24213">
        <ele>1603.33</ele>
        <time>2015-10-11T06:26:46Z</time>
      </trkpt>
      <trkpt lat="44.61982" lon="6.24219">
        <ele>1604.86</ele>
        <time>2015-10-11T06:26:56Z</time>
      </trkpt>
      <trkpt lat="44.61984" lon="6.24221">
        <ele>1605.58</ele>
        <time>2015-10-11T06:27:00Z</time>
      </trkpt>
      <trkpt lat="44.61974" lon="6.24235">
        <ele>1607.95</ele>
        <time>2015-10-11T06:27:14Z</time>
      </trkpt>
      <trkpt lat="44.61968" lon="6.24247">
        <ele>1610.69</ele>
        <time>2015-10-11T06:27:34Z</time>
      </trkpt>
      <trkpt lat="44.61956" lon="6.24254">
        <ele>1613.42</ele>
        <time>2015-10-11T06:27:53Z</time>
      </trkpt>
      <trkpt lat="44.61946" lon="6.24264">
        <ele>1616.53</ele>
        <time>2015-10-11T06:28:13Z</time>
      </trkpt>
      <trkpt lat="44.61944" lon="6.24281">
        <ele>1618.99</ele>
        <time>2015-10-11T06:28:35Z</time>
      </trkpt>
      <trkpt lat="44.61943" lon="6.24298">
        <ele>1620.96</ele>
        <time>2015-10-11T06:28:54Z</time>
      </trkpt>
      <trkpt lat="44.61944" lon="6.2431">
        <ele>1623.37</ele>
        <time>2015-10-11T06:29:10Z</time>
      </trkpt>
      <trkpt lat="44.61943" lon="6.24312">
        <ele>1623.7</ele>
        <time>2015-10-11T06:29:12Z</time>
      </trkpt>
      <trkpt lat="44.61939" lon="6.24321">
        <ele>1625.95</ele>
        <time>2015-10-11T06:29:26Z</time>
      </trkpt>
      <trkpt lat="44.61939" lon="6.24344">
        <ele>1627.49</ele>
        <time>2015-10-11T06:29:47Z</time>
      </trkpt>
      <trkpt lat="44.61932" lon="6.24365">
        <ele>1629.12</ele>
        <time>2015-10-11T06:30:10Z</time>
      </trkpt>
      <trkpt lat="44.61932" lon="6.24371">
        <ele>1628.73</ele>
        <time>2015-10-11T06:30:17Z</time>
      </trkpt>
      <trkpt lat="44.61938" lon="6.24383">
        <ele>1628.37</ele>
        <time>2015-10-11T06:30:35Z</time>
      </trkpt>
      <trkpt lat="44.6194" lon="6.24385">
        <ele>1628.21</ele>
        <time>2015-10-11T06:31:02Z</time>
      </trkpt>
      <trkpt lat="44.61941" lon="6.24389">
        <ele>1628.15</ele>
        <time>2015-10-11T06:31:26Z</time>
      </trkpt>
      <trkpt lat="44.61941" lon="6.24387">
        <ele>1627.86</ele>
        <time>2015-10-11T06:31:47Z</time>
      </trkpt>
      <trkpt lat="44.61942" lon="6.24392">
        <ele>1627.31</ele>
        <time>2015-10-11T06:32:12Z</time>
      </trkpt>
      <trkpt lat="44.61941" lon="6.24393">
        <ele>1627.58</ele>
        <time>2015-10-11T06:32:38Z</time>
      </trkpt>
      <trkpt lat="44.6195" lon="6.24397">
        <ele>1628.33</ele>
        <time>2015-10-11T06:32:56Z</time>
      </trkpt>
      <trkpt lat="44.61962" lon="6.24389">
        <ele>1630.48</ele>
        <time>2015-10-11T06:33:16Z</time>
      </trkpt>
      <trkpt lat="44.61979" lon="6.24399">
        <ele>1633.09</ele>
        <time>2015-10-11T06:33:37Z</time>
      </trkpt>
      <trkpt lat="44.61992" lon="6.244">
        <ele>1635.2</ele>
        <time>2015-10-11T06:33:56Z</time>
      </trkpt>
      <trkpt lat="44.62002" lon="6.24404">
        <ele>1636.22</ele>
        <time>2015-10-11T06:34:14Z</time>
      </trkpt>
      <trkpt lat="44.62008" lon="6.24404">
        <ele>1636.99</ele>
        <time>2015-10-11T06:34:21Z</time>
      </trkpt>
      <trkpt lat="44.62015" lon="6.24409">
        <ele>1638.17</ele>
        <time>2015-10-11T06:34:29Z</time>
      </trkpt>
      <trkpt lat="44.62027" lon="6.24419">
        <ele>1639.93</ele>
        <time>2015-10-11T06:34:42Z</time>
      </trkpt>
      <trkpt lat="44.62045" lon="6.24423">
        <ele>1641.89</ele>
        <time>2015-10-11T06:35:05Z</time>
      </trkpt>
      <trkpt lat="44.62053" lon="6.24431">
        <ele>1643.77</ele>
        <time>2015-10-11T06:35:23Z</time>
      </trkpt>
      <trkpt lat="44.62057" lon="6.24441">
        <ele>1646.61</ele>
        <time>2015-10-11T06:35:46Z</time>
      </trkpt>
      <trkpt lat="44.62065" lon="6.24459">
        <ele>1648.82</ele>
        <time>2015-10-11T06:36:04Z</time>
      </trkpt>
      <trkpt lat="44.62069" lon="6.24483">
        <ele>1651.89</ele>
        <time>2015-10-11T06:36:26Z</time>
      </trkpt>
      <trkpt lat="44.62072" lon="6.24505">
        <ele>1653.41</ele>
        <time>2015-10-11T06:36:47Z</time>
      </trkpt>
      <trkpt lat="44.62073" lon="6.24537">
        <ele>1653</ele>
        <time>2015-10-11T06:37:10Z</time>
      </trkpt>
      <trkpt lat="44.62074" lon="6.24561">
        <ele>1653.64</ele>
        <time>2015-10-11T06:37:27Z</time>
      </trkpt>
      <trkpt lat="44.62076" lon="6.24578">
        <ele>1654.5</ele>
        <time>2015-10-11T06:37:40Z</time>
      </trkpt>
      <trkpt lat="44.62071" lon="6.2459">
        <ele>1656.47</ele>
        <time>2015-10-11T06:38:01Z</time>
      </trkpt>
      <trkpt lat="44.6207" lon="6.24595">
        <ele>1657.14</ele>
        <time>2015-10-11T06:38:21Z</time>
      </trkpt>
      <trkpt lat="44.62067" lon="6.24607">
        <ele>1659.94</ele>
        <time>2015-10-11T06:38:45Z</time>
      </trkpt>
      <trkpt lat="44.62062" lon="6.24617">
        <ele>1662.51</ele>
        <time>2015-10-11T06:39:04Z</time>
      </trkpt>
      <trkpt lat="44.62057" lon="6.24634">
        <ele>1664.82</ele>
        <time>2015-10-11T06:39:28Z</time>
      </trkpt>
      <trkpt lat="44.62056" lon="6.24657">
        <ele>1666.21</ele>
        <time>2015-10-11T06:39:50Z</time>
      </trkpt>
      <trkpt lat="44.62055" lon="6.24674">
        <ele>1669.27</ele>
        <time>2015-10-11T06:40:10Z</time>
      </trkpt>
      <trkpt lat="44.62054" lon="6.24688">
        <ele>1671.41</ele>
        <time>2015-10-11T06:40:29Z</time>
      </trkpt>
      <trkpt lat="44.62055" lon="6.24712">
        <ele>1674.42</ele>
        <time>2015-10-11T06:40:51Z</time>
      </trkpt>
      <trkpt lat="44.62059" lon="6.2473">
        <ele>1676.1</ele>
        <time>2015-10-11T06:41:13Z</time>
      </trkpt>
      <trkpt lat="44.62051" lon="6.2472">
        <ele>1678.2</ele>
        <time>2015-10-11T06:41:35Z</time>
      </trkpt>
      <trkpt lat="44.6204" lon="6.24707">
        <ele>1679.49</ele>
        <time>2015-10-11T06:41:50Z</time>
      </trkpt>
      <trkpt lat="44.62037" lon="6.24703">
        <ele>1679.85</ele>
        <time>2015-10-11T06:41:55Z</time>
      </trkpt>
      <trkpt lat="44.62026" lon="6.24694">
        <ele>1681.46</ele>
        <time>2015-10-11T06:42:12Z</time>
      </trkpt>
      <trkpt lat="44.62012" lon="6.24686">
        <ele>1682.9</ele>
        <time>2015-10-11T06:42:35Z</time>
      </trkpt>
      <trkpt lat="44.62001" lon="6.24674">
        <ele>1684.77</ele>
        <time>2015-10-11T06:42:59Z</time>
      </trkpt>
      <trkpt lat="44.61984" lon="6.24664">
        <ele>1686.75</ele>
        <time>2015-10-11T06:43:20Z</time>
      </trkpt>
      <trkpt lat="44.61971" lon="6.2465">
        <ele>1688.78</ele>
        <time>2015-10-11T06:43:41Z</time>
      </trkpt>
      <trkpt lat="44.61961" lon="6.24642">
        <ele>1691.69</ele>
        <time>2015-10-11T06:44:03Z</time>
      </trkpt>
      <trkpt lat="44.61959" lon="6.24642">
        <ele>1693.46</ele>
        <time>2015-10-11T06:44:14Z</time>
      </trkpt>
      <trkpt lat="44.61948" lon="6.24644">
        <ele>1695.62</ele>
        <time>2015-10-11T06:44:32Z</time>
      </trkpt>
      <trkpt lat="44.61944" lon="6.24655">
        <ele>1698.78</ele>
        <time>2015-10-11T06:44:54Z</time>
      </trkpt>
      <trkpt lat="44.61944" lon="6.24668">
        <ele>1701.09</ele>
        <time>2015-10-11T06:45:12Z</time>
      </trkpt>
      <trkpt lat="44.6195" lon="6.24689">
        <ele>1703.36</ele>
        <time>2015-10-11T06:45:34Z</time>
      </trkpt>
      <trkpt lat="44.61956" lon="6.24707">
        <ele>1705.81</ele>
        <time>2015-10-11T06:45:57Z</time>
      </trkpt>
      <trkpt lat="44.61961" lon="6.24725">
        <ele>1708.25</ele>
        <time>2015-10-11T06:46:17Z</time>
      </trkpt>
      <trkpt lat="44.61964" lon="6.24745">
        <ele>1710.61</ele>
        <time>2015-10-11T06:46:38Z</time>
      </trkpt>
      <trkpt lat="44.6196" lon="6.24742">
        <ele>1713.43</ele>
        <time>2015-10-11T06:46:59Z</time>
      </trkpt>
      <trkpt lat="44.61956" lon="6.24736">
        <ele>1715.24</ele>
        <time>2015-10-11T06:47:18Z</time>
      </trkpt>
      <trkpt lat="44.61947" lon="6.24733">
        <ele>1717.51</ele>
        <time>2015-10-11T06:47:40Z</time>
      </trkpt>
      <trkpt lat="44.61935" lon="6.24734">
        <ele>1720.57</ele>
        <time>2015-10-11T06:47:58Z</time>
      </trkpt>
      <trkpt lat="44.61927" lon="6.24745">
        <ele>1722.52</ele>
        <time>2015-10-11T06:48:18Z</time>
      </trkpt>
      <trkpt lat="44.61929" lon="6.24758">
        <ele>1724.33</ele>
        <time>2015-10-11T06:48:38Z</time>
      </trkpt>
      <trkpt lat="44.61933" lon="6.24776">
        <ele>1725.78</ele>
        <time>2015-10-11T06:49:00Z</time>
      </trkpt>
      <trkpt lat="44.61943" lon="6.24797">
        <ele>1727.63</ele>
        <time>2015-10-11T06:49:21Z</time>
      </trkpt>
      <trkpt lat="44.61947" lon="6.24818">
        <ele>1729.13</ele>
        <time>2015-10-11T06:49:40Z</time>
      </trkpt>
      <trkpt lat="44.61949" lon="6.24833">
        <ele>1731.12</ele>
        <time>2015-10-11T06:50:02Z</time>
      </trkpt>
      <trkpt lat="44.61944" lon="6.24826">
        <ele>1732.64</ele>
        <time>2015-10-11T06:50:22Z</time>
      </trkpt>
      <trkpt lat="44.61925" lon="6.24816">
        <ele>1733.95</ele>
        <time>2015-10-11T06:50:45Z</time>
      </trkpt>
      <trkpt lat="44.61917" lon="6.24799">
        <ele>1734.88</ele>
        <time>2015-10-11T06:51:03Z</time>
      </trkpt>
      <trkpt lat="44.61904" lon="6.24785">
        <ele>1736.52</ele>
        <time>2015-10-11T06:51:24Z</time>
      </trkpt>
      <trkpt lat="44.6189" lon="6.24771">
        <ele>1738.32</ele>
        <time>2015-10-11T06:51:42Z</time>
      </trkpt>
      <trkpt lat="44.61879" lon="6.2476">
        <ele>1739.78</ele>
        <time>2015-10-11T06:52:00Z</time>
      </trkpt>
      <trkpt lat="44.61869" lon="6.24739">
        <ele>1740.65</ele>
        <time>2015-10-11T06:52:18Z</time>
      </trkpt>
      <trkpt lat="44.61862" lon="6.24713">
        <ele>1742.2</ele>
        <time>2015-10-11T06:52:40Z</time>
      </trkpt>
      <trkpt lat="44.6185" lon="6.24695">
        <ele>1744.01</ele>
        <time>2015-10-11T06:53:01Z</time>
      </trkpt>
      <trkpt lat="44.61841" lon="6.24697">
        <ele>1746.63</ele>
        <time>2015-10-11T06:53:23Z</time>
      </trkpt>
      <trkpt lat="44.61854" lon="6.24703">
        <ele>1746.64</ele>
        <time>2015-10-11T06:53:52Z</time>
      </trkpt>
      <trkpt lat="44.61857" lon="6.24703">
        <ele>1746.62</ele>
        <time>2015-10-11T06:53:58Z</time>
      </trkpt>
      <trkpt lat="44.61847" lon="6.24696">
        <ele>1745.88</ele>
        <time>2015-10-11T06:54:24Z</time>
      </trkpt>
      <trkpt lat="44.61847" lon="6.24696">
        <ele>1746.08</ele>
        <time>2015-10-11T06:54:57Z</time>
      </trkpt>
      <trkpt lat="44.61845" lon="6.24701">
        <ele>1746.08</ele>
        <time>2015-10-11T06:55:08Z</time>
      </trkpt>
      <trkpt lat="44.61841" lon="6.24702">
        <ele>1746.51</ele>
        <time>2015-10-11T06:55:35Z</time>
      </trkpt>
      <trkpt lat="44.6184" lon="6.24712">
        <ele>1747.01</ele>
        <time>2015-10-11T06:56:01Z</time>
      </trkpt>
      <trkpt lat="44.61841" lon="6.24712">
        <ele>1747.04</ele>
        <time>2015-10-11T06:56:28Z</time>
      </trkpt>
      <trkpt lat="44.61843" lon="6.24716">
        <ele>1748.23</ele>
        <time>2015-10-11T06:56:43Z</time>
      </trkpt>
      <trkpt lat="44.61843" lon="6.24722">
        <ele>1750.29</ele>
        <time>2015-10-11T06:56:56Z</time>
      </trkpt>
      <trkpt lat="44.61847" lon="6.24737">
        <ele>1752.76</ele>
        <time>2015-10-11T06:57:18Z</time>
      </trkpt>
      <trkpt lat="44.61844" lon="6.2475">
        <ele>1754.82</ele>
        <time>2015-10-11T06:57:34Z</time>
      </trkpt>
      <trkpt lat="44.61846" lon="6.24773">
        <ele>1757.66</ele>
        <time>2015-10-11T06:57:56Z</time>
      </trkpt>
      <trkpt lat="44.61851" lon="6.24793">
        <ele>1759.07</ele>
        <time>2015-10-11T06:58:16Z</time>
      </trkpt>
      <trkpt lat="44.61859" lon="6.24816">
        <ele>1760.03</ele>
        <time>2015-10-11T06:58:37Z</time>
      </trkpt>
      <trkpt lat="44.61869" lon="6.2484">
        <ele>1761.01</ele>
        <time>2015-10-11T06:58:58Z</time>
      </trkpt>
      <trkpt lat="44.61875" lon="6.24854">
        <ele>1762.51</ele>
        <time>2015-10-11T06:59:14Z</time>
      </trkpt>
      <trkpt lat="44.61883" lon="6.24882">
        <ele>1764.72</ele>
        <time>2015-10-11T06:59:35Z</time>
      </trkpt>
      <trkpt lat="44.6189" lon="6.24908">
        <ele>1766.68</ele>
        <time>2015-10-11T06:59:55Z</time>
      </trkpt>
      <trkpt lat="44.61892" lon="6.24928">
        <ele>1769.22</ele>
        <time>2015-10-11T07:00:16Z</time>
      </trkpt>
      <trkpt lat="44.61894" lon="6.24947">
        <ele>1770.97</ele>
        <time>2015-10-11T07:00:35Z</time>
      </trkpt>
      <trkpt lat="44.61893" lon="6.24965">
        <ele>1772.55</ele>
        <time>2015-10-11T07:00:51Z</time>
      </trkpt>
      <trkpt lat="44.61895" lon="6.24985">
        <ele>1774.27</ele>
        <time>2015-10-11T07:01:13Z</time>
      </trkpt>
      <trkpt lat="44.61896" lon="6.2499">
        <ele>1774.63</ele>
        <time>2015-10-11T07:01:17Z</time>
      </trkpt>
      <trkpt lat="44.619" lon="6.25008">
        <ele>1776.19</ele>
        <time>2015-10-11T07:01:32Z</time>
      </trkpt>
      <trkpt lat="44.61902" lon="6.25018">
        <ele>1779.23</ele>
        <time>2015-10-11T07:01:50Z</time>
      </trkpt>
      <trkpt lat="44.61907" lon="6.25029">
        <ele>1782.12</ele>
        <time>2015-10-11T07:02:08Z</time>
      </trkpt>
      <trkpt lat="44.61912" lon="6.25048">
        <ele>1784.99</ele>
        <time>2015-10-11T07:02:28Z</time>
      </trkpt>
      <trkpt lat="44.61918" lon="6.25063">
        <ele>1787.85</ele>
        <time>2015-10-11T07:02:48Z</time>
      </trkpt>
      <trkpt lat="44.61924" lon="6.25083">
        <ele>1790.64</ele>
        <time>2015-10-11T07:03:09Z</time>
      </trkpt>
      <trkpt lat="44.61925" lon="6.25096">
        <ele>1792.48</ele>
        <time>2015-10-11T07:03:22Z</time>
      </trkpt>
      <trkpt lat="44.61928" lon="6.25105">
        <ele>1794.29</ele>
        <time>2015-10-11T07:03:35Z</time>
      </trkpt>
      <trkpt lat="44.6193" lon="6.2511">
        <ele>1794.86</ele>
        <time>2015-10-11T07:03:56Z</time>
      </trkpt>
      <trkpt lat="44.61932" lon="6.25112">
        <ele>1794.73</ele>
        <time>2015-10-11T07:04:07Z</time>
      </trkpt>
      <trkpt lat="44.61929" lon="6.25117">
        <ele>1794.66</ele>
        <time>2015-10-11T07:04:30Z</time>
      </trkpt>
      <trkpt lat="44.61927" lon="6.25115">
        <ele>1794.76</ele>
        <time>2015-10-11T07:04:51Z</time>
      </trkpt>
      <trkpt lat="44.61925" lon="6.25115">
        <ele>1794.6</ele>
        <time>2015-10-11T07:05:03Z</time>
      </trkpt>
      <trkpt lat="44.61925" lon="6.25133">
        <ele>1796.02</ele>
        <time>2015-10-11T07:05:26Z</time>
      </trkpt>
      <trkpt lat="44.61921" lon="6.25151">
        <ele>1799.08</ele>
        <time>2015-10-11T07:05:42Z</time>
      </trkpt>
      <trkpt lat="44.61914" lon="6.25172">
        <ele>1802.28</ele>
        <time>2015-10-11T07:06:04Z</time>
      </trkpt>
      <trkpt lat="44.61905" lon="6.25193">
        <ele>1804.14</ele>
        <time>2015-10-11T07:06:27Z</time>
      </trkpt>
      <trkpt lat="44.61899" lon="6.25208">
        <ele>1806.03</ele>
        <time>2015-10-11T07:06:46Z</time>
      </trkpt>
      <trkpt lat="44.61889" lon="6.25231">
        <ele>1809.13</ele>
        <time>2015-10-11T07:07:12Z</time>
      </trkpt>
      <trkpt lat="44.61878" lon="6.25245">
        <ele>1812.01</ele>
        <time>2015-10-11T07:07:35Z</time>
      </trkpt>
      <trkpt lat="44.61874" lon="6.25262">
        <ele>1814.43</ele>
        <time>2015-10-11T07:07:55Z</time>
      </trkpt>
      <trkpt lat="44.61869" lon="6.25277">
        <ele>1817.05</ele>
        <time>2015-10-11T07:08:17Z</time>
      </trkpt>
      <trkpt lat="44.61858" lon="6.25286">
        <ele>1820.01</ele>
        <time>2015-10-11T07:08:37Z</time>
      </trkpt>
      <trkpt lat="44.61846" lon="6.25299">
        <ele>1823.01</ele>
        <time>2015-10-11T07:09:00Z</time>
      </trkpt>
      <trkpt lat="44.61834" lon="6.25317">
        <ele>1825.55</ele>
        <time>2015-10-11T07:09:21Z</time>
      </trkpt>
      <trkpt lat="44.61829" lon="6.25339">
        <ele>1827.79</ele>
        <time>2015-10-11T07:09:42Z</time>
      </trkpt>
      <trkpt lat="44.61824" lon="6.25367">
        <ele>1829.29</ele>
        <time>2015-10-11T07:10:04Z</time>
      </trkpt>
      <trkpt lat="44.61811" lon="6.25388">
        <ele>1829.52</ele>
        <time>2015-10-11T07:10:25Z</time>
      </trkpt>
      <trkpt lat="44.61797" lon="6.25402">
        <ele>1831.83</ele>
        <time>2015-10-11T07:10:48Z</time>
      </trkpt>
      <trkpt lat="44.61779" lon="6.25417">
        <ele>1834.33</ele>
        <time>2015-10-11T07:11:12Z</time>
      </trkpt>
      <trkpt lat="44.61767" lon="6.2543">
        <ele>1835.64</ele>
        <time>2015-10-11T07:11:31Z</time>
      </trkpt>
      <trkpt lat="44.61754" lon="6.25446">
        <ele>1837.99</ele>
        <time>2015-10-11T07:11:52Z</time>
      </trkpt>
      <trkpt lat="44.61743" lon="6.25462">
        <ele>1840.29</ele>
        <time>2015-10-11T07:12:12Z</time>
      </trkpt>
      <trkpt lat="44.61733" lon="6.25483">
        <ele>1843.16</ele>
        <time>2015-10-11T07:12:37Z</time>
      </trkpt>
      <trkpt lat="44.61724" lon="6.25498">
        <ele>1846.21</ele>
        <time>2015-10-11T07:12:57Z</time>
      </trkpt>
      <trkpt lat="44.61717" lon="6.25512">
        <ele>1848.01</ele>
        <time>2015-10-11T07:13:14Z</time>
      </trkpt>
      <trkpt lat="44.61708" lon="6.25535">
        <ele>1850.27</ele>
        <time>2015-10-11T07:13:35Z</time>
      </trkpt>
      <trkpt lat="44.61707" lon="6.25541">
        <ele>1851.29</ele>
        <time>2015-10-11T07:13:51Z</time>
      </trkpt>
      <trkpt lat="44.61706" lon="6.25546">
        <ele>1851.45</ele>
        <time>2015-10-11T07:14:20Z</time>
      </trkpt>
      <trkpt lat="44.61705" lon="6.25544">
        <ele>1851.95</ele>
        <time>2015-10-11T07:14:41Z</time>
      </trkpt>
      <trkpt lat="44.61705" lon="6.25544">
        <ele>1851.86</ele>
        <time>2015-10-11T07:14:59Z</time>
      </trkpt>
      <trkpt lat="44.61706" lon="6.25544">
        <ele>1852.06</ele>
        <time>2015-10-11T07:15:23Z</time>
      </trkpt>
      <trkpt lat="44.61702" lon="6.25547">
        <ele>1852.06</ele>
        <time>2015-10-11T07:15:47Z</time>
      </trkpt>
      <trkpt lat="44.61701" lon="6.25547">
        <ele>1852.18</ele>
        <time>2015-10-11T07:16:09Z</time>
      </trkpt>
      <trkpt lat="44.61702" lon="6.25548">
        <ele>1852.1</ele>
        <time>2015-10-11T07:16:35Z</time>
      </trkpt>
      <trkpt lat="44.61701" lon="6.25549">
        <ele>1852.43</ele>
        <time>2015-10-11T07:16:58Z</time>
      </trkpt>
      <trkpt lat="44.61702" lon="6.25547">
        <ele>1852.4</ele>
        <time>2015-10-11T07:17:23Z</time>
      </trkpt>
      <trkpt lat="44.61702" lon="6.25551">
        <ele>1852.21</ele>
        <time>2015-10-11T07:17:48Z</time>
      </trkpt>
      <trkpt lat="44.61703" lon="6.25552">
        <ele>1852.19</ele>
        <time>2015-10-11T07:18:13Z</time>
      </trkpt>
      <trkpt lat="44.61702" lon="6.25552">
        <ele>1852.12</ele>
        <time>2015-10-11T07:18:51Z</time>
      </trkpt>
      <trkpt lat="44.61702" lon="6.25554">
        <ele>1852.02</ele>
        <time>2015-10-11T07:19:11Z</time>
      </trkpt>
      <trkpt lat="44.61701" lon="6.25552">
        <ele>1852.03</ele>
        <time>2015-10-11T07:19:40Z</time>
      </trkpt>
      <trkpt lat="44.61701" lon="6.2555">
        <ele>1851.8</ele>
        <time>2015-10-11T07:20:11Z</time>
      </trkpt>
      <trkpt lat="44.61699" lon="6.25547">
        <ele>1851.8</ele>
        <time>2015-10-11T07:20:42Z</time>
      </trkpt>
      <trkpt lat="44.61693" lon="6.25549">
        <ele>1852.07</ele>
        <time>2015-10-11T07:21:04Z</time>
      </trkpt>
      <trkpt lat="44.6169" lon="6.25554">
        <ele>1852.4</ele>
        <time>2015-10-11T07:21:09Z</time>
      </trkpt>
      <trkpt lat="44.61684" lon="6.25571">
        <ele>1853.16</ele>
        <time>2015-10-11T07:21:24Z</time>
      </trkpt>
      <trkpt lat="44.61675" lon="6.25593">
        <ele>1854.23</ele>
        <time>2015-10-11T07:21:41Z</time>
      </trkpt>
      <trkpt lat="44.61667" lon="6.25605">
        <ele>1856.08</ele>
        <time>2015-10-11T07:21:55Z</time>
      </trkpt>
      <trkpt lat="44.61659" lon="6.25619">
        <ele>1858.83</ele>
        <time>2015-10-11T07:22:14Z</time>
      </trkpt>
      <trkpt lat="44.61646" lon="6.25628">
        <ele>1861.41</ele>
        <time>2015-10-11T07:22:32Z</time>
      </trkpt>
      <trkpt lat="44.61636" lon="6.25633">
        <ele>1863.23</ele>
        <time>2015-10-11T07:22:47Z</time>
      </trkpt>
      <trkpt lat="44.61625" lon="6.25636">
        <ele>1864.72</ele>
        <time>2015-10-11T07:23:04Z</time>
      </trkpt>
      <trkpt lat="44.61612" lon="6.25642">
        <ele>1866.73</ele>
        <time>2015-10-11T07:23:22Z</time>
      </trkpt>
      <trkpt lat="44.61596" lon="6.25644">
        <ele>1869.74</ele>
        <time>2015-10-11T07:23:46Z</time>
      </trkpt>
      <trkpt lat="44.6159" lon="6.25647">
        <ele>1871.24</ele>
        <time>2015-10-11T07:23:58Z</time>
      </trkpt>
      <trkpt lat="44.61577" lon="6.25652">
        <ele>1873.62</ele>
        <time>2015-10-11T07:24:16Z</time>
      </trkpt>
      <trkpt lat="44.61564" lon="6.25659">
        <ele>1876.71</ele>
        <time>2015-10-11T07:24:38Z</time>
      </trkpt>
      <trkpt lat="44.61552" lon="6.2566">
        <ele>1879.32</ele>
        <time>2015-10-11T07:24:57Z</time>
      </trkpt>
      <trkpt lat="44.61541" lon="6.25666">
        <ele>1881.45</ele>
        <time>2015-10-11T07:25:14Z</time>
      </trkpt>
      <trkpt lat="44.6153" lon="6.25668">
        <ele>1883.62</ele>
        <time>2015-10-11T07:25:33Z</time>
      </trkpt>
      <trkpt lat="44.61518" lon="6.25675">
        <ele>1885.22</ele>
        <time>2015-10-11T07:25:54Z</time>
      </trkpt>
      <trkpt lat="44.61508" lon="6.2568">
        <ele>1887.76</ele>
        <time>2015-10-11T07:26:15Z</time>
      </trkpt>
      <trkpt lat="44.61501" lon="6.25684">
        <ele>1889.11</ele>
        <time>2015-10-11T07:26:32Z</time>
      </trkpt>
      <trkpt lat="44.61494" lon="6.25694">
        <ele>1892.47</ele>
        <time>2015-10-11T07:26:53Z</time>
      </trkpt>
      <trkpt lat="44.61489" lon="6.25706">
        <ele>1895.59</ele>
        <time>2015-10-11T07:27:11Z</time>
      </trkpt>
      <trkpt lat="44.61479" lon="6.25721">
        <ele>1898.04</ele>
        <time>2015-10-11T07:27:31Z</time>
      </trkpt>
      <trkpt lat="44.61471" lon="6.25729">
        <ele>1899.35</ele>
        <time>2015-10-11T07:27:47Z</time>
      </trkpt>
      <trkpt lat="44.61458" lon="6.2573">
        <ele>1901.28</ele>
        <time>2015-10-11T07:28:04Z</time>
      </trkpt>
      <trkpt lat="44.61447" lon="6.25738">
        <ele>1903.09</ele>
        <time>2015-10-11T07:28:23Z</time>
      </trkpt>
      <trkpt lat="44.61446" lon="6.25755">
        <ele>1904.46</ele>
        <time>2015-10-11T07:28:41Z</time>
      </trkpt>
      <trkpt lat="44.6145" lon="6.25769">
        <ele>1906.82</ele>
        <time>2015-10-11T07:29:00Z</time>
      </trkpt>
      <trkpt lat="44.61455" lon="6.25784">
        <ele>1909.45</ele>
        <time>2015-10-11T07:29:20Z</time>
      </trkpt>
      <trkpt lat="44.6146" lon="6.25797">
        <ele>1911.07</ele>
        <time>2015-10-11T07:29:37Z</time>
      </trkpt>
      <trkpt lat="44.61465" lon="6.25808">
        <ele>1911.98</ele>
        <time>2015-10-11T07:29:56Z</time>
      </trkpt>
      <trkpt lat="44.61458" lon="6.25813">
        <ele>1914.07</ele>
        <time>2015-10-11T07:30:13Z</time>
      </trkpt>
      <trkpt lat="44.61446" lon="6.25808">
        <ele>1916.28</ele>
        <time>2015-10-11T07:30:29Z</time>
      </trkpt>
      <trkpt lat="44.61435" lon="6.25801">
        <ele>1917.88</ele>
        <time>2015-10-11T07:30:45Z</time>
      </trkpt>
      <trkpt lat="44.61426" lon="6.25805">
        <ele>1919.62</ele>
        <time>2015-10-11T07:31:00Z</time>
      </trkpt>
      <trkpt lat="44.61418" lon="6.25805">
        <ele>1922.64</ele>
        <time>2015-10-11T07:31:18Z</time>
      </trkpt>
      <trkpt lat="44.6142" lon="6.2582">
        <ele>1925.5</ele>
        <time>2015-10-11T07:31:38Z</time>
      </trkpt>
      <trkpt lat="44.61421" lon="6.2583">
        <ele>1928.54</ele>
        <time>2015-10-11T07:32:01Z</time>
      </trkpt>
      <trkpt lat="44.61425" lon="6.25841">
        <ele>1931.3</ele>
        <time>2015-10-11T07:32:18Z</time>
      </trkpt>
      <trkpt lat="44.61423" lon="6.25852">
        <ele>1934.43</ele>
        <time>2015-10-11T07:32:43Z</time>
      </trkpt>
      <trkpt lat="44.61419" lon="6.25856">
        <ele>1937.13</ele>
        <time>2015-10-11T07:33:02Z</time>
      </trkpt>
      <trkpt lat="44.61415" lon="6.25865">
        <ele>1940.24</ele>
        <time>2015-10-11T07:33:25Z</time>
      </trkpt>
      <trkpt lat="44.61412" lon="6.25875">
        <ele>1943.31</ele>
        <time>2015-10-11T07:33:46Z</time>
      </trkpt>
      <trkpt lat="44.61409" lon="6.25881">
        <ele>1946.31</ele>
        <time>2015-10-11T07:34:06Z</time>
      </trkpt>
      <trkpt lat="44.61405" lon="6.25887">
        <ele>1949.14</ele>
        <time>2015-10-11T07:34:25Z</time>
      </trkpt>
      <trkpt lat="44.61401" lon="6.25893">
        <ele>1951.13</ele>
        <time>2015-10-11T07:34:46Z</time>
      </trkpt>
      <trkpt lat="44.61401" lon="6.25901">
        <ele>1953.65</ele>
        <time>2015-10-11T07:35:05Z</time>
      </trkpt>
      <trkpt lat="44.61398" lon="6.25909">
        <ele>1956.74</ele>
        <time>2015-10-11T07:35:26Z</time>
      </trkpt>
      <trkpt lat="44.61391" lon="6.25918">
        <ele>1959.35</ele>
        <time>2015-10-11T07:35:43Z</time>
      </trkpt>
      <trkpt lat="44.6139" lon="6.25928">
        <ele>1961.34</ele>
        <time>2015-10-11T07:36:00Z</time>
      </trkpt>
      <trkpt lat="44.6139" lon="6.25929">
        <ele>1961.05</ele>
        <time>2015-10-11T07:36:21Z</time>
      </trkpt>
      <trkpt lat="44.61387" lon="6.25931">
        <ele>1960.95</ele>
        <time>2015-10-11T07:36:37Z</time>
      </trkpt>
      <trkpt lat="44.61382" lon="6.25929">
        <ele>1960.39</ele>
        <time>2015-10-11T07:36:58Z</time>
      </trkpt>
      <trkpt lat="44.61377" lon="6.25932">
        <ele>1960.34</ele>
        <time>2015-10-11T07:37:08Z</time>
      </trkpt>
      <trkpt lat="44.6137" lon="6.25941">
        <ele>1962.72</ele>
        <time>2015-10-11T07:37:22Z</time>
      </trkpt>
      <trkpt lat="44.61357" lon="6.25951">
        <ele>1964.52</ele>
        <time>2015-10-11T07:37:42Z</time>
      </trkpt>
      <trkpt lat="44.61345" lon="6.2596">
        <ele>1965.95</ele>
        <time>2015-10-11T07:37:59Z</time>
      </trkpt>
      <trkpt lat="44.61342" lon="6.25961">
        <ele>1966.21</ele>
        <time>2015-10-11T07:38:02Z</time>
      </trkpt>
      <trkpt lat="44.61326" lon="6.25963">
        <ele>1967.52</ele>
        <time>2015-10-11T07:38:19Z</time>
      </trkpt>
      <trkpt lat="44.61312" lon="6.25968">
        <ele>1969.04</ele>
        <time>2015-10-11T07:38:38Z</time>
      </trkpt>
      <trkpt lat="44.61303" lon="6.25978">
        <ele>1969.5</ele>
        <time>2015-10-11T07:38:57Z</time>
      </trkpt>
      <trkpt lat="44.61309" lon="6.25982">
        <ele>1970.33</ele>
        <time>2015-10-11T07:39:05Z</time>
      </trkpt>
      <trkpt lat="44.6132" lon="6.25995">
        <ele>1971.8</ele>
        <time>2015-10-11T07:39:23Z</time>
      </trkpt>
      <trkpt lat="44.61329" lon="6.26013">
        <ele>1971.4</ele>
        <time>2015-10-11T07:39:42Z</time>
      </trkpt>
      <trkpt lat="44.61333" lon="6.26027">
        <ele>1970.85</ele>
        <time>2015-10-11T07:39:58Z</time>
      </trkpt>
      <trkpt lat="44.61339" lon="6.26038">
        <ele>1972.25</ele>
        <time>2015-10-11T07:40:18Z</time>
      </trkpt>
      <trkpt lat="44.61349" lon="6.26048">
        <ele>1974.33</ele>
        <time>2015-10-11T07:40:34Z</time>
      </trkpt>
      <trkpt lat="44.61362" lon="6.26054">
        <ele>1977.42</ele>
        <time>2015-10-11T07:40:51Z</time>
      </trkpt>
      <trkpt lat="44.61374" lon="6.26057">
        <ele>1979.17</ele>
        <time>2015-10-11T07:41:07Z</time>
      </trkpt>
      <trkpt lat="44.61391" lon="6.26054">
        <ele>1981.64</ele>
        <time>2015-10-11T07:41:30Z</time>
      </trkpt>
      <trkpt lat="44.61405" lon="6.26039">
        <ele>1984.44</ele>
        <time>2015-10-11T07:41:52Z</time>
      </trkpt>
      <trkpt lat="44.61416" lon="6.26031">
        <ele>1986.42</ele>
        <time>2015-10-11T07:42:14Z</time>
      </trkpt>
      <trkpt lat="44.61417" lon="6.26035">
        <ele>1987.3</ele>
        <time>2015-10-11T07:42:32Z</time>
      </trkpt>
      <trkpt lat="44.61411" lon="6.26038">
        <ele>1988.42</ele>
        <time>2015-10-11T07:42:50Z</time>
      </trkpt>
      <trkpt lat="44.61412" lon="6.26041">
        <ele>1988.96</ele>
        <time>2015-10-11T07:42:57Z</time>
      </trkpt>
      <trkpt lat="44.61414" lon="6.26047">
        <ele>1989.2</ele>
        <time>2015-10-11T07:43:01Z</time>
      </trkpt>
      <trkpt lat="44.61422" lon="6.26061">
        <ele>1989.82</ele>
        <time>2015-10-11T07:43:16Z</time>
      </trkpt>
      <trkpt lat="44.61423" lon="6.26075">
        <ele>1989.96</ele>
        <time>2015-10-11T07:43:26Z</time>
      </trkpt>
      <trkpt lat="44.61431" lon="6.26094">
        <ele>1989.4</ele>
        <time>2015-10-11T07:43:41Z</time>
      </trkpt>
      <trkpt lat="44.61441" lon="6.26116">
        <ele>1989.21</ele>
        <time>2015-10-11T07:43:58Z</time>
      </trkpt>
      <trkpt lat="44.61448" lon="6.26141">
        <ele>1988.09</ele>
        <time>2015-10-11T07:44:17Z</time>
      </trkpt>
      <trkpt lat="44.61453" lon="6.26158">
        <ele>1987.41</ele>
        <time>2015-10-11T07:44:30Z</time>
      </trkpt>
      <trkpt lat="44.61461" lon="6.26171">
        <ele>1987.48</ele>
        <time>2015-10-11T07:44:43Z</time>
      </trkpt>
      <trkpt lat="44.6147" lon="6.26184">
        <ele>1987.83</ele>
        <time>2015-10-11T07:44:57Z</time>
      </trkpt>
      <trkpt lat="44.61472" lon="6.26186">
        <ele>1987.82</ele>
        <time>2015-10-11T07:45:00Z</time>
      </trkpt>
      <trkpt lat="44.61484" lon="6.26204">
        <ele>1988.41</ele>
        <time>2015-10-11T07:45:17Z</time>
      </trkpt>
      <trkpt lat="44.61494" lon="6.26214">
        <ele>1989.71</ele>
        <time>2015-10-11T07:45:33Z</time>
      </trkpt>
      <trkpt lat="44.61503" lon="6.26228">
        <ele>1992.56</ele>
        <time>2015-10-11T07:45:57Z</time>
      </trkpt>
      <trkpt lat="44.61513" lon="6.26239">
        <ele>1995.57</ele>
        <time>2015-10-11T07:46:19Z</time>
      </trkpt>
      <trkpt lat="44.61519" lon="6.26242">
        <ele>1996.61</ele>
        <time>2015-10-11T07:46:32Z</time>
      </trkpt>
      <trkpt lat="44.61532" lon="6.2625">
        <ele>1999.12</ele>
        <time>2015-10-11T07:46:56Z</time>
      </trkpt>
      <trkpt lat="44.61535" lon="6.26253">
        <ele>2000.2</ele>
        <time>2015-10-11T07:47:17Z</time>
      </trkpt>
      <trkpt lat="44.61544" lon="6.26255">
        <ele>2001.59</ele>
        <time>2015-10-11T07:47:35Z</time>
      </trkpt>
      <trkpt lat="44.61555" lon="6.26254">
        <ele>2003.05</ele>
        <time>2015-10-11T07:47:52Z</time>
      </trkpt>
      <trkpt lat="44.61575" lon="6.26254">
        <ele>2005.79</ele>
        <time>2015-10-11T07:48:20Z</time>
      </trkpt>
      <trkpt lat="44.61593" lon="6.26259">
        <ele>2008.85</ele>
        <time>2015-10-11T07:48:44Z</time>
      </trkpt>
      <trkpt lat="44.61601" lon="6.26256">
        <ele>2010.77</ele>
        <time>2015-10-11T07:49:06Z</time>
      </trkpt>
      <trkpt lat="44.6161" lon="6.26257">
        <ele>2012.34</ele>
        <time>2015-10-11T07:49:26Z</time>
      </trkpt>
      <trkpt lat="44.61601" lon="6.26262">
        <ele>2015.34</ele>
        <time>2015-10-11T07:49:46Z</time>
      </trkpt>
      <trkpt lat="44.61589" lon="6.26268">
        <ele>2018</ele>
        <time>2015-10-11T07:50:08Z</time>
      </trkpt>
      <trkpt lat="44.61577" lon="6.26275">
        <ele>2020.84</ele>
        <time>2015-10-11T07:50:29Z</time>
      </trkpt>
      <trkpt lat="44.61565" lon="6.26286">
        <ele>2023.89</ele>
        <time>2015-10-11T07:50:53Z</time>
      </trkpt>
      <trkpt lat="44.61554" lon="6.26297">
        <ele>2026.84</ele>
        <time>2015-10-11T07:51:16Z</time>
      </trkpt>
      <trkpt lat="44.61538" lon="6.26304">
        <ele>2029.91</ele>
        <time>2015-10-11T07:51:39Z</time>
      </trkpt>
      <trkpt lat="44.6153" lon="6.2631">
        <ele>2032.96</ele>
        <time>2015-10-11T07:51:59Z</time>
      </trkpt>
      <trkpt lat="44.61521" lon="6.26315">
        <ele>2035.07</ele>
        <time>2015-10-11T07:52:18Z</time>
      </trkpt>
      <trkpt lat="44.61514" lon="6.26312">
        <ele>2036.3</ele>
        <time>2015-10-11T07:52:33Z</time>
      </trkpt>
      <trkpt lat="44.61512" lon="6.26312">
        <ele>2036.45</ele>
        <time>2015-10-11T07:52:35Z</time>
      </trkpt>
      <trkpt lat="44.61503" lon="6.26312">
        <ele>2037.32</ele>
        <time>2015-10-11T07:52:48Z</time>
      </trkpt>
      <trkpt lat="44.6149" lon="6.26322">
        <ele>2040.21</ele>
        <time>2015-10-11T07:53:10Z</time>
      </trkpt>
      <trkpt lat="44.61476" lon="6.26324">
        <ele>2042.45</ele>
        <time>2015-10-11T07:53:27Z</time>
      </trkpt>
      <trkpt lat="44.61465" lon="6.26322">
        <ele>2045.49</ele>
        <time>2015-10-11T07:53:45Z</time>
      </trkpt>
      <trkpt lat="44.61453" lon="6.26318">
        <ele>2048.56</ele>
        <time>2015-10-11T07:54:06Z</time>
      </trkpt>
      <trkpt lat="44.61448" lon="6.26305">
        <ele>2050.27</ele>
        <time>2015-10-11T07:54:21Z</time>
      </trkpt>
      <trkpt lat="44.61439" lon="6.26295">
        <ele>2053.17</ele>
        <time>2015-10-11T07:54:42Z</time>
      </trkpt>
      <trkpt lat="44.61428" lon="6.26293">
        <ele>2054.43</ele>
        <time>2015-10-11T07:55:00Z</time>
      </trkpt>
      <trkpt lat="44.61422" lon="6.26305">
        <ele>2055.98</ele>
        <time>2015-10-11T07:55:19Z</time>
      </trkpt>
      <trkpt lat="44.61416" lon="6.26318">
        <ele>2056.93</ele>
        <time>2015-10-11T07:55:42Z</time>
      </trkpt>
      <trkpt lat="44.61407" lon="6.26332">
        <ele>2058.46</ele>
        <time>2015-10-11T07:56:00Z</time>
      </trkpt>
      <trkpt lat="44.61403" lon="6.26337">
        <ele>2058.87</ele>
        <time>2015-10-11T07:56:06Z</time>
      </trkpt>
      <trkpt lat="44.61393" lon="6.26348">
        <ele>2060.46</ele>
        <time>2015-10-11T07:56:23Z</time>
      </trkpt>
      <trkpt lat="44.61383" lon="6.26353">
        <ele>2061.92</ele>
        <time>2015-10-11T07:56:38Z</time>
      </trkpt>
      <trkpt lat="44.61368" lon="6.26361">
        <ele>2063.23</ele>
        <time>2015-10-11T07:56:57Z</time>
      </trkpt>
      <trkpt lat="44.61357" lon="6.26367">
        <ele>2066.08</ele>
        <time>2015-10-11T07:57:16Z</time>
      </trkpt>
      <trkpt lat="44.61341" lon="6.26368">
        <ele>2069.24</ele>
        <time>2015-10-11T07:57:41Z</time>
      </trkpt>
      <trkpt lat="44.6133" lon="6.26369">
        <ele>2072.43</ele>
        <time>2015-10-11T07:57:59Z</time>
      </trkpt>
      <trkpt lat="44.6132" lon="6.26377">
        <ele>2074.89</ele>
        <time>2015-10-11T07:58:16Z</time>
      </trkpt>
      <trkpt lat="44.61316" lon="6.26384">
        <ele>2076.51</ele>
        <time>2015-10-11T07:58:30Z</time>
      </trkpt>
      <trkpt lat="44.61308" lon="6.26397">
        <ele>2078.88</ele>
        <time>2015-10-11T07:58:48Z</time>
      </trkpt>
      <trkpt lat="44.61298" lon="6.2641">
        <ele>2080.83</ele>
        <time>2015-10-11T07:59:05Z</time>
      </trkpt>
      <trkpt lat="44.6129" lon="6.26423">
        <ele>2082.61</ele>
        <time>2015-10-11T07:59:22Z</time>
      </trkpt>
      <trkpt lat="44.61294" lon="6.26426">
        <ele>2084.04</ele>
        <time>2015-10-11T07:59:35Z</time>
      </trkpt>
      <trkpt lat="44.61309" lon="6.26427">
        <ele>2085.89</ele>
        <time>2015-10-11T07:59:53Z</time>
      </trkpt>
      <trkpt lat="44.61318" lon="6.26429">
        <ele>2088.14</ele>
        <time>2015-10-11T08:00:11Z</time>
      </trkpt>
      <trkpt lat="44.61328" lon="6.26427">
        <ele>2088.92</ele>
        <time>2015-10-11T08:00:27Z</time>
      </trkpt>
      <trkpt lat="44.61346" lon="6.26425">
        <ele>2089.96</ele>
        <time>2015-10-11T08:00:48Z</time>
      </trkpt>
      <trkpt lat="44.61351" lon="6.26423">
        <ele>2090.16</ele>
        <time>2015-10-11T08:00:54Z</time>
      </trkpt>
      <trkpt lat="44.61365" lon="6.26423">
        <ele>2090.9</ele>
        <time>2015-10-11T08:01:11Z</time>
      </trkpt>
      <trkpt lat="44.61368" lon="6.26421">
        <ele>2091.01</ele>
        <time>2015-10-11T08:01:35Z</time>
      </trkpt>
      <trkpt lat="44.61369" lon="6.2642">
        <ele>2091.06</ele>
        <time>2015-10-11T08:02:05Z</time>
      </trkpt>
      <trkpt lat="44.61369" lon="6.2642">
        <ele>2091.38</ele>
        <time>2015-10-11T08:02:24Z</time>
      </trkpt>
      <trkpt lat="44.61382" lon="6.26425">
        <ele>2091.68</ele>
        <time>2015-10-11T08:02:41Z</time>
      </trkpt>
      <trkpt lat="44.61388" lon="6.26426">
        <ele>2093.09</ele>
        <time>2015-10-11T08:02:55Z</time>
      </trkpt>
      <trkpt lat="44.61397" lon="6.26425">
        <ele>2094.68</ele>
        <time>2015-10-11T08:03:10Z</time>
      </trkpt>
      <trkpt lat="44.61407" lon="6.26429">
        <ele>2096.55</ele>
        <time>2015-10-11T08:03:24Z</time>
      </trkpt>
      <trkpt lat="44.61416" lon="6.26436">
        <ele>2098.63</ele>
        <time>2015-10-11T08:03:40Z</time>
      </trkpt>
      <trkpt lat="44.61414" lon="6.26442">
        <ele>2100.89</ele>
        <time>2015-10-11T08:03:58Z</time>
      </trkpt>
      <trkpt lat="44.61403" lon="6.26443">
        <ele>2103.74</ele>
        <time>2015-10-11T08:04:19Z</time>
      </trkpt>
      <trkpt lat="44.61393" lon="6.2645">
        <ele>2105.63</ele>
        <time>2015-10-11T08:04:35Z</time>
      </trkpt>
      <trkpt lat="44.61385" lon="6.26459">
        <ele>2107.4</ele>
        <time>2015-10-11T08:04:51Z</time>
      </trkpt>
      <trkpt lat="44.61381" lon="6.2647">
        <ele>2109.12</ele>
        <time>2015-10-11T08:05:07Z</time>
      </trkpt>
      <trkpt lat="44.61376" lon="6.26484">
        <ele>2111.2</ele>
        <time>2015-10-11T08:05:24Z</time>
      </trkpt>
      <trkpt lat="44.61366" lon="6.2649">
        <ele>2113.74</ele>
        <time>2015-10-11T08:05:41Z</time>
      </trkpt>
      <trkpt lat="44.61357" lon="6.26496">
        <ele>2115.44</ele>
        <time>2015-10-11T08:05:56Z</time>
      </trkpt>
      <trkpt lat="44.61358" lon="6.26504">
        <ele>2117.16</ele>
        <time>2015-10-11T08:06:13Z</time>
      </trkpt>
      <trkpt lat="44.61368" lon="6.26511">
        <ele>2119.01</ele>
        <time>2015-10-11T08:06:30Z</time>
      </trkpt>
      <trkpt lat="44.61376" lon="6.26513">
        <ele>2120.66</ele>
        <time>2015-10-11T08:06:44Z</time>
      </trkpt>
      <trkpt lat="44.61383" lon="6.26514">
        <ele>2122.16</ele>
        <time>2015-10-11T08:06:54Z</time>
      </trkpt>
      <trkpt lat="44.61395" lon="6.26516">
        <ele>2123.92</ele>
        <time>2015-10-11T08:07:10Z</time>
      </trkpt>
      <trkpt lat="44.61405" lon="6.26525">
        <ele>2125.46</ele>
        <time>2015-10-11T08:07:28Z</time>
      </trkpt>
      <trkpt lat="44.61415" lon="6.26536">
        <ele>2127.64</ele>
        <time>2015-10-11T08:07:44Z</time>
      </trkpt>
      <trkpt lat="44.61426" lon="6.26545">
        <ele>2129.24</ele>
        <time>2015-10-11T08:08:02Z</time>
      </trkpt>
      <trkpt lat="44.61419" lon="6.26555">
        <ele>2132.28</ele>
        <time>2015-10-11T08:08:20Z</time>
      </trkpt>
      <trkpt lat="44.61406" lon="6.26565">
        <ele>2134.13</ele>
        <time>2015-10-11T08:08:39Z</time>
      </trkpt>
      <trkpt lat="44.61397" lon="6.26569">
        <ele>2135.93</ele>
        <time>2015-10-11T08:08:53Z</time>
      </trkpt>
      <trkpt lat="44.61387" lon="6.26572">
        <ele>2137.47</ele>
        <time>2015-10-11T08:09:06Z</time>
      </trkpt>
      <trkpt lat="44.61374" lon="6.26576">
        <ele>2140.06</ele>
        <time>2015-10-11T08:09:26Z</time>
      </trkpt>
      <trkpt lat="44.61373" lon="6.2659">
        <ele>2142.14</ele>
        <time>2015-10-11T08:09:41Z</time>
      </trkpt>
      <trkpt lat="44.61379" lon="6.26603">
        <ele>2144.05</ele>
        <time>2015-10-11T08:09:56Z</time>
      </trkpt>
      <trkpt lat="44.61388" lon="6.26615">
        <ele>2146.39</ele>
        <time>2015-10-11T08:10:15Z</time>
      </trkpt>
      <trkpt lat="44.61391" lon="6.26633">
        <ele>2148.15</ele>
        <time>2015-10-11T08:10:32Z</time>
      </trkpt>
      <trkpt lat="44.61395" lon="6.26649">
        <ele>2149.56</ele>
        <time>2015-10-11T08:10:47Z</time>
      </trkpt>
      <trkpt lat="44.61406" lon="6.26655">
        <ele>2150.89</ele>
        <time>2015-10-11T08:11:03Z</time>
      </trkpt>
      <trkpt lat="44.61422" lon="6.26662">
        <ele>2153.23</ele>
        <time>2015-10-11T08:11:22Z</time>
      </trkpt>
      <trkpt lat="44.6143" lon="6.26669">
        <ele>2155.14</ele>
        <time>2015-10-11T08:11:41Z</time>
      </trkpt>
      <trkpt lat="44.61416" lon="6.26674">
        <ele>2157.77</ele>
        <time>2015-10-11T08:12:02Z</time>
      </trkpt>
      <trkpt lat="44.61407" lon="6.26684">
        <ele>2160.11</ele>
        <time>2015-10-11T08:12:19Z</time>
      </trkpt>
      <trkpt lat="44.61405" lon="6.26689">
        <ele>2160.79</ele>
        <time>2015-10-11T08:12:25Z</time>
      </trkpt>
      <trkpt lat="44.61397" lon="6.26705">
        <ele>2162.74</ele>
        <time>2015-10-11T08:12:45Z</time>
      </trkpt>
      <trkpt lat="44.61396" lon="6.26708">
        <ele>2163.2</ele>
        <time>2015-10-11T08:12:49Z</time>
      </trkpt>
      <trkpt lat="44.61391" lon="6.26719">
        <ele>2165.15</ele>
        <time>2015-10-11T08:13:05Z</time>
      </trkpt>
      <trkpt lat="44.61387" lon="6.2673">
        <ele>2167.31</ele>
        <time>2015-10-11T08:13:23Z</time>
      </trkpt>
      <trkpt lat="44.61389" lon="6.2673">
        <ele>2167.52</ele>
        <time>2015-10-11T08:13:45Z</time>
      </trkpt>
      <trkpt lat="44.61387" lon="6.2673">
        <ele>2167.68</ele>
        <time>2015-10-11T08:14:04Z</time>
      </trkpt>
      <trkpt lat="44.61386" lon="6.2673">
        <ele>2167.67</ele>
        <time>2015-10-11T08:14:27Z</time>
      </trkpt>
      <trkpt lat="44.61386" lon="6.26731">
        <ele>2167.34</ele>
        <time>2015-10-11T08:14:49Z</time>
      </trkpt>
      <trkpt lat="44.61386" lon="6.26732">
        <ele>2167.27</ele>
        <time>2015-10-11T08:15:22Z</time>
      </trkpt>
      <trkpt lat="44.61386" lon="6.26733">
        <ele>2167.09</ele>
        <time>2015-10-11T08:15:54Z</time>
      </trkpt>
      <trkpt lat="44.61384" lon="6.26733">
        <ele>2167.61</ele>
        <time>2015-10-11T08:16:24Z</time>
      </trkpt>
      <trkpt lat="44.61384" lon="6.26735">
        <ele>2167.82</ele>
        <time>2015-10-11T08:16:56Z</time>
      </trkpt>
      <trkpt lat="44.61384" lon="6.26733">
        <ele>2166.45</ele>
        <time>2015-10-11T08:17:30Z</time>
      </trkpt>
      <trkpt lat="44.61384" lon="6.26733">
        <ele>2167.69</ele>
        <time>2015-10-11T08:18:13Z</time>
      </trkpt>
      <trkpt lat="44.61384" lon="6.26733">
        <ele>2167.72</ele>
        <time>2015-10-11T08:18:50Z</time>
      </trkpt>
      <trkpt lat="44.61384" lon="6.26733">
        <ele>2168.69</ele>
        <time>2015-10-11T08:19:21Z</time>
      </trkpt>
      <trkpt lat="44.61386" lon="6.26732">
        <ele>2168.97</ele>
        <time>2015-10-11T08:20:00Z</time>
      </trkpt>
      <trkpt lat="44.61386" lon="6.26733">
        <ele>2169.05</ele>
        <time>2015-10-11T08:20:17Z</time>
      </trkpt>
      <trkpt lat="44.61385" lon="6.26735">
        <ele>2169.07</ele>
        <time>2015-10-11T08:20:37Z</time>
      </trkpt>
      <trkpt lat="44.61385" lon="6.26736">
        <ele>2169.08</ele>
        <time>2015-10-11T08:20:56Z</time>
      </trkpt>
      <trkpt lat="44.61382" lon="6.26733">
        <ele>2169.46</ele>
        <time>2015-10-11T08:21:21Z</time>
      </trkpt>
      <trkpt lat="44.61372" lon="6.26727">
        <ele>2172.71</ele>
        <time>2015-10-11T08:21:38Z</time>
      </trkpt>
      <trkpt lat="44.61367" lon="6.2672">
        <ele>2175.77</ele>
        <time>2015-10-11T08:21:53Z</time>
      </trkpt>
      <trkpt lat="44.61362" lon="6.26716">
        <ele>2178.19</ele>
        <time>2015-10-11T08:22:09Z</time>
      </trkpt>
      <trkpt lat="44.61356" lon="6.26716">
        <ele>2180.77</ele>
        <time>2015-10-11T08:22:27Z</time>
      </trkpt>
      <trkpt lat="44.61348" lon="6.26714">
        <ele>2183.79</ele>
        <time>2015-10-11T08:22:46Z</time>
      </trkpt>
      <trkpt lat="44.6134" lon="6.26708">
        <ele>2186.84</ele>
        <time>2015-10-11T08:23:03Z</time>
      </trkpt>
      <trkpt lat="44.61329" lon="6.26706">
        <ele>2189.78</ele>
        <time>2015-10-11T08:23:22Z</time>
      </trkpt>
      <trkpt lat="44.61322" lon="6.26703">
        <ele>2192.17</ele>
        <time>2015-10-11T08:23:41Z</time>
      </trkpt>
      <trkpt lat="44.61314" lon="6.267">
        <ele>2195.33</ele>
        <time>2015-10-11T08:23:59Z</time>
      </trkpt>
      <trkpt lat="44.61309" lon="6.26701">
        <ele>2197.66</ele>
        <time>2015-10-11T08:24:15Z</time>
      </trkpt>
      <trkpt lat="44.61301" lon="6.26699">
        <ele>2200.83</ele>
        <time>2015-10-11T08:24:33Z</time>
      </trkpt>
      <trkpt lat="44.61293" lon="6.26701">
        <ele>2203.75</ele>
        <time>2015-10-11T08:24:50Z</time>
      </trkpt>
      <trkpt lat="44.61287" lon="6.26704">
        <ele>2206.59</ele>
        <time>2015-10-11T08:25:07Z</time>
      </trkpt>
      <trkpt lat="44.61281" lon="6.26711">
        <ele>2209.68</ele>
        <time>2015-10-11T08:25:25Z</time>
      </trkpt>
      <trkpt lat="44.61274" lon="6.2671">
        <ele>2212.38</ele>
        <time>2015-10-11T08:25:43Z</time>
      </trkpt>
      <trkpt lat="44.61269" lon="6.26718">
        <ele>2215.52</ele>
        <time>2015-10-11T08:26:01Z</time>
      </trkpt>
      <trkpt lat="44.61265" lon="6.2673">
        <ele>2218.54</ele>
        <time>2015-10-11T08:26:18Z</time>
      </trkpt>
      <trkpt lat="44.61259" lon="6.26729">
        <ele>2221.29</ele>
        <time>2015-10-11T08:26:34Z</time>
      </trkpt>
      <trkpt lat="44.61254" lon="6.2674">
        <ele>2224.44</ele>
        <time>2015-10-11T08:26:53Z</time>
      </trkpt>
      <trkpt lat="44.61249" lon="6.26742">
        <ele>2227.55</ele>
        <time>2015-10-11T08:27:10Z</time>
      </trkpt>
      <trkpt lat="44.61244" lon="6.2675">
        <ele>2230.38</ele>
        <time>2015-10-11T08:27:28Z</time>
      </trkpt>
      <trkpt lat="44.61236" lon="6.26759">
        <ele>2232.94</ele>
        <time>2015-10-11T08:27:45Z</time>
      </trkpt>
      <trkpt lat="44.6123" lon="6.26765">
        <ele>2234.73</ele>
        <time>2015-10-11T08:28:03Z</time>
      </trkpt>
      <trkpt lat="44.61224" lon="6.2677">
        <ele>2235.12</ele>
        <time>2015-10-11T08:28:20Z</time>
      </trkpt>
      <trkpt lat="44.61224" lon="6.26771">
        <ele>2235.3</ele>
        <time>2015-10-11T08:28:44Z</time>
      </trkpt>
      <trkpt lat="44.61222" lon="6.26777">
        <ele>2235.04</ele>
        <time>2015-10-11T08:28:58Z</time>
      </trkpt>
      <trkpt lat="44.6121" lon="6.26788">
        <ele>2234.81</ele>
        <time>2015-10-11T08:29:15Z</time>
      </trkpt>
      <trkpt lat="44.61195" lon="6.268">
        <ele>2236</ele>
        <time>2015-10-11T08:29:35Z</time>
      </trkpt>
      <trkpt lat="44.61184" lon="6.26812">
        <ele>2239.02</ele>
        <time>2015-10-11T08:29:58Z</time>
      </trkpt>
      <trkpt lat="44.61172" lon="6.26822">
        <ele>2242.1</ele>
        <time>2015-10-11T08:30:20Z</time>
      </trkpt>
      <trkpt lat="44.61168" lon="6.26826">
        <ele>2243.96</ele>
        <time>2015-10-11T08:30:38Z</time>
      </trkpt>
      <trkpt lat="44.61159" lon="6.26833">
        <ele>2245.86</ele>
        <time>2015-10-11T08:30:57Z</time>
      </trkpt>
      <trkpt lat="44.61153" lon="6.26839">
        <ele>2248.98</ele>
        <time>2015-10-11T08:31:14Z</time>
      </trkpt>
      <trkpt lat="44.6115" lon="6.26841">
        <ele>2250.5</ele>
        <time>2015-10-11T08:31:28Z</time>
      </trkpt>
      <trkpt lat="44.61142" lon="6.26848">
        <ele>2253.58</ele>
        <time>2015-10-11T08:31:47Z</time>
      </trkpt>
      <trkpt lat="44.61135" lon="6.26857">
        <ele>2256.51</ele>
        <time>2015-10-11T08:32:06Z</time>
      </trkpt>
      <trkpt lat="44.61128" lon="6.26864">
        <ele>2259.59</ele>
        <time>2015-10-11T08:32:26Z</time>
      </trkpt>
      <trkpt lat="44.61123" lon="6.26868">
        <ele>2261.75</ele>
        <time>2015-10-11T08:32:45Z</time>
      </trkpt>
      <trkpt lat="44.61116" lon="6.26881">
        <ele>2264.36</ele>
        <time>2015-10-11T08:33:04Z</time>
      </trkpt>
      <trkpt lat="44.61108" lon="6.26894">
        <ele>2267.33</ele>
        <time>2015-10-11T08:33:23Z</time>
      </trkpt>
      <trkpt lat="44.611" lon="6.26908">
        <ele>2269.8</ele>
        <time>2015-10-11T08:33:43Z</time>
      </trkpt>
      <trkpt lat="44.61093" lon="6.26922">
        <ele>2272.62</ele>
        <time>2015-10-11T08:34:02Z</time>
      </trkpt>
      <trkpt lat="44.61087" lon="6.26936">
        <ele>2275.75</ele>
        <time>2015-10-11T08:34:23Z</time>
      </trkpt>
      <trkpt lat="44.61082" lon="6.26947">
        <ele>2278.92</ele>
        <time>2015-10-11T08:34:44Z</time>
      </trkpt>
      <trkpt lat="44.61078" lon="6.26954">
        <ele>2282.14</ele>
        <time>2015-10-11T08:35:04Z</time>
      </trkpt>
      <trkpt lat="44.61074" lon="6.26961">
        <ele>2285.23</ele>
        <time>2015-10-11T08:35:23Z</time>
      </trkpt>
      <trkpt lat="44.61071" lon="6.26968">
        <ele>2288.3</ele>
        <time>2015-10-11T08:35:44Z</time>
      </trkpt>
      <trkpt lat="44.61068" lon="6.26973">
        <ele>2291.48</ele>
        <time>2015-10-11T08:36:02Z</time>
      </trkpt>
      <trkpt lat="44.61064" lon="6.26977">
        <ele>2294.49</ele>
        <time>2015-10-11T08:36:18Z</time>
      </trkpt>
      <trkpt lat="44.61057" lon="6.26979">
        <ele>2297.53</ele>
        <time>2015-10-11T08:36:36Z</time>
      </trkpt>
      <trkpt lat="44.61051" lon="6.2698">
        <ele>2300.52</ele>
        <time>2015-10-11T08:36:54Z</time>
      </trkpt>
      <trkpt lat="44.61045" lon="6.26979">
        <ele>2302.75</ele>
        <time>2015-10-11T08:37:11Z</time>
      </trkpt>
      <trkpt lat="44.61041" lon="6.26987">
        <ele>2305.53</ele>
        <time>2015-10-11T08:37:31Z</time>
      </trkpt>
      <trkpt lat="44.61038" lon="6.26993">
        <ele>2308.16</ele>
        <time>2015-10-11T08:37:53Z</time>
      </trkpt>
      <trkpt lat="44.61029" lon="6.2699">
        <ele>2310.74</ele>
        <time>2015-10-11T08:38:12Z</time>
      </trkpt>
      <trkpt lat="44.61022" lon="6.26989">
        <ele>2313.18</ele>
        <time>2015-10-11T08:38:29Z</time>
      </trkpt>
      <trkpt lat="44.6102" lon="6.26999">
        <ele>2316.06</ele>
        <time>2015-10-11T08:38:51Z</time>
      </trkpt>
      <trkpt lat="44.61015" lon="6.27006">
        <ele>2319.08</ele>
        <time>2015-10-11T08:39:13Z</time>
      </trkpt>
      <trkpt lat="44.61006" lon="6.27005">
        <ele>2322.12</ele>
        <time>2015-10-11T08:39:38Z</time>
      </trkpt>
      <trkpt lat="44.60999" lon="6.27008">
        <ele>2324.67</ele>
        <time>2015-10-11T08:39:59Z</time>
      </trkpt>
      <trkpt lat="44.60994" lon="6.27014">
        <ele>2327.27</ele>
        <time>2015-10-11T08:40:19Z</time>
      </trkpt>
      <trkpt lat="44.60995" lon="6.2702">
        <ele>2329.03</ele>
        <time>2015-10-11T08:40:34Z</time>
      </trkpt>
      <trkpt lat="44.6099" lon="6.27023">
        <ele>2330.71</ele>
        <time>2015-10-11T08:40:51Z</time>
      </trkpt>
      <trkpt lat="44.60984" lon="6.27022">
        <ele>2333</ele>
        <time>2015-10-11T08:41:07Z</time>
      </trkpt>
      <trkpt lat="44.60973" lon="6.27023">
        <ele>2334.91</ele>
        <time>2015-10-11T08:41:27Z</time>
      </trkpt>
      <trkpt lat="44.60963" lon="6.27025">
        <ele>2337.04</ele>
        <time>2015-10-11T08:41:48Z</time>
      </trkpt>
      <trkpt lat="44.60961" lon="6.27025">
        <ele>2336.92</ele>
        <time>2015-10-11T08:42:09Z</time>
      </trkpt>
      <trkpt lat="44.60962" lon="6.27025">
        <ele>2336.91</ele>
        <time>2015-10-11T08:42:34Z</time>
      </trkpt>
      <trkpt lat="44.60962" lon="6.27026">
        <ele>2336.67</ele>
        <time>2015-10-11T08:43:02Z</time>
      </trkpt>
      <trkpt lat="44.60961" lon="6.27025">
        <ele>2336.92</ele>
        <time>2015-10-11T08:43:27Z</time>
      </trkpt>
      <trkpt lat="44.60961" lon="6.27025">
        <ele>2336.9</ele>
        <time>2015-10-11T08:43:55Z</time>
      </trkpt>
      <trkpt lat="44.6096" lon="6.27026">
        <ele>2336.81</ele>
        <time>2015-10-11T08:44:22Z</time>
      </trkpt>
      <trkpt lat="44.6096" lon="6.27027">
        <ele>2336.78</ele>
        <time>2015-10-11T08:44:45Z</time>
      </trkpt>
      <trkpt lat="44.6096" lon="6.27027">
        <ele>2336.92</ele>
        <time>2015-10-11T08:45:04Z</time>
      </trkpt>
      <trkpt lat="44.6096" lon="6.27027">
        <ele>2336.8</ele>
        <time>2015-10-11T08:45:32Z</time>
      </trkpt>
      <trkpt lat="44.6096" lon="6.27027">
        <ele>2337.17</ele>
        <time>2015-10-11T08:45:53Z</time>
      </trkpt>
      <trkpt lat="44.60946" lon="6.27033">
        <ele>2337.92</ele>
        <time>2015-10-11T08:46:16Z</time>
      </trkpt>
      <trkpt lat="44.60943" lon="6.27034">
        <ele>2338.3</ele>
        <time>2015-10-11T08:46:39Z</time>
      </trkpt>
      <trkpt lat="44.60942" lon="6.27036">
        <ele>2338.51</ele>
        <time>2015-10-11T08:47:04Z</time>
      </trkpt>
      <trkpt lat="44.60941" lon="6.27035">
        <ele>2338.68</ele>
        <time>2015-10-11T08:47:30Z</time>
      </trkpt>
      <trkpt lat="44.60935" lon="6.27037">
        <ele>2339.26</ele>
        <time>2015-10-11T08:47:58Z</time>
      </trkpt>
      <trkpt lat="44.60917" lon="6.27049">
        <ele>2337.77</ele>
        <time>2015-10-11T08:48:25Z</time>
      </trkpt>
      <trkpt lat="44.60911" lon="6.27056">
        <ele>2336.21</ele>
        <time>2015-10-11T08:48:39Z</time>
      </trkpt>
      <trkpt lat="44.60908" lon="6.2706">
        <ele>2334.52</ele>
        <time>2015-10-11T08:48:54Z</time>
      </trkpt>
      <trkpt lat="44.60904" lon="6.27065">
        <ele>2332.45</ele>
        <time>2015-10-11T08:49:10Z</time>
      </trkpt>
      <trkpt lat="44.60905" lon="6.27071">
        <ele>2329.93</ele>
        <time>2015-10-11T08:49:26Z</time>
      </trkpt>
      <trkpt lat="44.60899" lon="6.2708">
        <ele>2326.7</ele>
        <time>2015-10-11T08:49:42Z</time>
      </trkpt>
      <trkpt lat="44.60898" lon="6.27082">
        <ele>2326.27</ele>
        <time>2015-10-11T08:49:44Z</time>
      </trkpt>
      <trkpt lat="44.60887" lon="6.27092">
        <ele>2324.23</ele>
        <time>2015-10-11T08:50:01Z</time>
      </trkpt>
      <trkpt lat="44.60873" lon="6.27099">
        <ele>2324.21</ele>
        <time>2015-10-11T08:50:18Z</time>
      </trkpt>
      <trkpt lat="44.60868" lon="6.271">
        <ele>2324.15</ele>
        <time>2015-10-11T08:50:23Z</time>
      </trkpt>
      <trkpt lat="44.60855" lon="6.27107">
        <ele>2325.32</ele>
        <time>2015-10-11T08:50:37Z</time>
      </trkpt>
      <trkpt lat="44.60848" lon="6.2711">
        <ele>2327.13</ele>
        <time>2015-10-11T08:50:52Z</time>
      </trkpt>
      <trkpt lat="44.60841" lon="6.27111">
        <ele>2329.12</ele>
        <time>2015-10-11T08:51:06Z</time>
      </trkpt>
      <trkpt lat="44.60832" lon="6.27111">
        <ele>2331.61</ele>
        <time>2015-10-11T08:51:22Z</time>
      </trkpt>
      <trkpt lat="44.60822" lon="6.27114">
        <ele>2334.17</ele>
        <time>2015-10-11T08:51:39Z</time>
      </trkpt>
      <trkpt lat="44.60813" lon="6.27121">
        <ele>2336.46</ele>
        <time>2015-10-11T08:51:57Z</time>
      </trkpt>
      <trkpt lat="44.60799" lon="6.2713">
        <ele>2338.84</ele>
        <time>2015-10-11T08:52:19Z</time>
      </trkpt>
      <trkpt lat="44.60785" lon="6.27135">
        <ele>2339.12</ele>
        <time>2015-10-11T08:52:38Z</time>
      </trkpt>
      <trkpt lat="44.60774" lon="6.27137">
        <ele>2340.34</ele>
        <time>2015-10-11T08:52:54Z</time>
      </trkpt>
      <trkpt lat="44.60765" lon="6.27137">
        <ele>2342.17</ele>
        <time>2015-10-11T08:53:08Z</time>
      </trkpt>
      <trkpt lat="44.60756" lon="6.27137">
        <ele>2344.25</ele>
        <time>2015-10-11T08:53:26Z</time>
      </trkpt>
      <trkpt lat="44.60746" lon="6.27136">
        <ele>2346.48</ele>
        <time>2015-10-11T08:53:43Z</time>
      </trkpt>
      <trkpt lat="44.60737" lon="6.27136">
        <ele>2348.32</ele>
        <time>2015-10-11T08:53:58Z</time>
      </trkpt>
      <trkpt lat="44.60727" lon="6.27135">
        <ele>2350.28</ele>
        <time>2015-10-11T08:54:17Z</time>
      </trkpt>
      <trkpt lat="44.60714" lon="6.27134">
        <ele>2352.21</ele>
        <time>2015-10-11T08:54:36Z</time>
      </trkpt>
      <trkpt lat="44.60706" lon="6.27132">
        <ele>2354.09</ele>
        <time>2015-10-11T08:54:52Z</time>
      </trkpt>
      <trkpt lat="44.60695" lon="6.2713">
        <ele>2354.74</ele>
        <time>2015-10-11T08:55:09Z</time>
      </trkpt>
      <trkpt lat="44.60685" lon="6.27126">
        <ele>2354.78</ele>
        <time>2015-10-11T08:55:26Z</time>
      </trkpt>
      <trkpt lat="44.60681" lon="6.27122">
        <ele>2355.06</ele>
        <time>2015-10-11T08:55:40Z</time>
      </trkpt>
      <trkpt lat="44.60675" lon="6.27118">
        <ele>2354.82</ele>
        <time>2015-10-11T08:55:52Z</time>
      </trkpt>
      <trkpt lat="44.60667" lon="6.27114">
        <ele>2353.16</ele>
        <time>2015-10-11T08:56:08Z</time>
      </trkpt>
      <trkpt lat="44.60661" lon="6.27108">
        <ele>2352.28</ele>
        <time>2015-10-11T08:56:21Z</time>
      </trkpt>
      <trkpt lat="44.6065" lon="6.271">
        <ele>2351.85</ele>
        <time>2015-10-11T08:56:35Z</time>
      </trkpt>
      <trkpt lat="44.60638" lon="6.27097">
        <ele>2352.47</ele>
        <time>2015-10-11T08:56:51Z</time>
      </trkpt>
      <trkpt lat="44.60624" lon="6.27091">
        <ele>2352.27</ele>
        <time>2015-10-11T08:57:09Z</time>
      </trkpt>
      <trkpt lat="44.60613" lon="6.27083">
        <ele>2351.85</ele>
        <time>2015-10-11T08:57:27Z</time>
      </trkpt>
      <trkpt lat="44.60604" lon="6.27077">
        <ele>2350.63</ele>
        <time>2015-10-11T08:57:43Z</time>
      </trkpt>
      <trkpt lat="44.60598" lon="6.27073">
        <ele>2349.99</ele>
        <time>2015-10-11T08:57:59Z</time>
      </trkpt>
      <trkpt lat="44.60591" lon="6.27069">
        <ele>2349.02</ele>
        <time>2015-10-11T08:58:14Z</time>
      </trkpt>
      <trkpt lat="44.60584" lon="6.27065">
        <ele>2347.61</ele>
        <time>2015-10-11T08:58:33Z</time>
      </trkpt>
      <trkpt lat="44.60573" lon="6.27055">
        <ele>2346.41</ele>
        <time>2015-10-11T08:58:54Z</time>
      </trkpt>
      <trkpt lat="44.60567" lon="6.2705">
        <ele>2346.6</ele>
        <time>2015-10-11T08:59:10Z</time>
      </trkpt>
      <trkpt lat="44.60559" lon="6.27043">
        <ele>2346.1</ele>
        <time>2015-10-11T08:59:25Z</time>
      </trkpt>
      <trkpt lat="44.6055" lon="6.27039">
        <ele>2345.32</ele>
        <time>2015-10-11T08:59:44Z</time>
      </trkpt>
      <trkpt lat="44.60542" lon="6.27037">
        <ele>2344.04</ele>
        <time>2015-10-11T09:00:01Z</time>
      </trkpt>
      <trkpt lat="44.60532" lon="6.27028">
        <ele>2343.53</ele>
        <time>2015-10-11T09:00:19Z</time>
      </trkpt>
      <trkpt lat="44.60524" lon="6.27023">
        <ele>2342.92</ele>
        <time>2015-10-11T09:00:34Z</time>
      </trkpt>
      <trkpt lat="44.60514" lon="6.2702">
        <ele>2342.61</ele>
        <time>2015-10-11T09:00:49Z</time>
      </trkpt>
      <trkpt lat="44.60502" lon="6.27017">
        <ele>2341.69</ele>
        <time>2015-10-11T09:01:06Z</time>
      </trkpt>
      <trkpt lat="44.60494" lon="6.27014">
        <ele>2341.91</ele>
        <time>2015-10-11T09:01:17Z</time>
      </trkpt>
      <trkpt lat="44.60483" lon="6.27011">
        <ele>2342.48</ele>
        <time>2015-10-11T09:01:32Z</time>
      </trkpt>
      <trkpt lat="44.60467" lon="6.2701">
        <ele>2341.92</ele>
        <time>2015-10-11T09:01:52Z</time>
      </trkpt>
      <trkpt lat="44.60459" lon="6.27009">
        <ele>2341.22</ele>
        <time>2015-10-11T09:02:08Z</time>
      </trkpt>
      <trkpt lat="44.60446" lon="6.27007">
        <ele>2339.84</ele>
        <time>2015-10-11T09:02:26Z</time>
      </trkpt>
      <trkpt lat="44.60438" lon="6.27005">
        <ele>2338.79</ele>
        <time>2015-10-11T09:02:44Z</time>
      </trkpt>
      <trkpt lat="44.60427" lon="6.27005">
        <ele>2335.98</ele>
        <time>2015-10-11T09:03:04Z</time>
      </trkpt>
      <trkpt lat="44.60422" lon="6.27009">
        <ele>2333.8</ele>
        <time>2015-10-11T09:03:19Z</time>
      </trkpt>
      <trkpt lat="44.60412" lon="6.27012">
        <ele>2331.04</ele>
        <time>2015-10-11T09:03:33Z</time>
      </trkpt>
      <trkpt lat="44.60402" lon="6.2701">
        <ele>2330.62</ele>
        <time>2015-10-11T09:03:46Z</time>
      </trkpt>
      <trkpt lat="44.60394" lon="6.27011">
        <ele>2330.57</ele>
        <time>2015-10-11T09:04:00Z</time>
      </trkpt>
      <trkpt lat="44.60387" lon="6.27006">
        <ele>2331.83</ele>
        <time>2015-10-11T09:04:16Z</time>
      </trkpt>
      <trkpt lat="44.60375" lon="6.27">
        <ele>2334.47</ele>
        <time>2015-10-11T09:04:38Z</time>
      </trkpt>
      <trkpt lat="44.60366" lon="6.26989">
        <ele>2337.12</ele>
        <time>2015-10-11T09:04:54Z</time>
      </trkpt>
      <trkpt lat="44.60355" lon="6.26983">
        <ele>2339.3</ele>
        <time>2015-10-11T09:05:12Z</time>
      </trkpt>
      <trkpt lat="44.60347" lon="6.2698">
        <ele>2340.37</ele>
        <time>2015-10-11T09:05:25Z</time>
      </trkpt>
      <trkpt lat="44.60334" lon="6.26974">
        <ele>2342.02</ele>
        <time>2015-10-11T09:05:42Z</time>
      </trkpt>
      <trkpt lat="44.60329" lon="6.26971">
        <ele>2342.43</ele>
        <time>2015-10-11T09:05:48Z</time>
      </trkpt>
      <trkpt lat="44.60314" lon="6.26964">
        <ele>2343.65</ele>
        <time>2015-10-11T09:06:05Z</time>
      </trkpt>
      <trkpt lat="44.60304" lon="6.26959">
        <ele>2346.23</ele>
        <time>2015-10-11T09:06:22Z</time>
      </trkpt>
      <trkpt lat="44.603" lon="6.26949">
        <ele>2349.54</ele>
        <time>2015-10-11T09:06:40Z</time>
      </trkpt>
      <trkpt lat="44.60299" lon="6.26943">
        <ele>2351.7</ele>
        <time>2015-10-11T09:06:56Z</time>
      </trkpt>
      <trkpt lat="44.60296" lon="6.26933">
        <ele>2354.71</ele>
        <time>2015-10-11T09:07:15Z</time>
      </trkpt>
      <trkpt lat="44.60293" lon="6.26928">
        <ele>2357.78</ele>
        <time>2015-10-11T09:07:32Z</time>
      </trkpt>
      <trkpt lat="44.60289" lon="6.26922">
        <ele>2360.49</ele>
        <time>2015-10-11T09:07:51Z</time>
      </trkpt>
      <trkpt lat="44.60288" lon="6.26919">
        <ele>2361.54</ele>
        <time>2015-10-11T09:08:08Z</time>
      </trkpt>
      <trkpt lat="44.60287" lon="6.26913">
        <ele>2364.69</ele>
        <time>2015-10-11T09:08:31Z</time>
      </trkpt>
      <trkpt lat="44.60287" lon="6.26906">
        <ele>2367.88</ele>
        <time>2015-10-11T09:08:50Z</time>
      </trkpt>
      <trkpt lat="44.60286" lon="6.269">
        <ele>2370.98</ele>
        <time>2015-10-11T09:09:10Z</time>
      </trkpt>
      <trkpt lat="44.60292" lon="6.26895">
        <ele>2373.31</ele>
        <time>2015-10-11T09:09:27Z</time>
      </trkpt>
      <trkpt lat="44.60288" lon="6.26891">
        <ele>2376.35</ele>
        <time>2015-10-11T09:09:47Z</time>
      </trkpt>
      <trkpt lat="44.60291" lon="6.26887">
        <ele>2377.64</ele>
        <time>2015-10-11T09:10:05Z</time>
      </trkpt>
      <trkpt lat="44.6029" lon="6.26882">
        <ele>2380.05</ele>
        <time>2015-10-11T09:10:21Z</time>
      </trkpt>
      <trkpt lat="44.60292" lon="6.26879">
        <ele>2381.95</ele>
        <time>2015-10-11T09:10:37Z</time>
      </trkpt>
      <trkpt lat="44.6029" lon="6.26873">
        <ele>2384.81</ele>
        <time>2015-10-11T09:10:57Z</time>
      </trkpt>
      <trkpt lat="44.60292" lon="6.26864">
        <ele>2387.94</ele>
        <time>2015-10-11T09:11:21Z</time>
      </trkpt>
      <trkpt lat="44.60295" lon="6.26859">
        <ele>2390.22</ele>
        <time>2015-10-11T09:11:39Z</time>
      </trkpt>
      <trkpt lat="44.60291" lon="6.26853">
        <ele>2393.21</ele>
        <time>2015-10-11T09:11:56Z</time>
      </trkpt>
      <trkpt lat="44.60295" lon="6.26845">
        <ele>2395.65</ele>
        <time>2015-10-11T09:12:19Z</time>
      </trkpt>
      <trkpt lat="44.60299" lon="6.26839">
        <ele>2398.75</ele>
        <time>2015-10-11T09:12:40Z</time>
      </trkpt>
      <trkpt lat="44.60295" lon="6.2683">
        <ele>2401.5</ele>
        <time>2015-10-11T09:13:02Z</time>
      </trkpt>
      <trkpt lat="44.603" lon="6.26824">
        <ele>2404.34</ele>
        <time>2015-10-11T09:13:24Z</time>
      </trkpt>
      <trkpt lat="44.603" lon="6.26818">
        <ele>2406.8</ele>
        <time>2015-10-11T09:13:42Z</time>
      </trkpt>
      <trkpt lat="44.60302" lon="6.26814">
        <ele>2409.37</ele>
        <time>2015-10-11T09:14:04Z</time>
      </trkpt>
      <trkpt lat="44.60301" lon="6.26809">
        <ele>2411.23</ele>
        <time>2015-10-11T09:14:21Z</time>
      </trkpt>
      <trkpt lat="44.60303" lon="6.26803">
        <ele>2413.58</ele>
        <time>2015-10-11T09:14:37Z</time>
      </trkpt>
      <trkpt lat="44.60303" lon="6.26801">
        <ele>2415.85</ele>
        <time>2015-10-11T09:14:54Z</time>
      </trkpt>
      <trkpt lat="44.60303" lon="6.26796">
        <ele>2416.82</ele>
        <time>2015-10-11T09:15:11Z</time>
      </trkpt>
      <trkpt lat="44.60307" lon="6.26794">
        <ele>2419.14</ele>
        <time>2015-10-11T09:15:26Z</time>
      </trkpt>
      <trkpt lat="44.60307" lon="6.26789">
        <ele>2421.79</ele>
        <time>2015-10-11T09:15:44Z</time>
      </trkpt>
      <trkpt lat="44.60306" lon="6.26783">
        <ele>2423.54</ele>
        <time>2015-10-11T09:16:01Z</time>
      </trkpt>
      <trkpt lat="44.60307" lon="6.2678">
        <ele>2426.09</ele>
        <time>2015-10-11T09:16:20Z</time>
      </trkpt>
      <trkpt lat="44.60306" lon="6.26776">
        <ele>2427.83</ele>
        <time>2015-10-11T09:16:36Z</time>
      </trkpt>
      <trkpt lat="44.60308" lon="6.26774">
        <ele>2428.68</ele>
        <time>2015-10-11T09:16:57Z</time>
      </trkpt>
      <trkpt lat="44.60309" lon="6.26768">
        <ele>2430.74</ele>
        <time>2015-10-11T09:17:12Z</time>
      </trkpt>
      <trkpt lat="44.6031" lon="6.26766">
        <ele>2432.26</ele>
        <time>2015-10-11T09:17:26Z</time>
      </trkpt>
      <trkpt lat="44.6031" lon="6.26761">
        <ele>2434.48</ele>
        <time>2015-10-11T09:17:42Z</time>
      </trkpt>
      <trkpt lat="44.60313" lon="6.26759">
        <ele>2437.11</ele>
        <time>2015-10-11T09:17:58Z</time>
      </trkpt>
      <trkpt lat="44.60313" lon="6.26755">
        <ele>2439.16</ele>
        <time>2015-10-11T09:18:14Z</time>
      </trkpt>
      <trkpt lat="44.60315" lon="6.26752">
        <ele>2441.42</ele>
        <time>2015-10-11T09:18:31Z</time>
      </trkpt>
      <trkpt lat="44.60318" lon="6.26748">
        <ele>2442.93</ele>
        <time>2015-10-11T09:18:45Z</time>
      </trkpt>
      <trkpt lat="44.60322" lon="6.26746">
        <ele>2445.14</ele>
        <time>2015-10-11T09:19:03Z</time>
      </trkpt>
      <trkpt lat="44.6032" lon="6.26741">
        <ele>2446.72</ele>
        <time>2015-10-11T09:19:18Z</time>
      </trkpt>
      <trkpt lat="44.60323" lon="6.26738">
        <ele>2448.8</ele>
        <time>2015-10-11T09:19:35Z</time>
      </trkpt>
      <trkpt lat="44.60324" lon="6.26735">
        <ele>2450.6</ele>
        <time>2015-10-11T09:19:52Z</time>
      </trkpt>
      <trkpt lat="44.60327" lon="6.26733">
        <ele>2452.99</ele>
        <time>2015-10-11T09:20:05Z</time>
      </trkpt>
      <trkpt lat="44.60329" lon="6.26728">
        <ele>2455.25</ele>
        <time>2015-10-11T09:20:21Z</time>
      </trkpt>
      <trkpt lat="44.60335" lon="6.26727">
        <ele>2458.01</ele>
        <time>2015-10-11T09:20:40Z</time>
      </trkpt>
      <trkpt lat="44.60334" lon="6.26724">
        <ele>2460.18</ele>
        <time>2015-10-11T09:21:01Z</time>
      </trkpt>
      <trkpt lat="44.60336" lon="6.2672">
        <ele>2462.32</ele>
        <time>2015-10-11T09:21:17Z</time>
      </trkpt>
      <trkpt lat="44.60337" lon="6.26719">
        <ele>2463.01</ele>
        <time>2015-10-11T09:21:36Z</time>
      </trkpt>
      <trkpt lat="44.60337" lon="6.26721">
        <ele>2463.34</ele>
        <time>2015-10-11T09:22:02Z</time>
      </trkpt>
      <trkpt lat="44.60337" lon="6.2672">
        <ele>2463.57</ele>
        <time>2015-10-11T09:22:24Z</time>
      </trkpt>
      <trkpt lat="44.60336" lon="6.26721">
        <ele>2463.4</ele>
        <time>2015-10-11T09:22:49Z</time>
      </trkpt>
      <trkpt lat="44.60336" lon="6.26721">
        <ele>2463.38</ele>
        <time>2015-10-11T09:23:12Z</time>
      </trkpt>
      <trkpt lat="44.60338" lon="6.2672">
        <ele>2463.75</ele>
        <time>2015-10-11T09:23:30Z</time>
      </trkpt>
      <trkpt lat="44.60339" lon="6.2672">
        <ele>2463.73</ele>
        <time>2015-10-11T09:23:50Z</time>
      </trkpt>
      <trkpt lat="44.6034" lon="6.26719">
        <ele>2463.6</ele>
        <time>2015-10-11T09:24:10Z</time>
      </trkpt>
      <trkpt lat="44.6034" lon="6.26719">
        <ele>2463.08</ele>
        <time>2015-10-11T09:24:27Z</time>
      </trkpt>
      <trkpt lat="44.60339" lon="6.26719">
        <ele>2462.62</ele>
        <time>2015-10-11T09:25:10Z</time>
      </trkpt>
      <trkpt lat="44.60338" lon="6.2672">
        <ele>2462.76</ele>
        <time>2015-10-11T09:25:47Z</time>
      </trkpt>
      <trkpt lat="44.60337" lon="6.26719">
        <ele>2462.75</ele>
        <time>2015-10-11T09:26:41Z</time>
      </trkpt>
      <trkpt lat="44.60337" lon="6.2672">
        <ele>2463.45</ele>
        <time>2015-10-11T09:27:26Z</time>
      </trkpt>
      <trkpt lat="44.60336" lon="6.2672">
        <ele>2463.34</ele>
        <time>2015-10-11T09:28:27Z</time>
      </trkpt>
      <trkpt lat="44.60336" lon="6.2672">
        <ele>2463.47</ele>
        <time>2015-10-11T09:29:44Z</time>
      </trkpt>
      <trkpt lat="44.60336" lon="6.2672">
        <ele>2463.47</ele>
        <time>2015-10-11T09:30:48Z</time>
      </trkpt>
      <trkpt lat="44.60336" lon="6.26721">
        <ele>2464.17</ele>
        <time>2015-10-11T09:31:55Z</time>
      </trkpt>
      <trkpt lat="44.60336" lon="6.2672">
        <ele>2465.27</ele>
        <time>2015-10-11T09:32:24Z</time>
      </trkpt>
      <trkpt lat="44.60337" lon="6.2672">
        <ele>2465.14</ele>
        <time>2015-10-11T09:32:49Z</time>
      </trkpt>
      <trkpt lat="44.60338" lon="6.26723">
        <ele>2464.95</ele>
        <time>2015-10-11T09:33:11Z</time>
      </trkpt>
      <trkpt lat="44.60335" lon="6.26725">
        <ele>2464.39</ele>
        <time>2015-10-11T09:33:29Z</time>
      </trkpt>
      <trkpt lat="44.60332" lon="6.26729">
        <ele>2461.78</ele>
        <time>2015-10-11T09:33:46Z</time>
      </trkpt>
      <trkpt lat="44.60328" lon="6.26733">
        <ele>2458.72</ele>
        <time>2015-10-11T09:34:08Z</time>
      </trkpt>
      <trkpt lat="44.60325" lon="6.26735">
        <ele>2456.47</ele>
        <time>2015-10-11T09:34:26Z</time>
      </trkpt>
      <trkpt lat="44.60324" lon="6.2674">
        <ele>2453.43</ele>
        <time>2015-10-11T09:34:46Z</time>
      </trkpt>
      <trkpt lat="44.60321" lon="6.26743">
        <ele>2450.49</ele>
        <time>2015-10-11T09:35:10Z</time>
      </trkpt>
      <trkpt lat="44.60322" lon="6.26749">
        <ele>2448.06</ele>
        <time>2015-10-11T09:35:28Z</time>
      </trkpt>
      <trkpt lat="44.60319" lon="6.26754">
        <ele>2445.55</ele>
        <time>2015-10-11T09:35:48Z</time>
      </trkpt>
      <trkpt lat="44.60315" lon="6.26756">
        <ele>2443.22</ele>
        <time>2015-10-11T09:36:08Z</time>
      </trkpt>
      <trkpt lat="44.60314" lon="6.26763">
        <ele>2441.03</ele>
        <time>2015-10-11T09:36:27Z</time>
      </trkpt>
      <trkpt lat="44.60311" lon="6.26765">
        <ele>2439.13</ele>
        <time>2015-10-11T09:36:43Z</time>
      </trkpt>
      <trkpt lat="44.6031" lon="6.2677">
        <ele>2436.71</ele>
        <time>2015-10-11T09:36:58Z</time>
      </trkpt>
      <trkpt lat="44.60307" lon="6.26776">
        <ele>2433.71</ele>
        <time>2015-10-11T09:37:21Z</time>
      </trkpt>
      <trkpt lat="44.60306" lon="6.2678">
        <ele>2431.88</ele>
        <time>2015-10-11T09:37:38Z</time>
      </trkpt>
      <trkpt lat="44.60307" lon="6.26784">
        <ele>2429.62</ele>
        <time>2015-10-11T09:37:54Z</time>
      </trkpt>
      <trkpt lat="44.60307" lon="6.2679">
        <ele>2427.37</ele>
        <time>2015-10-11T09:38:13Z</time>
      </trkpt>
      <trkpt lat="44.60307" lon="6.26797">
        <ele>2424.24</ele>
        <time>2015-10-11T09:38:37Z</time>
      </trkpt>
      <trkpt lat="44.60303" lon="6.26802">
        <ele>2421.18</ele>
        <time>2015-10-11T09:38:58Z</time>
      </trkpt>
      <trkpt lat="44.60304" lon="6.26809">
        <ele>2418.1</ele>
        <time>2015-10-11T09:39:20Z</time>
      </trkpt>
      <trkpt lat="44.603" lon="6.26814">
        <ele>2415.63</ele>
        <time>2015-10-11T09:39:37Z</time>
      </trkpt>
      <trkpt lat="44.603" lon="6.26821">
        <ele>2412.79</ele>
        <time>2015-10-11T09:39:53Z</time>
      </trkpt>
      <trkpt lat="44.60297" lon="6.26827">
        <ele>2409.64</ele>
        <time>2015-10-11T09:40:07Z</time>
      </trkpt>
      <trkpt lat="44.60295" lon="6.26833">
        <ele>2406.59</ele>
        <time>2015-10-11T09:40:24Z</time>
      </trkpt>
      <trkpt lat="44.60297" lon="6.26842">
        <ele>2403.44</ele>
        <time>2015-10-11T09:40:41Z</time>
      </trkpt>
      <trkpt lat="44.60291" lon="6.26851">
        <ele>2400.38</ele>
        <time>2015-10-11T09:40:57Z</time>
      </trkpt>
      <trkpt lat="44.60294" lon="6.26861">
        <ele>2397.19</ele>
        <time>2015-10-11T09:41:13Z</time>
      </trkpt>
      <trkpt lat="44.60291" lon="6.26866">
        <ele>2394.28</ele>
        <time>2015-10-11T09:41:29Z</time>
      </trkpt>
      <trkpt lat="44.6029" lon="6.26875">
        <ele>2391.16</ele>
        <time>2015-10-11T09:41:46Z</time>
      </trkpt>
      <trkpt lat="44.60288" lon="6.26882">
        <ele>2388</ele>
        <time>2015-10-11T09:42:03Z</time>
      </trkpt>
      <trkpt lat="44.60289" lon="6.26888">
        <ele>2384.93</ele>
        <time>2015-10-11T09:42:19Z</time>
      </trkpt>
      <trkpt lat="44.60286" lon="6.26892">
        <ele>2382.52</ele>
        <time>2015-10-11T09:42:37Z</time>
      </trkpt>
      <trkpt lat="44.60283" lon="6.26895">
        <ele>2380.95</ele>
        <time>2015-10-11T09:42:52Z</time>
      </trkpt>
      <trkpt lat="44.60284" lon="6.26901">
        <ele>2379.19</ele>
        <time>2015-10-11T09:43:07Z</time>
      </trkpt>
      <trkpt lat="44.60284" lon="6.26907">
        <ele>2376.93</ele>
        <time>2015-10-11T09:43:22Z</time>
      </trkpt>
      <trkpt lat="44.60286" lon="6.26914">
        <ele>2373.73</ele>
        <time>2015-10-11T09:43:42Z</time>
      </trkpt>
      <trkpt lat="44.60286" lon="6.26923">
        <ele>2370.72</ele>
        <time>2015-10-11T09:43:58Z</time>
      </trkpt>
      <trkpt lat="44.60288" lon="6.26928">
        <ele>2367.69</ele>
        <time>2015-10-11T09:44:13Z</time>
      </trkpt>
      <trkpt lat="44.6029" lon="6.26934">
        <ele>2365.19</ele>
        <time>2015-10-11T09:44:30Z</time>
      </trkpt>
      <trkpt lat="44.60295" lon="6.2694">
        <ele>2362.14</ele>
        <time>2015-10-11T09:44:46Z</time>
      </trkpt>
      <trkpt lat="44.60297" lon="6.26947">
        <ele>2359.02</ele>
        <time>2015-10-11T09:44:59Z</time>
      </trkpt>
      <trkpt lat="44.603" lon="6.26958">
        <ele>2356</ele>
        <time>2015-10-11T09:45:14Z</time>
      </trkpt>
      <trkpt lat="44.60302" lon="6.26968">
        <ele>2352.85</ele>
        <time>2015-10-11T09:45:29Z</time>
      </trkpt>
      <trkpt lat="44.60304" lon="6.26976">
        <ele>2349.8</ele>
        <time>2015-10-11T09:45:44Z</time>
      </trkpt>
      <trkpt lat="44.60306" lon="6.26987">
        <ele>2346.93</ele>
        <time>2015-10-11T09:46:02Z</time>
      </trkpt>
      <trkpt lat="44.60307" lon="6.26994">
        <ele>2344.93</ele>
        <time>2015-10-11T09:46:26Z</time>
      </trkpt>
      <trkpt lat="44.60308" lon="6.27001">
        <ele>2343.71</ele>
        <time>2015-10-11T09:46:51Z</time>
      </trkpt>
      <trkpt lat="44.60311" lon="6.27014">
        <ele>2343.24</ele>
        <time>2015-10-11T09:47:14Z</time>
      </trkpt>
      <trkpt lat="44.60311" lon="6.27032">
        <ele>2340.93</ele>
        <time>2015-10-11T09:47:33Z</time>
      </trkpt>
      <trkpt lat="44.60311" lon="6.27034">
        <ele>2340.64</ele>
        <time>2015-10-11T09:48:00Z</time>
      </trkpt>
      <trkpt lat="44.6031" lon="6.27043">
        <ele>2339.89</ele>
        <time>2015-10-11T09:48:20Z</time>
      </trkpt>
      <trkpt lat="44.60307" lon="6.2706">
        <ele>2336.9</ele>
        <time>2015-10-11T09:48:37Z</time>
      </trkpt>
      <trkpt lat="44.60303" lon="6.27078">
        <ele>2333.88</ele>
        <time>2015-10-11T09:48:57Z</time>
      </trkpt>
      <trkpt lat="44.603" lon="6.27089">
        <ele>2330.81</ele>
        <time>2015-10-11T09:49:16Z</time>
      </trkpt>
      <trkpt lat="44.60297" lon="6.271">
        <ele>2327.72</ele>
        <time>2015-10-11T09:49:35Z</time>
      </trkpt>
      <trkpt lat="44.60295" lon="6.27111">
        <ele>2324.62</ele>
        <time>2015-10-11T09:49:53Z</time>
      </trkpt>
      <trkpt lat="44.60298" lon="6.27123">
        <ele>2321.59</ele>
        <time>2015-10-11T09:50:16Z</time>
      </trkpt>
      <trkpt lat="44.60295" lon="6.27135">
        <ele>2318.53</ele>
        <time>2015-10-11T09:50:32Z</time>
      </trkpt>
      <trkpt lat="44.60296" lon="6.27149">
        <ele>2315.51</ele>
        <time>2015-10-11T09:50:47Z</time>
      </trkpt>
      <trkpt lat="44.60293" lon="6.27166">
        <ele>2312.45</ele>
        <time>2015-10-11T09:51:08Z</time>
      </trkpt>
      <trkpt lat="44.60291" lon="6.27179">
        <ele>2309.4</ele>
        <time>2015-10-11T09:51:23Z</time>
      </trkpt>
      <trkpt lat="44.60295" lon="6.27194">
        <ele>2306.38</ele>
        <time>2015-10-11T09:51:41Z</time>
      </trkpt>
      <trkpt lat="44.60296" lon="6.27199">
        <ele>2304.66</ele>
        <time>2015-10-11T09:52:07Z</time>
      </trkpt>
      <trkpt lat="44.60296" lon="6.27207">
        <ele>2304.17</ele>
        <time>2015-10-11T09:52:16Z</time>
      </trkpt>
      <trkpt lat="44.60296" lon="6.2721">
        <ele>2304.16</ele>
        <time>2015-10-11T09:52:18Z</time>
      </trkpt>
      <trkpt lat="44.60294" lon="6.27233">
        <ele>2303.65</ele>
        <time>2015-10-11T09:52:36Z</time>
      </trkpt>
      <trkpt lat="44.60297" lon="6.27245">
        <ele>2302.98</ele>
        <time>2015-10-11T09:52:52Z</time>
      </trkpt>
      <trkpt lat="44.60297" lon="6.27267">
        <ele>2303.1</ele>
        <time>2015-10-11T09:53:09Z</time>
      </trkpt>
      <trkpt lat="44.60301" lon="6.27285">
        <ele>2303.21</ele>
        <time>2015-10-11T09:53:25Z</time>
      </trkpt>
      <trkpt lat="44.60302" lon="6.27302">
        <ele>2303.6</ele>
        <time>2015-10-11T09:53:45Z</time>
      </trkpt>
      <trkpt lat="44.60295" lon="6.27317">
        <ele>2306.15</ele>
        <time>2015-10-11T09:54:07Z</time>
      </trkpt>
      <trkpt lat="44.60294" lon="6.27327">
        <ele>2307.39</ele>
        <time>2015-10-11T09:54:23Z</time>
      </trkpt>
      <trkpt lat="44.60293" lon="6.27338">
        <ele>2306.52</ele>
        <time>2015-10-11T09:54:42Z</time>
      </trkpt>
      <trkpt lat="44.60297" lon="6.27352">
        <ele>2306.1</ele>
        <time>2015-10-11T09:54:57Z</time>
      </trkpt>
      <trkpt lat="44.60303" lon="6.27366">
        <ele>2306.49</ele>
        <time>2015-10-11T09:55:14Z</time>
      </trkpt>
      <trkpt lat="44.60309" lon="6.2738">
        <ele>2305.88</ele>
        <time>2015-10-11T09:55:32Z</time>
      </trkpt>
      <trkpt lat="44.60314" lon="6.2739">
        <ele>2304.67</ele>
        <time>2015-10-11T09:55:45Z</time>
      </trkpt>
      <trkpt lat="44.60316" lon="6.27404">
        <ele>2301.9</ele>
        <time>2015-10-11T09:56:05Z</time>
      </trkpt>
      <trkpt lat="44.60315" lon="6.27416">
        <ele>2298.9</ele>
        <time>2015-10-11T09:56:25Z</time>
      </trkpt>
      <trkpt lat="44.60313" lon="6.27436">
        <ele>2295.82</ele>
        <time>2015-10-11T09:56:44Z</time>
      </trkpt>
      <trkpt lat="44.60312" lon="6.27443">
        <ele>2295.96</ele>
        <time>2015-10-11T09:56:50Z</time>
      </trkpt>
      <trkpt lat="44.60304" lon="6.27452">
        <ele>2295.45</ele>
        <time>2015-10-11T09:57:08Z</time>
      </trkpt>
      <trkpt lat="44.60297" lon="6.27456">
        <ele>2294.65</ele>
        <time>2015-10-11T09:57:29Z</time>
      </trkpt>
      <trkpt lat="44.60292" lon="6.27456">
        <ele>2293.89</ele>
        <time>2015-10-11T09:57:39Z</time>
      </trkpt>
      <trkpt lat="44.60283" lon="6.2746">
        <ele>2294.63</ele>
        <time>2015-10-11T09:57:50Z</time>
      </trkpt>
      <trkpt lat="44.60276" lon="6.27473">
        <ele>2293.85</ele>
        <time>2015-10-11T09:58:10Z</time>
      </trkpt>
      <trkpt lat="44.60272" lon="6.27479">
        <ele>2293.4</ele>
        <time>2015-10-11T09:58:28Z</time>
      </trkpt>
      <trkpt lat="44.60271" lon="6.27482">
        <ele>2293.31</ele>
        <time>2015-10-11T09:58:31Z</time>
      </trkpt>
      <trkpt lat="44.60268" lon="6.27499">
        <ele>2292.38</ele>
        <time>2015-10-11T09:58:47Z</time>
      </trkpt>
      <trkpt lat="44.60271" lon="6.27511">
        <ele>2290.46</ele>
        <time>2015-10-11T09:59:04Z</time>
      </trkpt>
      <trkpt lat="44.60272" lon="6.27523">
        <ele>2289.5</ele>
        <time>2015-10-11T09:59:20Z</time>
      </trkpt>
      <trkpt lat="44.60273" lon="6.27528">
        <ele>2289.35</ele>
        <time>2015-10-11T09:59:25Z</time>
      </trkpt>
      <trkpt lat="44.60272" lon="6.27545">
        <ele>2288</ele>
        <time>2015-10-11T09:59:40Z</time>
      </trkpt>
      <trkpt lat="44.6027" lon="6.27564">
        <ele>2285.61</ele>
        <time>2015-10-11T10:00:00Z</time>
      </trkpt>
      <trkpt lat="44.60267" lon="6.2757">
        <ele>2283.41</ele>
        <time>2015-10-11T10:00:24Z</time>
      </trkpt>
      <trkpt lat="44.60265" lon="6.2758">
        <ele>2281.77</ele>
        <time>2015-10-11T10:00:46Z</time>
      </trkpt>
      <trkpt lat="44.60267" lon="6.27588">
        <ele>2278.69</ele>
        <time>2015-10-11T10:01:07Z</time>
      </trkpt>
      <trkpt lat="44.60268" lon="6.27594">
        <ele>2275.61</ele>
        <time>2015-10-11T10:01:29Z</time>
      </trkpt>
      <trkpt lat="44.60269" lon="6.27602">
        <ele>2272.67</ele>
        <time>2015-10-11T10:01:48Z</time>
      </trkpt>
      <trkpt lat="44.60266" lon="6.27611">
        <ele>2269.56</ele>
        <time>2015-10-11T10:02:02Z</time>
      </trkpt>
      <trkpt lat="44.60257" lon="6.27625">
        <ele>2266.49</ele>
        <time>2015-10-11T10:02:19Z</time>
      </trkpt>
      <trkpt lat="44.60254" lon="6.2763">
        <ele>2265.45</ele>
        <time>2015-10-11T10:02:33Z</time>
      </trkpt>
      <trkpt lat="44.60246" lon="6.2764">
        <ele>2263.29</ele>
        <time>2015-10-11T10:02:51Z</time>
      </trkpt>
      <trkpt lat="44.60238" lon="6.27652">
        <ele>2260.72</ele>
        <time>2015-10-11T10:03:08Z</time>
      </trkpt>
      <trkpt lat="44.60236" lon="6.27659">
        <ele>2261.01</ele>
        <time>2015-10-11T10:03:23Z</time>
      </trkpt>
      <trkpt lat="44.60235" lon="6.27667">
        <ele>2260.45</ele>
        <time>2015-10-11T10:03:43Z</time>
      </trkpt>
      <trkpt lat="44.60234" lon="6.27671">
        <ele>2259.55</ele>
        <time>2015-10-11T10:04:00Z</time>
      </trkpt>
      <trkpt lat="44.60234" lon="6.27671">
        <ele>2259.46</ele>
        <time>2015-10-11T10:04:24Z</time>
      </trkpt>
      <trkpt lat="44.60234" lon="6.27672">
        <ele>2259.33</ele>
        <time>2015-10-11T10:04:52Z</time>
      </trkpt>
      <trkpt lat="44.60234" lon="6.27673">
        <ele>2259.29</ele>
        <time>2015-10-11T10:05:20Z</time>
      </trkpt>
      <trkpt lat="44.60233" lon="6.27675">
        <ele>2259.14</ele>
        <time>2015-10-11T10:05:43Z</time>
      </trkpt>
      <trkpt lat="44.60239" lon="6.27678">
        <ele>2257.81</ele>
        <time>2015-10-11T10:05:57Z</time>
      </trkpt>
      <trkpt lat="44.6024" lon="6.27685">
        <ele>2255.53</ele>
        <time>2015-10-11T10:06:15Z</time>
      </trkpt>
      <trkpt lat="44.60245" lon="6.27691">
        <ele>2253.66</ele>
        <time>2015-10-11T10:06:28Z</time>
      </trkpt>
      <trkpt lat="44.60254" lon="6.27702">
        <ele>2250.5</ele>
        <time>2015-10-11T10:06:41Z</time>
      </trkpt>
      <trkpt lat="44.60263" lon="6.27714">
        <ele>2247.31</ele>
        <time>2015-10-11T10:06:56Z</time>
      </trkpt>
      <trkpt lat="44.60265" lon="6.27716">
        <ele>2246.95</ele>
        <time>2015-10-11T10:06:58Z</time>
      </trkpt>
      <trkpt lat="44.60281" lon="6.2773">
        <ele>2243.97</ele>
        <time>2015-10-11T10:07:16Z</time>
      </trkpt>
      <trkpt lat="44.60299" lon="6.27736">
        <ele>2242.18</ele>
        <time>2015-10-11T10:07:31Z</time>
      </trkpt>
      <trkpt lat="44.60317" lon="6.27741">
        <ele>2241.03</ele>
        <time>2015-10-11T10:07:48Z</time>
      </trkpt>
      <trkpt lat="44.60334" lon="6.27754">
        <ele>2240.88</ele>
        <time>2015-10-11T10:08:06Z</time>
      </trkpt>
      <trkpt lat="44.60348" lon="6.27762">
        <ele>2241.33</ele>
        <time>2015-10-11T10:08:20Z</time>
      </trkpt>
      <trkpt lat="44.60363" lon="6.2777">
        <ele>2240.42</ele>
        <time>2015-10-11T10:08:36Z</time>
      </trkpt>
      <trkpt lat="44.60376" lon="6.27776">
        <ele>2237.83</ele>
        <time>2015-10-11T10:08:52Z</time>
      </trkpt>
      <trkpt lat="44.6039" lon="6.27784">
        <ele>2235.1</ele>
        <time>2015-10-11T10:09:10Z</time>
      </trkpt>
      <trkpt lat="44.60397" lon="6.27792">
        <ele>2232.35</ele>
        <time>2015-10-11T10:09:24Z</time>
      </trkpt>
      <trkpt lat="44.60405" lon="6.27798">
        <ele>2229.76</ele>
        <time>2015-10-11T10:09:39Z</time>
      </trkpt>
      <trkpt lat="44.6041" lon="6.27794">
        <ele>2226.67</ele>
        <time>2015-10-11T10:09:54Z</time>
      </trkpt>
      <trkpt lat="44.60421" lon="6.27796">
        <ele>2223.51</ele>
        <time>2015-10-11T10:10:12Z</time>
      </trkpt>
      <trkpt lat="44.60434" lon="6.27799">
        <ele>2220.44</ele>
        <time>2015-10-11T10:10:28Z</time>
      </trkpt>
      <trkpt lat="44.60446" lon="6.27806">
        <ele>2217.45</ele>
        <time>2015-10-11T10:10:44Z</time>
      </trkpt>
      <trkpt lat="44.60456" lon="6.27807">
        <ele>2214.13</ele>
        <time>2015-10-11T10:11:04Z</time>
      </trkpt>
      <trkpt lat="44.60464" lon="6.2781">
        <ele>2210.99</ele>
        <time>2015-10-11T10:11:19Z</time>
      </trkpt>
      <trkpt lat="44.60472" lon="6.27817">
        <ele>2207.87</ele>
        <time>2015-10-11T10:11:33Z</time>
      </trkpt>
      <trkpt lat="44.60486" lon="6.27829">
        <ele>2204.99</ele>
        <time>2015-10-11T10:11:51Z</time>
      </trkpt>
      <trkpt lat="44.60499" lon="6.27837">
        <ele>2202.5</ele>
        <time>2015-10-11T10:12:07Z</time>
      </trkpt>
      <trkpt lat="44.60515" lon="6.27849">
        <ele>2199.42</ele>
        <time>2015-10-11T10:12:28Z</time>
      </trkpt>
      <trkpt lat="44.60523" lon="6.27857">
        <ele>2196.35</ele>
        <time>2015-10-11T10:12:45Z</time>
      </trkpt>
      <trkpt lat="44.60532" lon="6.2786">
        <ele>2193.27</ele>
        <time>2015-10-11T10:13:03Z</time>
      </trkpt>
      <trkpt lat="44.60542" lon="6.27864">
        <ele>2190.26</ele>
        <time>2015-10-11T10:13:18Z</time>
      </trkpt>
      <trkpt lat="44.60554" lon="6.27871">
        <ele>2187.19</ele>
        <time>2015-10-11T10:13:33Z</time>
      </trkpt>
      <trkpt lat="44.60567" lon="6.27879">
        <ele>2184.17</ele>
        <time>2015-10-11T10:13:47Z</time>
      </trkpt>
      <trkpt lat="44.6058" lon="6.27892">
        <ele>2181.07</ele>
        <time>2015-10-11T10:14:03Z</time>
      </trkpt>
      <trkpt lat="44.60591" lon="6.27903">
        <ele>2178.31</ele>
        <time>2015-10-11T10:14:18Z</time>
      </trkpt>
      <trkpt lat="44.60603" lon="6.27909">
        <ele>2175.3</ele>
        <time>2015-10-11T10:14:33Z</time>
      </trkpt>
      <trkpt lat="44.60612" lon="6.27912">
        <ele>2172.15</ele>
        <time>2015-10-11T10:14:48Z</time>
      </trkpt>
      <trkpt lat="44.60619" lon="6.27914">
        <ele>2168.96</ele>
        <time>2015-10-11T10:15:01Z</time>
      </trkpt>
      <trkpt lat="44.60628" lon="6.27913">
        <ele>2165.84</ele>
        <time>2015-10-11T10:15:15Z</time>
      </trkpt>
      <trkpt lat="44.60638" lon="6.27917">
        <ele>2162.77</ele>
        <time>2015-10-11T10:15:29Z</time>
      </trkpt>
      <trkpt lat="44.60646" lon="6.2792">
        <ele>2159.74</ele>
        <time>2015-10-11T10:15:45Z</time>
      </trkpt>
      <trkpt lat="44.60653" lon="6.27924">
        <ele>2156.72</ele>
        <time>2015-10-11T10:15:59Z</time>
      </trkpt>
      <trkpt lat="44.6066" lon="6.27923">
        <ele>2153.68</ele>
        <time>2015-10-11T10:16:15Z</time>
      </trkpt>
      <trkpt lat="44.60669" lon="6.27916">
        <ele>2150.15</ele>
        <time>2015-10-11T10:16:30Z</time>
      </trkpt>
      <trkpt lat="44.60676" lon="6.27913">
        <ele>2147.04</ele>
        <time>2015-10-11T10:16:42Z</time>
      </trkpt>
      <trkpt lat="44.60684" lon="6.27909">
        <ele>2143.86</ele>
        <time>2015-10-11T10:16:55Z</time>
      </trkpt>
      <trkpt lat="44.60688" lon="6.27906">
        <ele>2142.86</ele>
        <time>2015-10-11T10:17:00Z</time>
      </trkpt>
      <trkpt lat="44.60712" lon="6.27893">
        <ele>2140.61</ele>
        <time>2015-10-11T10:17:21Z</time>
      </trkpt>
      <trkpt lat="44.60731" lon="6.27887">
        <ele>2140.02</ele>
        <time>2015-10-11T10:17:39Z</time>
      </trkpt>
      <trkpt lat="44.60733" lon="6.27886">
        <ele>2139.91</ele>
        <time>2015-10-11T10:17:42Z</time>
      </trkpt>
      <trkpt lat="44.6075" lon="6.27878">
        <ele>2140.47</ele>
        <time>2015-10-11T10:18:00Z</time>
      </trkpt>
      <trkpt lat="44.60763" lon="6.27872">
        <ele>2142.79</ele>
        <time>2015-10-11T10:18:17Z</time>
      </trkpt>
      <trkpt lat="44.60772" lon="6.27866">
        <ele>2144.27</ele>
        <time>2015-10-11T10:18:32Z</time>
      </trkpt>
      <trkpt lat="44.60785" lon="6.27857">
        <ele>2146.26</ele>
        <time>2015-10-11T10:18:50Z</time>
      </trkpt>
      <trkpt lat="44.60796" lon="6.2786">
        <ele>2149.06</ele>
        <time>2015-10-11T10:19:08Z</time>
      </trkpt>
      <trkpt lat="44.60806" lon="6.27862">
        <ele>2151.34</ele>
        <time>2015-10-11T10:19:25Z</time>
      </trkpt>
      <trkpt lat="44.60811" lon="6.27866">
        <ele>2153.21</ele>
        <time>2015-10-11T10:19:35Z</time>
      </trkpt>
      <trkpt lat="44.60813" lon="6.27868">
        <ele>2153.45</ele>
        <time>2015-10-11T10:19:37Z</time>
      </trkpt>
      <trkpt lat="44.60826" lon="6.27872">
        <ele>2155.44</ele>
        <time>2015-10-11T10:19:54Z</time>
      </trkpt>
      <trkpt lat="44.60835" lon="6.27866">
        <ele>2156.37</ele>
        <time>2015-10-11T10:20:10Z</time>
      </trkpt>
      <trkpt lat="44.60836" lon="6.27871">
        <ele>2156.11</ele>
        <time>2015-10-11T10:20:18Z</time>
      </trkpt>
      <trkpt lat="44.60836" lon="6.27877">
        <ele>2155.4</ele>
        <time>2015-10-11T10:20:23Z</time>
      </trkpt>
      <trkpt lat="44.60849" lon="6.27888">
        <ele>2152.1</ele>
        <time>2015-10-11T10:20:36Z</time>
      </trkpt>
      <trkpt lat="44.60863" lon="6.27892">
        <ele>2148.96</ele>
        <time>2015-10-11T10:20:52Z</time>
      </trkpt>
      <trkpt lat="44.6087" lon="6.27896">
        <ele>2145.91</ele>
        <time>2015-10-11T10:21:07Z</time>
      </trkpt>
      <trkpt lat="44.60879" lon="6.27897">
        <ele>2142.83</ele>
        <time>2015-10-11T10:21:20Z</time>
      </trkpt>
      <trkpt lat="44.6088" lon="6.27897">
        <ele>2142.58</ele>
        <time>2015-10-11T10:21:21Z</time>
      </trkpt>
      <trkpt lat="44.60898" lon="6.27901">
        <ele>2139.14</ele>
        <time>2015-10-11T10:21:37Z</time>
      </trkpt>
      <trkpt lat="44.60922" lon="6.27899">
        <ele>2137.22</ele>
        <time>2015-10-11T10:21:55Z</time>
      </trkpt>
      <trkpt lat="44.60943" lon="6.27891">
        <ele>2135.04</ele>
        <time>2015-10-11T10:22:14Z</time>
      </trkpt>
      <trkpt lat="44.60961" lon="6.27883">
        <ele>2132.17</ele>
        <time>2015-10-11T10:22:31Z</time>
      </trkpt>
      <trkpt lat="44.60982" lon="6.27879">
        <ele>2129.09</ele>
        <time>2015-10-11T10:22:50Z</time>
      </trkpt>
      <trkpt lat="44.61003" lon="6.27876">
        <ele>2127.19</ele>
        <time>2015-10-11T10:23:08Z</time>
      </trkpt>
      <trkpt lat="44.61022" lon="6.27875">
        <ele>2125.5</ele>
        <time>2015-10-11T10:23:26Z</time>
      </trkpt>
      <trkpt lat="44.61032" lon="6.27877">
        <ele>2124.78</ele>
        <time>2015-10-11T10:23:35Z</time>
      </trkpt>
      <trkpt lat="44.61048" lon="6.27875">
        <ele>2122.77</ele>
        <time>2015-10-11T10:23:53Z</time>
      </trkpt>
      <trkpt lat="44.61058" lon="6.27873">
        <ele>2120.69</ele>
        <time>2015-10-11T10:24:07Z</time>
      </trkpt>
      <trkpt lat="44.61071" lon="6.27872">
        <ele>2117.49</ele>
        <time>2015-10-11T10:24:23Z</time>
      </trkpt>
      <trkpt lat="44.61082" lon="6.27868">
        <ele>2114.35</ele>
        <time>2015-10-11T10:24:39Z</time>
      </trkpt>
      <trkpt lat="44.6109" lon="6.27868">
        <ele>2111.57</ele>
        <time>2015-10-11T10:24:56Z</time>
      </trkpt>
      <trkpt lat="44.6109" lon="6.27867">
        <ele>2110.92</ele>
        <time>2015-10-11T10:25:15Z</time>
      </trkpt>
      <trkpt lat="44.61098" lon="6.27867">
        <ele>2110</ele>
        <time>2015-10-11T10:25:40Z</time>
      </trkpt>
      <trkpt lat="44.61102" lon="6.27867">
        <ele>2109.21</ele>
        <time>2015-10-11T10:25:45Z</time>
      </trkpt>
      <trkpt lat="44.6111" lon="6.27867">
        <ele>2107.97</ele>
        <time>2015-10-11T10:26:02Z</time>
      </trkpt>
      <trkpt lat="44.61111" lon="6.27867">
        <ele>2107.65</ele>
        <time>2015-10-11T10:26:23Z</time>
      </trkpt>
      <trkpt lat="44.61112" lon="6.27867">
        <ele>2107.75</ele>
        <time>2015-10-11T10:26:44Z</time>
      </trkpt>
      <trkpt lat="44.61113" lon="6.27869">
        <ele>2107.79</ele>
        <time>2015-10-11T10:27:04Z</time>
      </trkpt>
      <trkpt lat="44.61113" lon="6.27868">
        <ele>2107.83</ele>
        <time>2015-10-11T10:27:26Z</time>
      </trkpt>
      <trkpt lat="44.61118" lon="6.27866">
        <ele>2107.52</ele>
        <time>2015-10-11T10:27:41Z</time>
      </trkpt>
      <trkpt lat="44.6113" lon="6.2786">
        <ele>2105.53</ele>
        <time>2015-10-11T10:27:58Z</time>
      </trkpt>
      <trkpt lat="44.6114" lon="6.27857">
        <ele>2102.49</ele>
        <time>2015-10-11T10:28:12Z</time>
      </trkpt>
      <trkpt lat="44.61155" lon="6.2786">
        <ele>2099.48</ele>
        <time>2015-10-11T10:28:30Z</time>
      </trkpt>
      <trkpt lat="44.61176" lon="6.27872">
        <ele>2096.29</ele>
        <time>2015-10-11T10:28:50Z</time>
      </trkpt>
      <trkpt lat="44.61193" lon="6.27873">
        <ele>2093.14</ele>
        <time>2015-10-11T10:29:08Z</time>
      </trkpt>
      <trkpt lat="44.61204" lon="6.27876">
        <ele>2089.88</ele>
        <time>2015-10-11T10:29:20Z</time>
      </trkpt>
      <trkpt lat="44.61215" lon="6.2788">
        <ele>2086.81</ele>
        <time>2015-10-11T10:29:34Z</time>
      </trkpt>
      <trkpt lat="44.61228" lon="6.27889">
        <ele>2083.79</ele>
        <time>2015-10-11T10:29:50Z</time>
      </trkpt>
      <trkpt lat="44.61241" lon="6.27895">
        <ele>2081.38</ele>
        <time>2015-10-11T10:30:07Z</time>
      </trkpt>
      <trkpt lat="44.6125" lon="6.27899">
        <ele>2079.82</ele>
        <time>2015-10-11T10:30:24Z</time>
      </trkpt>
      <trkpt lat="44.61252" lon="6.27899">
        <ele>2079.4</ele>
        <time>2015-10-11T10:30:40Z</time>
      </trkpt>
      <trkpt lat="44.61254" lon="6.279">
        <ele>2079.14</ele>
        <time>2015-10-11T10:30:55Z</time>
      </trkpt>
      <trkpt lat="44.6126" lon="6.27897">
        <ele>2079.4</ele>
        <time>2015-10-11T10:31:08Z</time>
      </trkpt>
      <trkpt lat="44.61264" lon="6.27899">
        <ele>2079.37</ele>
        <time>2015-10-11T10:31:24Z</time>
      </trkpt>
      <trkpt lat="44.61266" lon="6.27899">
        <ele>2078.54</ele>
        <time>2015-10-11T10:31:40Z</time>
      </trkpt>
      <trkpt lat="44.61269" lon="6.27899">
        <ele>2078.35</ele>
        <time>2015-10-11T10:32:16Z</time>
      </trkpt>
      <trkpt lat="44.61268" lon="6.27897">
        <ele>2078.55</ele>
        <time>2015-10-11T10:32:48Z</time>
      </trkpt>
      <trkpt lat="44.61267" lon="6.279">
        <ele>2078.26</ele>
        <time>2015-10-11T10:33:18Z</time>
      </trkpt>
      <trkpt lat="44.61267" lon="6.27895">
        <ele>2078.36</ele>
        <time>2015-10-11T10:33:36Z</time>
      </trkpt>
      <trkpt lat="44.61267" lon="6.27895">
        <ele>2078.16</ele>
        <time>2015-10-11T10:34:16Z</time>
      </trkpt>
      <trkpt lat="44.61267" lon="6.27894">
        <ele>2078.12</ele>
        <time>2015-10-11T10:34:44Z</time>
      </trkpt>
      <trkpt lat="44.61267" lon="6.27891">
        <ele>2078.06</ele>
        <time>2015-10-11T10:36:03Z</time>
      </trkpt>
      <trkpt lat="44.61267" lon="6.27891">
        <ele>2077.88</ele>
        <time>2015-10-11T10:37:04Z</time>
      </trkpt>
      <trkpt lat="44.61267" lon="6.27892">
        <ele>2077.83</ele>
        <time>2015-10-11T10:37:39Z</time>
      </trkpt>
      <trkpt lat="44.61267" lon="6.27893">
        <ele>2077.64</ele>
        <time>2015-10-11T10:38:25Z</time>
      </trkpt>
      <trkpt lat="44.61268" lon="6.27895">
        <ele>2077.63</ele>
        <time>2015-10-11T10:39:18Z</time>
      </trkpt>
      <trkpt lat="44.61269" lon="6.27899">
        <ele>2077.39</ele>
        <time>2015-10-11T10:39:51Z</time>
      </trkpt>
      <trkpt lat="44.61271" lon="6.27901">
        <ele>2077.21</ele>
        <time>2015-10-11T10:40:38Z</time>
      </trkpt>
      <trkpt lat="44.61269" lon="6.27901">
        <ele>2076.95</ele>
        <time>2015-10-11T10:41:43Z</time>
      </trkpt>
      <trkpt lat="44.61267" lon="6.27899">
        <ele>2076.53</ele>
        <time>2015-10-11T10:43:21Z</time>
      </trkpt>
      <trkpt lat="44.61267" lon="6.27898">
        <ele>2076.09</ele>
        <time>2015-10-11T10:45:20Z</time>
      </trkpt>
      <trkpt lat="44.61267" lon="6.27898">
        <ele>2075.46</ele>
        <time>2015-10-11T10:47:00Z</time>
      </trkpt>
      <trkpt lat="44.61266" lon="6.27896">
        <ele>2075.43</ele>
        <time>2015-10-11T10:49:25Z</time>
      </trkpt>
      <trkpt lat="44.61266" lon="6.27897">
        <ele>2074.85</ele>
        <time>2015-10-11T10:51:32Z</time>
      </trkpt>
      <trkpt lat="44.61267" lon="6.27896">
        <ele>2074.46</ele>
        <time>2015-10-11T10:53:49Z</time>
      </trkpt>
      <trkpt lat="44.61268" lon="6.27896">
        <ele>2074.39</ele>
        <time>2015-10-11T10:55:48Z</time>
      </trkpt>
      <trkpt lat="44.61268" lon="6.27896">
        <ele>2074.35</ele>
        <time>2015-10-11T10:57:06Z</time>
      </trkpt>
      <trkpt lat="44.61269" lon="6.27897">
        <ele>2074.05</ele>
        <time>2015-10-11T10:58:14Z</time>
      </trkpt>
      <trkpt lat="44.6127" lon="6.27898">
        <ele>2073.96</ele>
        <time>2015-10-11T10:59:11Z</time>
      </trkpt>
      <trkpt lat="44.61269" lon="6.27898">
        <ele>2074.06</ele>
        <time>2015-10-11T11:00:08Z</time>
      </trkpt>
      <trkpt lat="44.6127" lon="6.27897">
        <ele>2073.55</ele>
        <time>2015-10-11T11:01:19Z</time>
      </trkpt>
      <trkpt lat="44.6127" lon="6.27896">
        <ele>2073.21</ele>
        <time>2015-10-11T11:02:49Z</time>
      </trkpt>
      <trkpt lat="44.6127" lon="6.27896">
        <ele>2073.02</ele>
        <time>2015-10-11T11:04:02Z</time>
      </trkpt>
      <trkpt lat="44.6127" lon="6.27896">
        <ele>2072.6</ele>
        <time>2015-10-11T11:05:23Z</time>
      </trkpt>
      <trkpt lat="44.6127" lon="6.27896">
        <ele>2072.57</ele>
        <time>2015-10-11T11:06:08Z</time>
      </trkpt>
      <trkpt lat="44.61268" lon="6.27894">
        <ele>2072.01</ele>
        <time>2015-10-11T11:07:21Z</time>
      </trkpt>
      <trkpt lat="44.61266" lon="6.27896">
        <ele>2072.21</ele>
        <time>2015-10-11T11:08:07Z</time>
      </trkpt>
      <trkpt lat="44.61266" lon="6.27899">
        <ele>2071.72</ele>
        <time>2015-10-11T11:08:34Z</time>
      </trkpt>
      <trkpt lat="44.61267" lon="6.27903">
        <ele>2072.11</ele>
        <time>2015-10-11T11:09:00Z</time>
      </trkpt>
      <trkpt lat="44.61267" lon="6.27903">
        <ele>2071.81</ele>
        <time>2015-10-11T11:09:28Z</time>
      </trkpt>
      <trkpt lat="44.61266" lon="6.27903">
        <ele>2071.84</ele>
        <time>2015-10-11T11:09:55Z</time>
      </trkpt>
      <trkpt lat="44.61268" lon="6.27905">
        <ele>2071.28</ele>
        <time>2015-10-11T11:10:42Z</time>
      </trkpt>
      <trkpt lat="44.61267" lon="6.27903">
        <ele>2071.43</ele>
        <time>2015-10-11T11:11:39Z</time>
      </trkpt>
      <trkpt lat="44.61267" lon="6.27904">
        <ele>2070.74</ele>
        <time>2015-10-11T11:12:30Z</time>
      </trkpt>
      <trkpt lat="44.61267" lon="6.27906">
        <ele>2070.2</ele>
        <time>2015-10-11T11:13:46Z</time>
      </trkpt>
      <trkpt lat="44.61267" lon="6.27904">
        <ele>2069.89</ele>
        <time>2015-10-11T11:15:33Z</time>
      </trkpt>
      <trkpt lat="44.61266" lon="6.27903">
        <ele>2069.47</ele>
        <time>2015-10-11T11:16:47Z</time>
      </trkpt>
      <trkpt lat="44.61267" lon="6.27904">
        <ele>2069.7</ele>
        <time>2015-10-11T11:17:21Z</time>
      </trkpt>
      <trkpt lat="44.61267" lon="6.27903">
        <ele>2069.04</ele>
        <time>2015-10-11T11:18:04Z</time>
      </trkpt>
      <trkpt lat="44.61267" lon="6.27901">
        <ele>2068.72</ele>
        <time>2015-10-11T11:19:30Z</time>
      </trkpt>
      <trkpt lat="44.61267" lon="6.27903">
        <ele>2068.67</ele>
        <time>2015-10-11T11:21:07Z</time>
      </trkpt>
      <trkpt lat="44.61268" lon="6.27903">
        <ele>2068.37</ele>
        <time>2015-10-11T11:22:27Z</time>
      </trkpt>
      <trkpt lat="44.61268" lon="6.27902">
        <ele>2068.72</ele>
        <time>2015-10-11T11:22:56Z</time>
      </trkpt>
      <trkpt lat="44.61268" lon="6.27898">
        <ele>2069.58</ele>
        <time>2015-10-11T11:23:17Z</time>
      </trkpt>
      <trkpt lat="44.61268" lon="6.27901">
        <ele>2069.53</ele>
        <time>2015-10-11T11:23:42Z</time>
      </trkpt>
      <trkpt lat="44.61268" lon="6.27901">
        <ele>2069.17</ele>
        <time>2015-10-11T11:23:58Z</time>
      </trkpt>
      <trkpt lat="44.61269" lon="6.27902">
        <ele>2069.13</ele>
        <time>2015-10-11T11:24:18Z</time>
      </trkpt>
      <trkpt lat="44.61267" lon="6.279">
        <ele>2069.23</ele>
        <time>2015-10-11T11:24:42Z</time>
      </trkpt>
      <trkpt lat="44.61266" lon="6.27899">
        <ele>2069.27</ele>
        <time>2015-10-11T11:25:03Z</time>
      </trkpt>
      <trkpt lat="44.61265" lon="6.279">
        <ele>2069.4</ele>
        <time>2015-10-11T11:25:15Z</time>
      </trkpt>
      <trkpt lat="44.61263" lon="6.279">
        <ele>2069.39</ele>
        <time>2015-10-11T11:25:18Z</time>
      </trkpt>
      <trkpt lat="44.61261" lon="6.27903">
        <ele>2069.31</ele>
        <time>2015-10-11T11:25:21Z</time>
      </trkpt>
      <trkpt lat="44.61255" lon="6.2792">
        <ele>2068.86</ele>
        <time>2015-10-11T11:25:34Z</time>
      </trkpt>
      <trkpt lat="44.61267" lon="6.27934">
        <ele>2067.83</ele>
        <time>2015-10-11T11:25:51Z</time>
      </trkpt>
      <trkpt lat="44.61276" lon="6.2794">
        <ele>2066.76</ele>
        <time>2015-10-11T11:26:02Z</time>
      </trkpt>
      <trkpt lat="44.61289" lon="6.2794">
        <ele>2064.87</ele>
        <time>2015-10-11T11:26:20Z</time>
      </trkpt>
      <trkpt lat="44.61301" lon="6.27944">
        <ele>2064.21</ele>
        <time>2015-10-11T11:26:33Z</time>
      </trkpt>
      <trkpt lat="44.6132" lon="6.2794">
        <ele>2063.5</ele>
        <time>2015-10-11T11:26:53Z</time>
      </trkpt>
      <trkpt lat="44.61341" lon="6.27939">
        <ele>2062.94</ele>
        <time>2015-10-11T11:27:11Z</time>
      </trkpt>
      <trkpt lat="44.61359" lon="6.27938">
        <ele>2061.92</ele>
        <time>2015-10-11T11:27:29Z</time>
      </trkpt>
      <trkpt lat="44.6138" lon="6.27937">
        <ele>2059.06</ele>
        <time>2015-10-11T11:27:48Z</time>
      </trkpt>
      <trkpt lat="44.61398" lon="6.27932">
        <ele>2059.37</ele>
        <time>2015-10-11T11:28:07Z</time>
      </trkpt>
      <trkpt lat="44.61418" lon="6.27932">
        <ele>2059.83</ele>
        <time>2015-10-11T11:28:26Z</time>
      </trkpt>
      <trkpt lat="44.61431" lon="6.27928">
        <ele>2058.91</ele>
        <time>2015-10-11T11:28:44Z</time>
      </trkpt>
      <trkpt lat="44.61434" lon="6.27931">
        <ele>2058.68</ele>
        <time>2015-10-11T11:28:54Z</time>
      </trkpt>
      <trkpt lat="44.61439" lon="6.27933">
        <ele>2058.52</ele>
        <time>2015-10-11T11:28:59Z</time>
      </trkpt>
      <trkpt lat="44.61456" lon="6.27946">
        <ele>2055.56</ele>
        <time>2015-10-11T11:29:18Z</time>
      </trkpt>
      <trkpt lat="44.61471" lon="6.27967">
        <ele>2052.51</ele>
        <time>2015-10-11T11:29:35Z</time>
      </trkpt>
      <trkpt lat="44.61473" lon="6.27969">
        <ele>2052.22</ele>
        <time>2015-10-11T11:29:37Z</time>
      </trkpt>
      <trkpt lat="44.61489" lon="6.2799">
        <ele>2050.28</ele>
        <time>2015-10-11T11:29:53Z</time>
      </trkpt>
      <trkpt lat="44.61506" lon="6.28014">
        <ele>2049.48</ele>
        <time>2015-10-11T11:30:10Z</time>
      </trkpt>
      <trkpt lat="44.61523" lon="6.28024">
        <ele>2050.51</ele>
        <time>2015-10-11T11:30:25Z</time>
      </trkpt>
      <trkpt lat="44.61543" lon="6.2803">
        <ele>2050.89</ele>
        <time>2015-10-11T11:30:42Z</time>
      </trkpt>
      <trkpt lat="44.61563" lon="6.28041">
        <ele>2051.36</ele>
        <time>2015-10-11T11:31:01Z</time>
      </trkpt>
      <trkpt lat="44.61583" lon="6.28056">
        <ele>2052.09</ele>
        <time>2015-10-11T11:31:22Z</time>
      </trkpt>
      <trkpt lat="44.61592" lon="6.28076">
        <ele>2052.26</ele>
        <time>2015-10-11T11:31:38Z</time>
      </trkpt>
      <trkpt lat="44.61603" lon="6.28094">
        <ele>2049.7</ele>
        <time>2015-10-11T11:31:55Z</time>
      </trkpt>
      <trkpt lat="44.61615" lon="6.28112">
        <ele>2046.82</ele>
        <time>2015-10-11T11:32:13Z</time>
      </trkpt>
      <trkpt lat="44.61632" lon="6.28125">
        <ele>2044.58</ele>
        <time>2015-10-11T11:32:29Z</time>
      </trkpt>
      <trkpt lat="44.61648" lon="6.2812">
        <ele>2043.84</ele>
        <time>2015-10-11T11:32:44Z</time>
      </trkpt>
      <trkpt lat="44.61662" lon="6.28131">
        <ele>2043.64</ele>
        <time>2015-10-11T11:33:00Z</time>
      </trkpt>
      <trkpt lat="44.6167" lon="6.28142">
        <ele>2041.6</ele>
        <time>2015-10-11T11:33:16Z</time>
      </trkpt>
      <trkpt lat="44.61674" lon="6.28147">
        <ele>2041.27</ele>
        <time>2015-10-11T11:33:21Z</time>
      </trkpt>
      <trkpt lat="44.61685" lon="6.28161">
        <ele>2040.28</ele>
        <time>2015-10-11T11:33:38Z</time>
      </trkpt>
      <trkpt lat="44.61689" lon="6.28165">
        <ele>2040.24</ele>
        <time>2015-10-11T11:33:49Z</time>
      </trkpt>
      <trkpt lat="44.61689" lon="6.28168">
        <ele>2040.26</ele>
        <time>2015-10-11T11:33:51Z</time>
      </trkpt>
      <trkpt lat="44.61698" lon="6.28193">
        <ele>2038.34</ele>
        <time>2015-10-11T11:34:09Z</time>
      </trkpt>
      <trkpt lat="44.61713" lon="6.28218">
        <ele>2036.92</ele>
        <time>2015-10-11T11:34:27Z</time>
      </trkpt>
      <trkpt lat="44.61727" lon="6.28241">
        <ele>2035.37</ele>
        <time>2015-10-11T11:34:45Z</time>
      </trkpt>
      <trkpt lat="44.61736" lon="6.28248">
        <ele>2034.05</ele>
        <time>2015-10-11T11:34:55Z</time>
      </trkpt>
      <trkpt lat="44.61748" lon="6.28263">
        <ele>2030.74</ele>
        <time>2015-10-11T11:35:11Z</time>
      </trkpt>
      <trkpt lat="44.61761" lon="6.2828">
        <ele>2027.73</ele>
        <time>2015-10-11T11:35:26Z</time>
      </trkpt>
      <trkpt lat="44.61776" lon="6.28296">
        <ele>2025.48</ele>
        <time>2015-10-11T11:35:43Z</time>
      </trkpt>
      <trkpt lat="44.61792" lon="6.28314">
        <ele>2023.99</ele>
        <time>2015-10-11T11:36:01Z</time>
      </trkpt>
      <trkpt lat="44.61806" lon="6.28326">
        <ele>2022.69</ele>
        <time>2015-10-11T11:36:16Z</time>
      </trkpt>
      <trkpt lat="44.61828" lon="6.28336">
        <ele>2021.86</ele>
        <time>2015-10-11T11:36:37Z</time>
      </trkpt>
      <trkpt lat="44.61847" lon="6.28346">
        <ele>2020.19</ele>
        <time>2015-10-11T11:36:56Z</time>
      </trkpt>
      <trkpt lat="44.61867" lon="6.2836">
        <ele>2018.84</ele>
        <time>2015-10-11T11:37:14Z</time>
      </trkpt>
      <trkpt lat="44.61882" lon="6.28372">
        <ele>2017.39</ele>
        <time>2015-10-11T11:37:31Z</time>
      </trkpt>
      <trkpt lat="44.61894" lon="6.28381">
        <ele>2015.25</ele>
        <time>2015-10-11T11:37:47Z</time>
      </trkpt>
      <trkpt lat="44.61893" lon="6.28374">
        <ele>2014.69</ele>
        <time>2015-10-11T11:38:04Z</time>
      </trkpt>
      <trkpt lat="44.61887" lon="6.28366">
        <ele>2014.03</ele>
        <time>2015-10-11T11:38:17Z</time>
      </trkpt>
      <trkpt lat="44.6188" lon="6.28357">
        <ele>2012.8</ele>
        <time>2015-10-11T11:38:26Z</time>
      </trkpt>
      <trkpt lat="44.61865" lon="6.28336">
        <ele>2009.7</ele>
        <time>2015-10-11T11:38:46Z</time>
      </trkpt>
      <trkpt lat="44.61853" lon="6.28313">
        <ele>2006.6</ele>
        <time>2015-10-11T11:39:06Z</time>
      </trkpt>
      <trkpt lat="44.6184" lon="6.28301">
        <ele>2003.57</ele>
        <time>2015-10-11T11:39:22Z</time>
      </trkpt>
      <trkpt lat="44.6183" lon="6.28278">
        <ele>2000.55</ele>
        <time>2015-10-11T11:39:41Z</time>
      </trkpt>
      <trkpt lat="44.6182" lon="6.28256">
        <ele>1997.44</ele>
        <time>2015-10-11T11:39:59Z</time>
      </trkpt>
      <trkpt lat="44.61817" lon="6.28247">
        <ele>1995.19</ele>
        <time>2015-10-11T11:40:15Z</time>
      </trkpt>
      <trkpt lat="44.61812" lon="6.28232">
        <ele>1993.8</ele>
        <time>2015-10-11T11:40:31Z</time>
      </trkpt>
      <trkpt lat="44.6183" lon="6.28236">
        <ele>1990.47</ele>
        <time>2015-10-11T11:40:49Z</time>
      </trkpt>
      <trkpt lat="44.61848" lon="6.28246">
        <ele>1987.38</ele>
        <time>2015-10-11T11:41:05Z</time>
      </trkpt>
      <trkpt lat="44.61851" lon="6.28247">
        <ele>1987</ele>
        <time>2015-10-11T11:41:08Z</time>
      </trkpt>
      <trkpt lat="44.61855" lon="6.28244">
        <ele>1986.58</ele>
        <time>2015-10-11T11:41:12Z</time>
      </trkpt>
      <trkpt lat="44.61867" lon="6.28237">
        <ele>1983.38</ele>
        <time>2015-10-11T11:41:28Z</time>
      </trkpt>
      <trkpt lat="44.61867" lon="6.28224">
        <ele>1981.31</ele>
        <time>2015-10-11T11:41:43Z</time>
      </trkpt>
      <trkpt lat="44.61865" lon="6.2822">
        <ele>1980.89</ele>
        <time>2015-10-11T11:41:46Z</time>
      </trkpt>
      <trkpt lat="44.61859" lon="6.2821">
        <ele>1979.46</ele>
        <time>2015-10-11T11:41:56Z</time>
      </trkpt>
      <trkpt lat="44.6185" lon="6.28204">
        <ele>1977.92</ele>
        <time>2015-10-11T11:42:05Z</time>
      </trkpt>
      <trkpt lat="44.61842" lon="6.28185">
        <ele>1974.72</ele>
        <time>2015-10-11T11:42:21Z</time>
      </trkpt>
      <trkpt lat="44.61835" lon="6.28173">
        <ele>1973.01</ele>
        <time>2015-10-11T11:42:33Z</time>
      </trkpt>
      <trkpt lat="44.61832" lon="6.28169">
        <ele>1972.33</ele>
        <time>2015-10-11T11:42:37Z</time>
      </trkpt>
      <trkpt lat="44.6183" lon="6.28168">
        <ele>1971.59</ele>
        <time>2015-10-11T11:42:40Z</time>
      </trkpt>
      <trkpt lat="44.61821" lon="6.28159">
        <ele>1969.96</ele>
        <time>2015-10-11T11:42:50Z</time>
      </trkpt>
      <trkpt lat="44.61812" lon="6.28147">
        <ele>1967.64</ele>
        <time>2015-10-11T11:43:04Z</time>
      </trkpt>
      <trkpt lat="44.61806" lon="6.28136">
        <ele>1964.51</ele>
        <time>2015-10-11T11:43:22Z</time>
      </trkpt>
      <trkpt lat="44.61809" lon="6.28137">
        <ele>1964.18</ele>
        <time>2015-10-11T11:43:25Z</time>
      </trkpt>
      <trkpt lat="44.61822" lon="6.28136">
        <ele>1961.82</ele>
        <time>2015-10-11T11:43:42Z</time>
      </trkpt>
      <trkpt lat="44.61822" lon="6.28133">
        <ele>1959.68</ele>
        <time>2015-10-11T11:43:58Z</time>
      </trkpt>
      <trkpt lat="44.61821" lon="6.28128">
        <ele>1959.55</ele>
        <time>2015-10-11T11:44:04Z</time>
      </trkpt>
      <trkpt lat="44.61817" lon="6.28116">
        <ele>1957.2</ele>
        <time>2015-10-11T11:44:16Z</time>
      </trkpt>
      <trkpt lat="44.61814" lon="6.28109">
        <ele>1955.95</ele>
        <time>2015-10-11T11:44:22Z</time>
      </trkpt>
      <trkpt lat="44.61812" lon="6.28099">
        <ele>1954.57</ele>
        <time>2015-10-11T11:44:30Z</time>
      </trkpt>
      <trkpt lat="44.61812" lon="6.28094">
        <ele>1954.16</ele>
        <time>2015-10-11T11:44:33Z</time>
      </trkpt>
      <trkpt lat="44.61809" lon="6.28086">
        <ele>1953.29</ele>
        <time>2015-10-11T11:44:39Z</time>
      </trkpt>
      <trkpt lat="44.61803" lon="6.2807">
        <ele>1950.87</ele>
        <time>2015-10-11T11:44:56Z</time>
      </trkpt>
      <trkpt lat="44.61794" lon="6.28051">
        <ele>1948.5</ele>
        <time>2015-10-11T11:45:13Z</time>
      </trkpt>
      <trkpt lat="44.61783" lon="6.28024">
        <ele>1946.12</ele>
        <time>2015-10-11T11:45:35Z</time>
      </trkpt>
      <trkpt lat="44.61773" lon="6.28014">
        <ele>1943.62</ele>
        <time>2015-10-11T11:45:50Z</time>
      </trkpt>
      <trkpt lat="44.6177" lon="6.28012">
        <ele>1943.16</ele>
        <time>2015-10-11T11:45:53Z</time>
      </trkpt>
      <trkpt lat="44.61761" lon="6.27991">
        <ele>1940.68</ele>
        <time>2015-10-11T11:46:11Z</time>
      </trkpt>
      <trkpt lat="44.61753" lon="6.27979">
        <ele>1938.21</ele>
        <time>2015-10-11T11:46:25Z</time>
      </trkpt>
      <trkpt lat="44.61748" lon="6.27963">
        <ele>1935.1</ele>
        <time>2015-10-11T11:46:42Z</time>
      </trkpt>
      <trkpt lat="44.61743" lon="6.27952">
        <ele>1932.08</ele>
        <time>2015-10-11T11:46:58Z</time>
      </trkpt>
      <trkpt lat="44.6174" lon="6.27934">
        <ele>1928.8</ele>
        <time>2015-10-11T11:47:15Z</time>
      </trkpt>
      <trkpt lat="44.61737" lon="6.27921">
        <ele>1926.31</ele>
        <time>2015-10-11T11:47:26Z</time>
      </trkpt>
      <trkpt lat="44.61731" lon="6.279">
        <ele>1923</ele>
        <time>2015-10-11T11:47:43Z</time>
      </trkpt>
      <trkpt lat="44.6173" lon="6.27894">
        <ele>1922.28</ele>
        <time>2015-10-11T11:47:47Z</time>
      </trkpt>
      <trkpt lat="44.61726" lon="6.27886">
        <ele>1921.37</ele>
        <time>2015-10-11T11:47:53Z</time>
      </trkpt>
      <trkpt lat="44.61724" lon="6.27869">
        <ele>1920</ele>
        <time>2015-10-11T11:48:05Z</time>
      </trkpt>
      <trkpt lat="44.61719" lon="6.2786">
        <ele>1918.87</ele>
        <time>2015-10-11T11:48:22Z</time>
      </trkpt>
      <trkpt lat="44.61715" lon="6.2785">
        <ele>1918.13</ele>
        <time>2015-10-11T11:48:39Z</time>
      </trkpt>
      <trkpt lat="44.61715" lon="6.27847">
        <ele>1917.58</ele>
        <time>2015-10-11T11:48:51Z</time>
      </trkpt>
      <trkpt lat="44.61711" lon="6.27831">
        <ele>1916.9</ele>
        <time>2015-10-11T11:49:05Z</time>
      </trkpt>
      <trkpt lat="44.61709" lon="6.27812">
        <ele>1914.76</ele>
        <time>2015-10-11T11:49:21Z</time>
      </trkpt>
      <trkpt lat="44.61709" lon="6.27807">
        <ele>1914.5</ele>
        <time>2015-10-11T11:49:25Z</time>
      </trkpt>
      <trkpt lat="44.61709" lon="6.27804">
        <ele>1914.42</ele>
        <time>2015-10-11T11:49:27Z</time>
      </trkpt>
      <trkpt lat="44.61707" lon="6.27787">
        <ele>1914.32</ele>
        <time>2015-10-11T11:49:43Z</time>
      </trkpt>
      <trkpt lat="44.61706" lon="6.27779">
        <ele>1914.66</ele>
        <time>2015-10-11T11:50:03Z</time>
      </trkpt>
      <trkpt lat="44.61706" lon="6.27767">
        <ele>1913.22</ele>
        <time>2015-10-11T11:50:20Z</time>
      </trkpt>
      <trkpt lat="44.61707" lon="6.27747">
        <ele>1910.49</ele>
        <time>2015-10-11T11:50:39Z</time>
      </trkpt>
      <trkpt lat="44.61707" lon="6.27742">
        <ele>1910.04</ele>
        <time>2015-10-11T11:50:42Z</time>
      </trkpt>
      <trkpt lat="44.6171" lon="6.27727">
        <ele>1908.56</ele>
        <time>2015-10-11T11:50:57Z</time>
      </trkpt>
      <trkpt lat="44.61712" lon="6.27713">
        <ele>1907.78</ele>
        <time>2015-10-11T11:51:11Z</time>
      </trkpt>
      <trkpt lat="44.61717" lon="6.27699">
        <ele>1905.52</ele>
        <time>2015-10-11T11:51:23Z</time>
      </trkpt>
      <trkpt lat="44.6172" lon="6.27679">
        <ele>1902.77</ele>
        <time>2015-10-11T11:51:38Z</time>
      </trkpt>
      <trkpt lat="44.61721" lon="6.27674">
        <ele>1902.27</ele>
        <time>2015-10-11T11:51:42Z</time>
      </trkpt>
      <trkpt lat="44.61728" lon="6.27657">
        <ele>1900.69</ele>
        <time>2015-10-11T11:51:59Z</time>
      </trkpt>
      <trkpt lat="44.61731" lon="6.27653">
        <ele>1899.69</ele>
        <time>2015-10-11T11:52:16Z</time>
      </trkpt>
      <trkpt lat="44.61735" lon="6.27639">
        <ele>1899.43</ele>
        <time>2015-10-11T11:52:31Z</time>
      </trkpt>
      <trkpt lat="44.61738" lon="6.27623">
        <ele>1898.59</ele>
        <time>2015-10-11T11:52:44Z</time>
      </trkpt>
      <trkpt lat="44.61741" lon="6.27599">
        <ele>1898.4</ele>
        <time>2015-10-11T11:53:04Z</time>
      </trkpt>
      <trkpt lat="44.61743" lon="6.27593">
        <ele>1898.8</ele>
        <time>2015-10-11T11:53:09Z</time>
      </trkpt>
      <trkpt lat="44.61756" lon="6.27577">
        <ele>1899.34</ele>
        <time>2015-10-11T11:53:26Z</time>
      </trkpt>
      <trkpt lat="44.6177" lon="6.27569">
        <ele>1898.77</ele>
        <time>2015-10-11T11:53:41Z</time>
      </trkpt>
      <trkpt lat="44.61781" lon="6.27562">
        <ele>1897.03</ele>
        <time>2015-10-11T11:53:54Z</time>
      </trkpt>
      <trkpt lat="44.61782" lon="6.27558">
        <ele>1896.47</ele>
        <time>2015-10-11T11:53:58Z</time>
      </trkpt>
      <trkpt lat="44.61782" lon="6.27554">
        <ele>1895.94</ele>
        <time>2015-10-11T11:54:01Z</time>
      </trkpt>
      <trkpt lat="44.61785" lon="6.27548">
        <ele>1895.32</ele>
        <time>2015-10-11T11:54:05Z</time>
      </trkpt>
      <trkpt lat="44.61791" lon="6.27536">
        <ele>1894.75</ele>
        <time>2015-10-11T11:54:16Z</time>
      </trkpt>
      <trkpt lat="44.61793" lon="6.27527">
        <ele>1893.81</ele>
        <time>2015-10-11T11:54:24Z</time>
      </trkpt>
      <trkpt lat="44.61804" lon="6.27523">
        <ele>1893.26</ele>
        <time>2015-10-11T11:54:37Z</time>
      </trkpt>
      <trkpt lat="44.6182" lon="6.27524">
        <ele>1895.39</ele>
        <time>2015-10-11T11:54:55Z</time>
      </trkpt>
      <trkpt lat="44.61823" lon="6.27521">
        <ele>1895.53</ele>
        <time>2015-10-11T11:54:58Z</time>
      </trkpt>
      <trkpt lat="44.61835" lon="6.27498">
        <ele>1896.14</ele>
        <time>2015-10-11T11:55:17Z</time>
      </trkpt>
      <trkpt lat="44.61846" lon="6.27487">
        <ele>1896.78</ele>
        <time>2015-10-11T11:55:33Z</time>
      </trkpt>
      <trkpt lat="44.6186" lon="6.27484">
        <ele>1897.32</ele>
        <time>2015-10-11T11:55:48Z</time>
      </trkpt>
      <trkpt lat="44.61863" lon="6.27483">
        <ele>1897.45</ele>
        <time>2015-10-11T11:55:52Z</time>
      </trkpt>
      <trkpt lat="44.6188" lon="6.27487">
        <ele>1898.47</ele>
        <time>2015-10-11T11:56:09Z</time>
      </trkpt>
      <trkpt lat="44.61898" lon="6.27493">
        <ele>1899.06</ele>
        <time>2015-10-11T11:56:25Z</time>
      </trkpt>
      <trkpt lat="44.61907" lon="6.27496">
        <ele>1898.86</ele>
        <time>2015-10-11T11:56:34Z</time>
      </trkpt>
      <trkpt lat="44.61926" lon="6.27504">
        <ele>1899.7</ele>
        <time>2015-10-11T11:56:54Z</time>
      </trkpt>
      <trkpt lat="44.61938" lon="6.27507">
        <ele>1900.92</ele>
        <time>2015-10-11T11:57:09Z</time>
      </trkpt>
      <trkpt lat="44.61951" lon="6.27509">
        <ele>1902.16</ele>
        <time>2015-10-11T11:57:24Z</time>
      </trkpt>
      <trkpt lat="44.61956" lon="6.27508">
        <ele>1902.9</ele>
        <time>2015-10-11T11:57:32Z</time>
      </trkpt>
      <trkpt lat="44.61961" lon="6.27507">
        <ele>1903.33</ele>
        <time>2015-10-11T11:57:37Z</time>
      </trkpt>
      <trkpt lat="44.61981" lon="6.27498">
        <ele>1901.49</ele>
        <time>2015-10-11T11:57:57Z</time>
      </trkpt>
      <trkpt lat="44.62003" lon="6.27498">
        <ele>1900.61</ele>
        <time>2015-10-11T11:58:17Z</time>
      </trkpt>
      <trkpt lat="44.6202" lon="6.27487">
        <ele>1898.06</ele>
        <time>2015-10-11T11:58:37Z</time>
      </trkpt>
      <trkpt lat="44.6203" lon="6.27464">
        <ele>1896.08</ele>
        <time>2015-10-11T11:58:54Z</time>
      </trkpt>
      <trkpt lat="44.62031" lon="6.27458">
        <ele>1895.51</ele>
        <time>2015-10-11T11:58:59Z</time>
      </trkpt>
      <trkpt lat="44.6204" lon="6.27452">
        <ele>1894.88</ele>
        <time>2015-10-11T11:59:07Z</time>
      </trkpt>
      <trkpt lat="44.62059" lon="6.27452">
        <ele>1894.19</ele>
        <time>2015-10-11T11:59:24Z</time>
      </trkpt>
      <trkpt lat="44.62073" lon="6.27455">
        <ele>1891.46</ele>
        <time>2015-10-11T11:59:41Z</time>
      </trkpt>
      <trkpt lat="44.62075" lon="6.27455">
        <ele>1890.93</ele>
        <time>2015-10-11T11:59:44Z</time>
      </trkpt>
      <trkpt lat="44.62079" lon="6.27464">
        <ele>1888.75</ele>
        <time>2015-10-11T11:59:56Z</time>
      </trkpt>
      <trkpt lat="44.62088" lon="6.27463">
        <ele>1886.69</ele>
        <time>2015-10-11T12:00:10Z</time>
      </trkpt>
      <trkpt lat="44.62089" lon="6.27463">
        <ele>1886.45</ele>
        <time>2015-10-11T12:00:11Z</time>
      </trkpt>
      <trkpt lat="44.62102" lon="6.27458">
        <ele>1884.19</ele>
        <time>2015-10-11T12:00:27Z</time>
      </trkpt>
      <trkpt lat="44.62105" lon="6.27465">
        <ele>1881.97</ele>
        <time>2015-10-11T12:00:39Z</time>
      </trkpt>
      <trkpt lat="44.62109" lon="6.27467">
        <ele>1880.86</ele>
        <time>2015-10-11T12:00:44Z</time>
      </trkpt>
      <trkpt lat="44.6211" lon="6.27465">
        <ele>1880.4</ele>
        <time>2015-10-11T12:00:46Z</time>
      </trkpt>
      <trkpt lat="44.62112" lon="6.27459">
        <ele>1879.41</ele>
        <time>2015-10-11T12:00:51Z</time>
      </trkpt>
      <trkpt lat="44.62116" lon="6.27453">
        <ele>1877.8</ele>
        <time>2015-10-11T12:00:58Z</time>
      </trkpt>
      <trkpt lat="44.62118" lon="6.27449">
        <ele>1876.98</ele>
        <time>2015-10-11T12:01:02Z</time>
      </trkpt>
      <trkpt lat="44.62126" lon="6.27448">
        <ele>1875.14</ele>
        <time>2015-10-11T12:01:12Z</time>
      </trkpt>
      <trkpt lat="44.62127" lon="6.27452">
        <ele>1874.57</ele>
        <time>2015-10-11T12:01:15Z</time>
      </trkpt>
      <trkpt lat="44.62132" lon="6.27461">
        <ele>1871.89</ele>
        <time>2015-10-11T12:01:29Z</time>
      </trkpt>
      <trkpt lat="44.62143" lon="6.27467">
        <ele>1869.44</ele>
        <time>2015-10-11T12:01:43Z</time>
      </trkpt>
      <trkpt lat="44.62153" lon="6.27457">
        <ele>1866.91</ele>
        <time>2015-10-11T12:01:58Z</time>
      </trkpt>
      <trkpt lat="44.62154" lon="6.27458">
        <ele>1866.04</ele>
        <time>2015-10-11T12:02:15Z</time>
      </trkpt>
      <trkpt lat="44.62154" lon="6.27455">
        <ele>1864.98</ele>
        <time>2015-10-11T12:02:41Z</time>
      </trkpt>
      <trkpt lat="44.62155" lon="6.27453">
        <ele>1864.95</ele>
        <time>2015-10-11T12:03:20Z</time>
      </trkpt>
      <trkpt lat="44.62159" lon="6.27454">
        <ele>1865.46</ele>
        <time>2015-10-11T12:03:40Z</time>
      </trkpt>
      <trkpt lat="44.62163" lon="6.27456">
        <ele>1865.34</ele>
        <time>2015-10-11T12:03:43Z</time>
      </trkpt>
      <trkpt lat="44.62169" lon="6.27463">
        <ele>1862.98</ele>
        <time>2015-10-11T12:03:52Z</time>
      </trkpt>
      <trkpt lat="44.62173" lon="6.27473">
        <ele>1860.57</ele>
        <time>2015-10-11T12:04:02Z</time>
      </trkpt>
      <trkpt lat="44.62181" lon="6.27476">
        <ele>1858.24</ele>
        <time>2015-10-11T12:04:09Z</time>
      </trkpt>
      <trkpt lat="44.62182" lon="6.27465">
        <ele>1854.83</ele>
        <time>2015-10-11T12:04:21Z</time>
      </trkpt>
      <trkpt lat="44.62185" lon="6.27462">
        <ele>1853.98</ele>
        <time>2015-10-11T12:04:25Z</time>
      </trkpt>
      <trkpt lat="44.62191" lon="6.27459">
        <ele>1852.21</ele>
        <time>2015-10-11T12:04:32Z</time>
      </trkpt>
      <trkpt lat="44.62192" lon="6.27461">
        <ele>1851.79</ele>
        <time>2015-10-11T12:04:34Z</time>
      </trkpt>
      <trkpt lat="44.622" lon="6.27455">
        <ele>1849.8</ele>
        <time>2015-10-11T12:04:44Z</time>
      </trkpt>
      <trkpt lat="44.62206" lon="6.27451">
        <ele>1848.63</ele>
        <time>2015-10-11T12:04:50Z</time>
      </trkpt>
      <trkpt lat="44.62216" lon="6.27446">
        <ele>1846.29</ele>
        <time>2015-10-11T12:05:04Z</time>
      </trkpt>
      <trkpt lat="44.62227" lon="6.27444">
        <ele>1845</ele>
        <time>2015-10-11T12:05:17Z</time>
      </trkpt>
      <trkpt lat="44.62234" lon="6.27436">
        <ele>1843.79</ele>
        <time>2015-10-11T12:05:27Z</time>
      </trkpt>
      <trkpt lat="44.62243" lon="6.27427">
        <ele>1843.42</ele>
        <time>2015-10-11T12:05:44Z</time>
      </trkpt>
      <trkpt lat="44.62245" lon="6.27423">
        <ele>1843.08</ele>
        <time>2015-10-11T12:06:04Z</time>
      </trkpt>
      <trkpt lat="44.62245" lon="6.27423">
        <ele>1843.02</ele>
        <time>2015-10-11T12:06:20Z</time>
      </trkpt>
      <trkpt lat="44.62247" lon="6.27418">
        <ele>1842.96</ele>
        <time>2015-10-11T12:06:40Z</time>
      </trkpt>
      <trkpt lat="44.62253" lon="6.2741">
        <ele>1842.17</ele>
        <time>2015-10-11T12:06:54Z</time>
      </trkpt>
      <trkpt lat="44.62259" lon="6.27401">
        <ele>1840.86</ele>
        <time>2015-10-11T12:07:09Z</time>
      </trkpt>
      <trkpt lat="44.62266" lon="6.27387">
        <ele>1839.49</ele>
        <time>2015-10-11T12:07:25Z</time>
      </trkpt>
      <trkpt lat="44.62271" lon="6.2738">
        <ele>1838.36</ele>
        <time>2015-10-11T12:07:33Z</time>
      </trkpt>
      <trkpt lat="44.62273" lon="6.27378">
        <ele>1838.08</ele>
        <time>2015-10-11T12:07:35Z</time>
      </trkpt>
      <trkpt lat="44.62287" lon="6.27368">
        <ele>1835.68</ele>
        <time>2015-10-11T12:07:52Z</time>
      </trkpt>
      <trkpt lat="44.62302" lon="6.27362">
        <ele>1834.47</ele>
        <time>2015-10-11T12:08:10Z</time>
      </trkpt>
      <trkpt lat="44.62316" lon="6.27361">
        <ele>1832.61</ele>
        <time>2015-10-11T12:08:27Z</time>
      </trkpt>
      <trkpt lat="44.62325" lon="6.27361">
        <ele>1830.74</ele>
        <time>2015-10-11T12:08:42Z</time>
      </trkpt>
      <trkpt lat="44.6233" lon="6.27356">
        <ele>1829.78</ele>
        <time>2015-10-11T12:08:48Z</time>
      </trkpt>
      <trkpt lat="44.62346" lon="6.27345">
        <ele>1826.97</ele>
        <time>2015-10-11T12:09:05Z</time>
      </trkpt>
      <trkpt lat="44.62361" lon="6.27342">
        <ele>1824.65</ele>
        <time>2015-10-11T12:09:23Z</time>
      </trkpt>
      <trkpt lat="44.6237" lon="6.27332">
        <ele>1822.04</ele>
        <time>2015-10-11T12:09:42Z</time>
      </trkpt>
      <trkpt lat="44.62377" lon="6.27323">
        <ele>1818.97</ele>
        <time>2015-10-11T12:09:58Z</time>
      </trkpt>
      <trkpt lat="44.6238" lon="6.27316">
        <ele>1816.16</ele>
        <time>2015-10-11T12:10:14Z</time>
      </trkpt>
      <trkpt lat="44.62385" lon="6.27312">
        <ele>1813.04</ele>
        <time>2015-10-11T12:10:29Z</time>
      </trkpt>
      <trkpt lat="44.62391" lon="6.2731">
        <ele>1810.63</ele>
        <time>2015-10-11T12:10:46Z</time>
      </trkpt>
      <trkpt lat="44.62396" lon="6.27308">
        <ele>1807.6</ele>
        <time>2015-10-11T12:11:05Z</time>
      </trkpt>
      <trkpt lat="44.62404" lon="6.27299">
        <ele>1804.49</ele>
        <time>2015-10-11T12:11:24Z</time>
      </trkpt>
      <trkpt lat="44.62416" lon="6.27285">
        <ele>1801.34</ele>
        <time>2015-10-11T12:11:40Z</time>
      </trkpt>
      <trkpt lat="44.62423" lon="6.27279">
        <ele>1799.64</ele>
        <time>2015-10-11T12:11:47Z</time>
      </trkpt>
      <trkpt lat="44.62432" lon="6.27268">
        <ele>1796.95</ele>
        <time>2015-10-11T12:11:58Z</time>
      </trkpt>
      <trkpt lat="44.62434" lon="6.27259">
        <ele>1795.99</ele>
        <time>2015-10-11T12:12:03Z</time>
      </trkpt>
      <trkpt lat="44.62439" lon="6.27246">
        <ele>1795.45</ele>
        <time>2015-10-11T12:12:11Z</time>
      </trkpt>
      <trkpt lat="44.62448" lon="6.27239">
        <ele>1794.09</ele>
        <time>2015-10-11T12:12:19Z</time>
      </trkpt>
      <trkpt lat="44.62451" lon="6.27234">
        <ele>1793.43</ele>
        <time>2015-10-11T12:12:23Z</time>
      </trkpt>
      <trkpt lat="44.62455" lon="6.2723">
        <ele>1792.71</ele>
        <time>2015-10-11T12:12:27Z</time>
      </trkpt>
      <trkpt lat="44.6247" lon="6.27209">
        <ele>1789.83</ele>
        <time>2015-10-11T12:12:45Z</time>
      </trkpt>
      <trkpt lat="44.62485" lon="6.27194">
        <ele>1787.49</ele>
        <time>2015-10-11T12:13:02Z</time>
      </trkpt>
      <trkpt lat="44.62497" lon="6.27178">
        <ele>1786.29</ele>
        <time>2015-10-11T12:13:20Z</time>
      </trkpt>
      <trkpt lat="44.62506" lon="6.27161">
        <ele>1783.6</ele>
        <time>2015-10-11T12:13:38Z</time>
      </trkpt>
      <trkpt lat="44.62507" lon="6.27152">
        <ele>1782.06</ele>
        <time>2015-10-11T12:13:48Z</time>
      </trkpt>
      <trkpt lat="44.62505" lon="6.27145">
        <ele>1781.35</ele>
        <time>2015-10-11T12:13:54Z</time>
      </trkpt>
      <trkpt lat="44.62504" lon="6.27125">
        <ele>1778.77</ele>
        <time>2015-10-11T12:14:09Z</time>
      </trkpt>
      <trkpt lat="44.62502" lon="6.27109">
        <ele>1775.73</ele>
        <time>2015-10-11T12:14:25Z</time>
      </trkpt>
      <trkpt lat="44.625" lon="6.27092">
        <ele>1773.05</ele>
        <time>2015-10-11T12:14:41Z</time>
      </trkpt>
      <trkpt lat="44.62497" lon="6.27071">
        <ele>1771.93</ele>
        <time>2015-10-11T12:14:57Z</time>
      </trkpt>
      <trkpt lat="44.62502" lon="6.27056">
        <ele>1770.19</ele>
        <time>2015-10-11T12:15:16Z</time>
      </trkpt>
      <trkpt lat="44.62502" lon="6.2704">
        <ele>1767.7</ele>
        <time>2015-10-11T12:15:28Z</time>
      </trkpt>
      <trkpt lat="44.62507" lon="6.27021">
        <ele>1765.74</ele>
        <time>2015-10-11T12:15:41Z</time>
      </trkpt>
      <trkpt lat="44.62519" lon="6.27004">
        <ele>1764.27</ele>
        <time>2015-10-11T12:15:57Z</time>
      </trkpt>
      <trkpt lat="44.62521" lon="6.26997">
        <ele>1762.93</ele>
        <time>2015-10-11T12:16:13Z</time>
      </trkpt>
      <trkpt lat="44.6252" lon="6.27">
        <ele>1762.76</ele>
        <time>2015-10-11T12:16:16Z</time>
      </trkpt>
      <trkpt lat="44.6252" lon="6.27004">
        <ele>1762.22</ele>
        <time>2015-10-11T12:16:21Z</time>
      </trkpt>
      <trkpt lat="44.6252" lon="6.27008">
        <ele>1761.87</ele>
        <time>2015-10-11T12:16:24Z</time>
      </trkpt>
      <trkpt lat="44.62518" lon="6.27013">
        <ele>1761.03</ele>
        <time>2015-10-11T12:16:29Z</time>
      </trkpt>
      <trkpt lat="44.62521" lon="6.27025">
        <ele>1758.95</ele>
        <time>2015-10-11T12:16:46Z</time>
      </trkpt>
      <trkpt lat="44.62527" lon="6.27029">
        <ele>1756.93</ele>
        <time>2015-10-11T12:16:59Z</time>
      </trkpt>
      <trkpt lat="44.62529" lon="6.27036">
        <ele>1755.5</ele>
        <time>2015-10-11T12:17:09Z</time>
      </trkpt>
      <trkpt lat="44.62534" lon="6.27048">
        <ele>1753.69</ele>
        <time>2015-10-11T12:17:20Z</time>
      </trkpt>
      <trkpt lat="44.62537" lon="6.2705">
        <ele>1751.1</ele>
        <time>2015-10-11T12:17:36Z</time>
      </trkpt>
      <trkpt lat="44.62549" lon="6.27038">
        <ele>1748.44</ele>
        <time>2015-10-11T12:17:51Z</time>
      </trkpt>
      <trkpt lat="44.62558" lon="6.27023">
        <ele>1746.26</ele>
        <time>2015-10-11T12:18:08Z</time>
      </trkpt>
      <trkpt lat="44.62562" lon="6.27002">
        <ele>1743.61</ele>
        <time>2015-10-11T12:18:25Z</time>
      </trkpt>
      <trkpt lat="44.62561" lon="6.26984">
        <ele>1740.51</ele>
        <time>2015-10-11T12:18:41Z</time>
      </trkpt>
      <trkpt lat="44.62565" lon="6.26965">
        <ele>1737.44</ele>
        <time>2015-10-11T12:18:56Z</time>
      </trkpt>
      <trkpt lat="44.62566" lon="6.26946">
        <ele>1734.68</ele>
        <time>2015-10-11T12:19:10Z</time>
      </trkpt>
      <trkpt lat="44.62567" lon="6.26943">
        <ele>1734.39</ele>
        <time>2015-10-11T12:19:12Z</time>
      </trkpt>
      <trkpt lat="44.62569" lon="6.26927">
        <ele>1732.75</ele>
        <time>2015-10-11T12:19:24Z</time>
      </trkpt>
      <trkpt lat="44.62571" lon="6.26909">
        <ele>1731.94</ele>
        <time>2015-10-11T12:19:38Z</time>
      </trkpt>
      <trkpt lat="44.62581" lon="6.26895">
        <ele>1730.18</ele>
        <time>2015-10-11T12:19:52Z</time>
      </trkpt>
      <trkpt lat="44.62584" lon="6.2688">
        <ele>1727.1</ele>
        <time>2015-10-11T12:20:06Z</time>
      </trkpt>
      <trkpt lat="44.62587" lon="6.26861">
        <ele>1724.09</ele>
        <time>2015-10-11T12:20:21Z</time>
      </trkpt>
      <trkpt lat="44.62595" lon="6.26838">
        <ele>1721.7</ele>
        <time>2015-10-11T12:20:41Z</time>
      </trkpt>
      <trkpt lat="44.62603" lon="6.2682">
        <ele>1720.77</ele>
        <time>2015-10-11T12:21:01Z</time>
      </trkpt>
      <trkpt lat="44.62606" lon="6.26806">
        <ele>1719.9</ele>
        <time>2015-10-11T12:21:19Z</time>
      </trkpt>
      <trkpt lat="44.62608" lon="6.268">
        <ele>1719.26</ele>
        <time>2015-10-11T12:21:41Z</time>
      </trkpt>
      <trkpt lat="44.62612" lon="6.26793">
        <ele>1718.88</ele>
        <time>2015-10-11T12:22:06Z</time>
      </trkpt>
      <trkpt lat="44.62619" lon="6.26779">
        <ele>1716.1</ele>
        <time>2015-10-11T12:22:24Z</time>
      </trkpt>
      <trkpt lat="44.62623" lon="6.26755">
        <ele>1713.43</ele>
        <time>2015-10-11T12:22:43Z</time>
      </trkpt>
      <trkpt lat="44.62626" lon="6.26731">
        <ele>1711.36</ele>
        <time>2015-10-11T12:23:00Z</time>
      </trkpt>
      <trkpt lat="44.62629" lon="6.26701">
        <ele>1709.12</ele>
        <time>2015-10-11T12:23:19Z</time>
      </trkpt>
      <trkpt lat="44.62631" lon="6.26669">
        <ele>1707.7</ele>
        <time>2015-10-11T12:23:40Z</time>
      </trkpt>
      <trkpt lat="44.62636" lon="6.26641">
        <ele>1706.19</ele>
        <time>2015-10-11T12:23:58Z</time>
      </trkpt>
      <trkpt lat="44.62638" lon="6.26605">
        <ele>1705.19</ele>
        <time>2015-10-11T12:24:17Z</time>
      </trkpt>
      <trkpt lat="44.6264" lon="6.26585">
        <ele>1704.76</ele>
        <time>2015-10-11T12:24:31Z</time>
      </trkpt>
      <trkpt lat="44.62639" lon="6.26563">
        <ele>1703.56</ele>
        <time>2015-10-11T12:24:52Z</time>
      </trkpt>
      <trkpt lat="44.62639" lon="6.26538">
        <ele>1700.91</ele>
        <time>2015-10-11T12:25:11Z</time>
      </trkpt>
      <trkpt lat="44.62635" lon="6.26515">
        <ele>1698.2</ele>
        <time>2015-10-11T12:25:30Z</time>
      </trkpt>
      <trkpt lat="44.62635" lon="6.26508">
        <ele>1697.27</ele>
        <time>2015-10-11T12:25:37Z</time>
      </trkpt>
      <trkpt lat="44.62638" lon="6.26489">
        <ele>1695.62</ele>
        <time>2015-10-11T12:25:55Z</time>
      </trkpt>
      <trkpt lat="44.62633" lon="6.26469">
        <ele>1692.55</ele>
        <time>2015-10-11T12:26:13Z</time>
      </trkpt>
      <trkpt lat="44.62635" lon="6.26439">
        <ele>1689.9</ele>
        <time>2015-10-11T12:26:31Z</time>
      </trkpt>
      <trkpt lat="44.62629" lon="6.26412">
        <ele>1687.82</ele>
        <time>2015-10-11T12:26:51Z</time>
      </trkpt>
      <trkpt lat="44.62629" lon="6.26382">
        <ele>1685.74</ele>
        <time>2015-10-11T12:27:13Z</time>
      </trkpt>
      <trkpt lat="44.62632" lon="6.26357">
        <ele>1682.6</ele>
        <time>2015-10-11T12:27:31Z</time>
      </trkpt>
      <trkpt lat="44.62629" lon="6.26342">
        <ele>1679.48</ele>
        <time>2015-10-11T12:27:48Z</time>
      </trkpt>
      <trkpt lat="44.62625" lon="6.26321">
        <ele>1676.44</ele>
        <time>2015-10-11T12:28:06Z</time>
      </trkpt>
      <trkpt lat="44.62623" lon="6.26306">
        <ele>1673.7</ele>
        <time>2015-10-11T12:28:26Z</time>
      </trkpt>
      <trkpt lat="44.62621" lon="6.26302">
        <ele>1671.96</ele>
        <time>2015-10-11T12:28:44Z</time>
      </trkpt>
      <trkpt lat="44.62619" lon="6.26299">
        <ele>1672.2</ele>
        <time>2015-10-11T12:29:12Z</time>
      </trkpt>
      <trkpt lat="44.62617" lon="6.26303">
        <ele>1671.62</ele>
        <time>2015-10-11T12:29:38Z</time>
      </trkpt>
      <trkpt lat="44.62618" lon="6.26301">
        <ele>1671.8</ele>
        <time>2015-10-11T12:30:18Z</time>
      </trkpt>
      <trkpt lat="44.62619" lon="6.26305">
        <ele>1672.22</ele>
        <time>2015-10-11T12:30:40Z</time>
      </trkpt>
      <trkpt lat="44.62621" lon="6.263">
        <ele>1672.05</ele>
        <time>2015-10-11T12:31:06Z</time>
      </trkpt>
      <trkpt lat="44.62621" lon="6.26301">
        <ele>1671.87</ele>
        <time>2015-10-11T12:31:30Z</time>
      </trkpt>
      <trkpt lat="44.62622" lon="6.26304">
        <ele>1671.78</ele>
        <time>2015-10-11T12:31:55Z</time>
      </trkpt>
      <trkpt lat="44.6262" lon="6.26303">
        <ele>1671.48</ele>
        <time>2015-10-11T12:32:24Z</time>
      </trkpt>
      <trkpt lat="44.62623" lon="6.26302">
        <ele>1671.22</ele>
        <time>2015-10-11T12:32:54Z</time>
      </trkpt>
      <trkpt lat="44.62626" lon="6.26294">
        <ele>1669.89</ele>
        <time>2015-10-11T12:33:16Z</time>
      </trkpt>
      <trkpt lat="44.62628" lon="6.2628">
        <ele>1666.77</ele>
        <time>2015-10-11T12:33:36Z</time>
      </trkpt>
      <trkpt lat="44.62631" lon="6.26273">
        <ele>1665.11</ele>
        <time>2015-10-11T12:33:58Z</time>
      </trkpt>
      <trkpt lat="44.62636" lon="6.26264">
        <ele>1662.93</ele>
        <time>2015-10-11T12:34:15Z</time>
      </trkpt>
      <trkpt lat="44.62644" lon="6.26258">
        <ele>1659.98</ele>
        <time>2015-10-11T12:34:35Z</time>
      </trkpt>
      <trkpt lat="44.62653" lon="6.2625">
        <ele>1656.93</ele>
        <time>2015-10-11T12:34:52Z</time>
      </trkpt>
      <trkpt lat="44.62659" lon="6.26253">
        <ele>1655.35</ele>
        <time>2015-10-11T12:35:02Z</time>
      </trkpt>
      <trkpt lat="44.62665" lon="6.26253">
        <ele>1653.24</ele>
        <time>2015-10-11T12:35:22Z</time>
      </trkpt>
      <trkpt lat="44.62671" lon="6.26243">
        <ele>1650.22</ele>
        <time>2015-10-11T12:35:40Z</time>
      </trkpt>
      <trkpt lat="44.62681" lon="6.26246">
        <ele>1647.18</ele>
        <time>2015-10-11T12:35:54Z</time>
      </trkpt>
      <trkpt lat="44.62689" lon="6.26249">
        <ele>1644.38</ele>
        <time>2015-10-11T12:36:12Z</time>
      </trkpt>
      <trkpt lat="44.62695" lon="6.26244">
        <ele>1641.88</ele>
        <time>2015-10-11T12:36:31Z</time>
      </trkpt>
      <trkpt lat="44.62697" lon="6.26244">
        <ele>1641.19</ele>
        <time>2015-10-11T12:36:51Z</time>
      </trkpt>
      <trkpt lat="44.62701" lon="6.26244">
        <ele>1641.4</ele>
        <time>2015-10-11T12:37:24Z</time>
      </trkpt>
      <trkpt lat="44.62703" lon="6.26248">
        <ele>1641.01</ele>
        <time>2015-10-11T12:37:44Z</time>
      </trkpt>
      <trkpt lat="44.62707" lon="6.26264">
        <ele>1637.86</ele>
        <time>2015-10-11T12:38:03Z</time>
      </trkpt>
      <trkpt lat="44.6271" lon="6.26285">
        <ele>1635.24</ele>
        <time>2015-10-11T12:38:22Z</time>
      </trkpt>
      <trkpt lat="44.62714" lon="6.26297">
        <ele>1633.95</ele>
        <time>2015-10-11T12:38:35Z</time>
      </trkpt>
      <trkpt lat="44.62715" lon="6.26317">
        <ele>1633.82</ele>
        <time>2015-10-11T12:38:50Z</time>
      </trkpt>
      <trkpt lat="44.62719" lon="6.26331">
        <ele>1633.83</ele>
        <time>2015-10-11T12:38:59Z</time>
      </trkpt>
      <trkpt lat="44.62726" lon="6.26352">
        <ele>1634.28</ele>
        <time>2015-10-11T12:39:13Z</time>
      </trkpt>
      <trkpt lat="44.62736" lon="6.26353">
        <ele>1633.62</ele>
        <time>2015-10-11T12:39:29Z</time>
      </trkpt>
      <trkpt lat="44.62743" lon="6.26347">
        <ele>1633.29</ele>
        <time>2015-10-11T12:39:41Z</time>
      </trkpt>
      <trkpt lat="44.62752" lon="6.26341">
        <ele>1633.45</ele>
        <time>2015-10-11T12:39:49Z</time>
      </trkpt>
      <trkpt lat="44.62759" lon="6.26343">
        <ele>1634.06</ele>
        <time>2015-10-11T12:39:57Z</time>
      </trkpt>
      <trkpt lat="44.62768" lon="6.26329">
        <ele>1635.25</ele>
        <time>2015-10-11T12:40:14Z</time>
      </trkpt>
      <trkpt lat="44.6277" lon="6.26318">
        <ele>1635.84</ele>
        <time>2015-10-11T12:40:23Z</time>
      </trkpt>
      <trkpt lat="44.62774" lon="6.26296">
        <ele>1637.81</ele>
        <time>2015-10-11T12:40:42Z</time>
      </trkpt>
      <trkpt lat="44.62773" lon="6.26295">
        <ele>1638.6</ele>
        <time>2015-10-11T12:41:02Z</time>
      </trkpt>
      <trkpt lat="44.62772" lon="6.26289">
        <ele>1638.71</ele>
        <time>2015-10-11T12:41:08Z</time>
      </trkpt>
      <trkpt lat="44.62767" lon="6.2627">
        <ele>1638.41</ele>
        <time>2015-10-11T12:41:25Z</time>
      </trkpt>
      <trkpt lat="44.62767" lon="6.26253">
        <ele>1637.99</ele>
        <time>2015-10-11T12:41:37Z</time>
      </trkpt>
      <trkpt lat="44.62765" lon="6.26233">
        <ele>1637.32</ele>
        <time>2015-10-11T12:41:51Z</time>
      </trkpt>
      <trkpt lat="44.62767" lon="6.26215">
        <ele>1637.18</ele>
        <time>2015-10-11T12:42:05Z</time>
      </trkpt>
      <trkpt lat="44.62766" lon="6.26192">
        <ele>1636.62</ele>
        <time>2015-10-11T12:42:23Z</time>
      </trkpt>
      <trkpt lat="44.62763" lon="6.26165">
        <ele>1634.69</ele>
        <time>2015-10-11T12:42:44Z</time>
      </trkpt>
      <trkpt lat="44.62752" lon="6.26152">
        <ele>1633.45</ele>
        <time>2015-10-11T12:43:00Z</time>
      </trkpt>
      <trkpt lat="44.62749" lon="6.26148">
        <ele>1633.14</ele>
        <time>2015-10-11T12:43:05Z</time>
      </trkpt>
      <trkpt lat="44.62739" lon="6.26127">
        <ele>1631.93</ele>
        <time>2015-10-11T12:43:22Z</time>
      </trkpt>
      <trkpt lat="44.62733" lon="6.26106">
        <ele>1630.04</ele>
        <time>2015-10-11T12:43:37Z</time>
      </trkpt>
      <trkpt lat="44.6273" lon="6.26102">
        <ele>1629.77</ele>
        <time>2015-10-11T12:43:40Z</time>
      </trkpt>
      <trkpt lat="44.62721" lon="6.26073">
        <ele>1628.47</ele>
        <time>2015-10-11T12:43:58Z</time>
      </trkpt>
      <trkpt lat="44.62712" lon="6.26051">
        <ele>1626.75</ele>
        <time>2015-10-11T12:44:14Z</time>
      </trkpt>
      <trkpt lat="44.62702" lon="6.26033">
        <ele>1625.17</ele>
        <time>2015-10-11T12:44:29Z</time>
      </trkpt>
      <trkpt lat="44.62701" lon="6.2603">
        <ele>1624.94</ele>
        <time>2015-10-11T12:44:31Z</time>
      </trkpt>
      <trkpt lat="44.62693" lon="6.2601">
        <ele>1622.93</ele>
        <time>2015-10-11T12:44:46Z</time>
      </trkpt>
      <trkpt lat="44.6269" lon="6.25987">
        <ele>1620.92</ele>
        <time>2015-10-11T12:45:02Z</time>
      </trkpt>
      <trkpt lat="44.62688" lon="6.25963">
        <ele>1619.02</ele>
        <time>2015-10-11T12:45:19Z</time>
      </trkpt>
      <trkpt lat="44.62687" lon="6.25951">
        <ele>1618.36</ele>
        <time>2015-10-11T12:45:26Z</time>
      </trkpt>
      <trkpt lat="44.62689" lon="6.25937">
        <ele>1617.48</ele>
        <time>2015-10-11T12:45:35Z</time>
      </trkpt>
      <trkpt lat="44.62688" lon="6.25931">
        <ele>1616.99</ele>
        <time>2015-10-11T12:45:39Z</time>
      </trkpt>
      <trkpt lat="44.62689" lon="6.25922">
        <ele>1616.55</ele>
        <time>2015-10-11T12:45:45Z</time>
      </trkpt>
      <trkpt lat="44.62689" lon="6.259">
        <ele>1614.65</ele>
        <time>2015-10-11T12:46:00Z</time>
      </trkpt>
      <trkpt lat="44.62687" lon="6.25883">
        <ele>1613.25</ele>
        <time>2015-10-11T12:46:13Z</time>
      </trkpt>
      <trkpt lat="44.62687" lon="6.25873">
        <ele>1612.32</ele>
        <time>2015-10-11T12:46:21Z</time>
      </trkpt>
      <trkpt lat="44.62684" lon="6.25856">
        <ele>1611.12</ele>
        <time>2015-10-11T12:46:34Z</time>
      </trkpt>
      <trkpt lat="44.62679" lon="6.25839">
        <ele>1609.75</ele>
        <time>2015-10-11T12:46:47Z</time>
      </trkpt>
      <trkpt lat="44.62672" lon="6.25817">
        <ele>1608.56</ele>
        <time>2015-10-11T12:47:01Z</time>
      </trkpt>
      <trkpt lat="44.62666" lon="6.25792">
        <ele>1606.62</ele>
        <time>2015-10-11T12:47:17Z</time>
      </trkpt>
      <trkpt lat="44.62657" lon="6.2577">
        <ele>1605.3</ele>
        <time>2015-10-11T12:47:34Z</time>
      </trkpt>
      <trkpt lat="44.62647" lon="6.25753">
        <ele>1604.09</ele>
        <time>2015-10-11T12:47:47Z</time>
      </trkpt>
      <trkpt lat="44.62637" lon="6.25729">
        <ele>1602.89</ele>
        <time>2015-10-11T12:48:04Z</time>
      </trkpt>
      <trkpt lat="44.62627" lon="6.25711">
        <ele>1601.89</ele>
        <time>2015-10-11T12:48:18Z</time>
      </trkpt>
      <trkpt lat="44.62615" lon="6.25693">
        <ele>1600.27</ele>
        <time>2015-10-11T12:48:33Z</time>
      </trkpt>
      <trkpt lat="44.6261" lon="6.25682">
        <ele>1599.24</ele>
        <time>2015-10-11T12:48:44Z</time>
      </trkpt>
      <trkpt lat="44.62608" lon="6.25679">
        <ele>1599.15</ele>
        <time>2015-10-11T12:48:46Z</time>
      </trkpt>
      <trkpt lat="44.62607" lon="6.25677">
        <ele>1599.06</ele>
        <time>2015-10-11T12:48:48Z</time>
      </trkpt>
      <trkpt lat="44.62599" lon="6.25657">
        <ele>1597.52</ele>
        <time>2015-10-11T12:49:04Z</time>
      </trkpt>
      <trkpt lat="44.62597" lon="6.25651">
        <ele>1597.03</ele>
        <time>2015-10-11T12:49:09Z</time>
      </trkpt>
      <trkpt lat="44.62592" lon="6.25631">
        <ele>1595.38</ele>
        <time>2015-10-11T12:49:24Z</time>
      </trkpt>
      <trkpt lat="44.62587" lon="6.25611">
        <ele>1594.08</ele>
        <time>2015-10-11T12:49:39Z</time>
      </trkpt>
      <trkpt lat="44.62585" lon="6.25593">
        <ele>1592.72</ele>
        <time>2015-10-11T12:49:53Z</time>
      </trkpt>
      <trkpt lat="44.62582" lon="6.2557">
        <ele>1591.03</ele>
        <time>2015-10-11T12:50:12Z</time>
      </trkpt>
      <trkpt lat="44.62579" lon="6.25543">
        <ele>1589.4</ele>
        <time>2015-10-11T12:50:30Z</time>
      </trkpt>
      <trkpt lat="44.62576" lon="6.25515">
        <ele>1587.74</ele>
        <time>2015-10-11T12:50:47Z</time>
      </trkpt>
      <trkpt lat="44.62577" lon="6.25489">
        <ele>1586.3</ele>
        <time>2015-10-11T12:51:02Z</time>
      </trkpt>
      <trkpt lat="44.62579" lon="6.25471">
        <ele>1585.34</ele>
        <time>2015-10-11T12:51:12Z</time>
      </trkpt>
      <trkpt lat="44.62579" lon="6.25463">
        <ele>1585.02</ele>
        <time>2015-10-11T12:51:16Z</time>
      </trkpt>
      <trkpt lat="44.62578" lon="6.25434">
        <ele>1583.73</ele>
        <time>2015-10-11T12:51:33Z</time>
      </trkpt>
      <trkpt lat="44.62577" lon="6.25427">
        <ele>1583.4</ele>
        <time>2015-10-11T12:51:38Z</time>
      </trkpt>
      <trkpt lat="44.62575" lon="6.25404">
        <ele>1582.13</ele>
        <time>2015-10-11T12:51:53Z</time>
      </trkpt>
      <trkpt lat="44.62574" lon="6.254">
        <ele>1581.93</ele>
        <time>2015-10-11T12:51:56Z</time>
      </trkpt>
      <trkpt lat="44.6257" lon="6.25374">
        <ele>1580.89</ele>
        <time>2015-10-11T12:52:12Z</time>
      </trkpt>
      <trkpt lat="44.62568" lon="6.25365">
        <ele>1580.29</ele>
        <time>2015-10-11T12:52:18Z</time>
      </trkpt>
      <trkpt lat="44.6256" lon="6.25342">
        <ele>1579.38</ele>
        <time>2015-10-11T12:52:34Z</time>
      </trkpt>
      <trkpt lat="44.62555" lon="6.25316">
        <ele>1578.44</ele>
        <time>2015-10-11T12:52:51Z</time>
      </trkpt>
      <trkpt lat="44.62548" lon="6.25292">
        <ele>1577.58</ele>
        <time>2015-10-11T12:53:08Z</time>
      </trkpt>
      <trkpt lat="44.62539" lon="6.25264">
        <ele>1576.98</ele>
        <time>2015-10-11T12:53:26Z</time>
      </trkpt>
      <trkpt lat="44.62529" lon="6.25251">
        <ele>1576.11</ele>
        <time>2015-10-11T12:53:40Z</time>
      </trkpt>
      <trkpt lat="44.62513" lon="6.25239">
        <ele>1574.74</ele>
        <time>2015-10-11T12:53:56Z</time>
      </trkpt>
      <trkpt lat="44.62502" lon="6.25233">
        <ele>1573.51</ele>
        <time>2015-10-11T12:54:09Z</time>
      </trkpt>
      <trkpt lat="44.62493" lon="6.25222">
        <ele>1572.2</ele>
        <time>2015-10-11T12:54:24Z</time>
      </trkpt>
      <trkpt lat="44.62483" lon="6.25212">
        <ele>1570.74</ele>
        <time>2015-10-11T12:54:39Z</time>
      </trkpt>
      <trkpt lat="44.62468" lon="6.25198">
        <ele>1568.74</ele>
        <time>2015-10-11T12:54:59Z</time>
      </trkpt>
      <trkpt lat="44.6245" lon="6.25187">
        <ele>1566.56</ele>
        <time>2015-10-11T12:55:16Z</time>
      </trkpt>
      <trkpt lat="44.6244" lon="6.25175">
        <ele>1565.22</ele>
        <time>2015-10-11T12:55:29Z</time>
      </trkpt>
      <trkpt lat="44.62438" lon="6.25172">
        <ele>1564.85</ele>
        <time>2015-10-11T12:55:32Z</time>
      </trkpt>
      <trkpt lat="44.62425" lon="6.25164">
        <ele>1563.97</ele>
        <time>2015-10-11T12:55:43Z</time>
      </trkpt>
      <trkpt lat="44.6241" lon="6.25156">
        <ele>1562.64</ele>
        <time>2015-10-11T12:55:58Z</time>
      </trkpt>
      <trkpt lat="44.6241" lon="6.25156">
        <ele>1562.26</ele>
        <time>2015-10-11T12:56:20Z</time>
      </trkpt>
      <trkpt lat="44.62402" lon="6.25162">
        <ele>1562.1</ele>
        <time>2015-10-11T12:56:45Z</time>
      </trkpt>
      <trkpt lat="44.62397" lon="6.2515">
        <ele>1561.53</ele>
        <time>2015-10-11T12:57:04Z</time>
      </trkpt>
      <trkpt lat="44.62394" lon="6.25118">
        <ele>1559.58</ele>
        <time>2015-10-11T12:57:27Z</time>
      </trkpt>
      <trkpt lat="44.62399" lon="6.25093">
        <ele>1558.03</ele>
        <time>2015-10-11T12:57:46Z</time>
      </trkpt>
      <trkpt lat="44.62403" lon="6.25085">
        <ele>1556.79</ele>
        <time>2015-10-11T12:58:06Z</time>
      </trkpt>
      <trkpt lat="44.62409" lon="6.25074">
        <ele>1556.28</ele>
        <time>2015-10-11T12:58:16Z</time>
      </trkpt>
      <trkpt lat="44.6241" lon="6.25064">
        <ele>1555.74</ele>
        <time>2015-10-11T12:58:23Z</time>
      </trkpt>
      <trkpt lat="44.62413" lon="6.25041">
        <ele>1553.7</ele>
        <time>2015-10-11T12:58:39Z</time>
      </trkpt>
      <trkpt lat="44.62418" lon="6.25024">
        <ele>1552.24</ele>
        <time>2015-10-11T12:58:55Z</time>
      </trkpt>
      <trkpt lat="44.62418" lon="6.25014">
        <ele>1552.13</ele>
        <time>2015-10-11T12:59:12Z</time>
      </trkpt>
      <trkpt lat="44.62418" lon="6.24999">
        <ele>1552.92</ele>
        <time>2015-10-11T12:59:28Z</time>
      </trkpt>
      <trkpt lat="44.62415" lon="6.24985">
        <ele>1551.83</ele>
        <time>2015-10-11T12:59:46Z</time>
      </trkpt>
      <trkpt lat="44.62406" lon="6.24973">
        <ele>1549.64</ele>
        <time>2015-10-11T13:00:01Z</time>
      </trkpt>
      <trkpt lat="44.62397" lon="6.24962">
        <ele>1546.99</ele>
        <time>2015-10-11T13:00:16Z</time>
      </trkpt>
      <trkpt lat="44.62396" lon="6.24962">
        <ele>1546.86</ele>
        <time>2015-10-11T13:00:17Z</time>
      </trkpt>
      <trkpt lat="44.62383" lon="6.24943">
        <ele>1544.66</ele>
        <time>2015-10-11T13:00:34Z</time>
      </trkpt>
      <trkpt lat="44.62382" lon="6.24942">
        <ele>1544.56</ele>
        <time>2015-10-11T13:00:35Z</time>
      </trkpt>
      <trkpt lat="44.62376" lon="6.2493">
        <ele>1543.31</ele>
        <time>2015-10-11T13:00:45Z</time>
      </trkpt>
      <trkpt lat="44.62375" lon="6.24926">
        <ele>1542.93</ele>
        <time>2015-10-11T13:00:48Z</time>
      </trkpt>
      <trkpt lat="44.6237" lon="6.24913">
        <ele>1541.45</ele>
        <time>2015-10-11T13:01:04Z</time>
      </trkpt>
      <trkpt lat="44.62367" lon="6.24908">
        <ele>1541.17</ele>
        <time>2015-10-11T13:01:23Z</time>
      </trkpt>
      <trkpt lat="44.62366" lon="6.24907">
        <ele>1541.4</ele>
        <time>2015-10-11T13:01:48Z</time>
      </trkpt>
      <trkpt lat="44.62366" lon="6.24911">
        <ele>1541.15</ele>
        <time>2015-10-11T13:02:18Z</time>
      </trkpt>
      <trkpt lat="44.62367" lon="6.24905">
        <ele>1539.89</ele>
        <time>2015-10-11T13:02:40Z</time>
      </trkpt>
      <trkpt lat="44.62364" lon="6.24891">
        <ele>1536.82</ele>
        <time>2015-10-11T13:02:54Z</time>
      </trkpt>
      <trkpt lat="44.62363" lon="6.24879">
        <ele>1533.81</ele>
        <time>2015-10-11T13:03:05Z</time>
      </trkpt>
      <trkpt lat="44.62361" lon="6.24863">
        <ele>1530.77</ele>
        <time>2015-10-11T13:03:19Z</time>
      </trkpt>
      <trkpt lat="44.62356" lon="6.24847">
        <ele>1527.55</ele>
        <time>2015-10-11T13:03:33Z</time>
      </trkpt>
      <trkpt lat="44.62351" lon="6.24834">
        <ele>1524.49</ele>
        <time>2015-10-11T13:03:47Z</time>
      </trkpt>
      <trkpt lat="44.62347" lon="6.2482">
        <ele>1521.36</ele>
        <time>2015-10-11T13:03:58Z</time>
      </trkpt>
      <trkpt lat="44.6234" lon="6.248">
        <ele>1519.46</ele>
        <time>2015-10-11T13:04:14Z</time>
      </trkpt>
      <trkpt lat="44.62336" lon="6.24781">
        <ele>1518.1</ele>
        <time>2015-10-11T13:04:30Z</time>
      </trkpt>
      <trkpt lat="44.62326" lon="6.2476">
        <ele>1517.12</ele>
        <time>2015-10-11T13:04:47Z</time>
      </trkpt>
      <trkpt lat="44.62321" lon="6.24743">
        <ele>1516.06</ele>
        <time>2015-10-11T13:05:02Z</time>
      </trkpt>
      <trkpt lat="44.62321" lon="6.24741">
        <ele>1515.95</ele>
        <time>2015-10-11T13:05:03Z</time>
      </trkpt>
      <trkpt lat="44.62311" lon="6.24719">
        <ele>1514.64</ele>
        <time>2015-10-11T13:05:19Z</time>
      </trkpt>
      <trkpt lat="44.62304" lon="6.24692">
        <ele>1513.32</ele>
        <time>2015-10-11T13:05:37Z</time>
      </trkpt>
      <trkpt lat="44.62303" lon="6.24683">
        <ele>1512.62</ele>
        <time>2015-10-11T13:05:44Z</time>
      </trkpt>
      <trkpt lat="44.62301" lon="6.24657">
        <ele>1511.92</ele>
        <time>2015-10-11T13:06:03Z</time>
      </trkpt>
      <trkpt lat="44.62297" lon="6.24639">
        <ele>1512.02</ele>
        <time>2015-10-11T13:06:16Z</time>
      </trkpt>
      <trkpt lat="44.62283" lon="6.24629">
        <ele>1512.58</ele>
        <time>2015-10-11T13:06:34Z</time>
      </trkpt>
      <trkpt lat="44.62285" lon="6.24626">
        <ele>1511.72</ele>
        <time>2015-10-11T13:07:10Z</time>
      </trkpt>
      <trkpt lat="44.62283" lon="6.24626">
        <ele>1511.77</ele>
        <time>2015-10-11T13:07:44Z</time>
      </trkpt>
      <trkpt lat="44.62278" lon="6.24624">
        <ele>1512.44</ele>
        <time>2015-10-11T13:08:03Z</time>
      </trkpt>
      <trkpt lat="44.62267" lon="6.24614">
        <ele>1511.12</ele>
        <time>2015-10-11T13:08:17Z</time>
      </trkpt>
      <trkpt lat="44.62262" lon="6.24602">
        <ele>1509.9</ele>
        <time>2015-10-11T13:08:26Z</time>
      </trkpt>
      <trkpt lat="44.62258" lon="6.24593">
        <ele>1509.99</ele>
        <time>2015-10-11T13:08:32Z</time>
      </trkpt>
      <trkpt lat="44.62256" lon="6.24585">
        <ele>1510.5</ele>
        <time>2015-10-11T13:08:37Z</time>
      </trkpt>
      <trkpt lat="44.62255" lon="6.24576">
        <ele>1511.05</ele>
        <time>2015-10-11T13:08:43Z</time>
      </trkpt>
      <trkpt lat="44.62256" lon="6.2457">
        <ele>1511.6</ele>
        <time>2015-10-11T13:08:47Z</time>
      </trkpt>
      <trkpt lat="44.62256" lon="6.24554">
        <ele>1512.43</ele>
        <time>2015-10-11T13:08:59Z</time>
      </trkpt>
      <trkpt lat="44.62254" lon="6.24543">
        <ele>1513.26</ele>
        <time>2015-10-11T13:09:08Z</time>
      </trkpt>
      <trkpt lat="44.62246" lon="6.24505">
        <ele>1513.59</ele>
        <time>2015-10-11T13:09:30Z</time>
      </trkpt>
      <trkpt lat="44.62243" lon="6.2449">
        <ele>1513.77</ele>
        <time>2015-10-11T13:09:39Z</time>
      </trkpt>
      <trkpt lat="44.62235" lon="6.24474">
        <ele>1514.74</ele>
        <time>2015-10-11T13:09:52Z</time>
      </trkpt>
      <trkpt lat="44.62227" lon="6.24457">
        <ele>1516.65</ele>
        <time>2015-10-11T13:10:13Z</time>
      </trkpt>
      <trkpt lat="44.62215" lon="6.24441">
        <ele>1517.4</ele>
        <time>2015-10-11T13:10:34Z</time>
      </trkpt>
      <trkpt lat="44.62209" lon="6.24423">
        <ele>1519.23</ele>
        <time>2015-10-11T13:10:52Z</time>
      </trkpt>
      <trkpt lat="44.62211" lon="6.24401">
        <ele>1520.33</ele>
        <time>2015-10-11T13:11:11Z</time>
      </trkpt>
      <trkpt lat="44.62218" lon="6.24375">
        <ele>1521.5</ele>
        <time>2015-10-11T13:11:31Z</time>
      </trkpt>
      <trkpt lat="44.62224" lon="6.24351">
        <ele>1522.62</ele>
        <time>2015-10-11T13:11:49Z</time>
      </trkpt>
      <trkpt lat="44.6223" lon="6.24326">
        <ele>1524.09</ele>
        <time>2015-10-11T13:12:08Z</time>
      </trkpt>
      <trkpt lat="44.62234" lon="6.24302">
        <ele>1524.33</ele>
        <time>2015-10-11T13:12:22Z</time>
      </trkpt>
      <trkpt lat="44.62236" lon="6.24278">
        <ele>1524.22</ele>
        <time>2015-10-11T13:12:37Z</time>
      </trkpt>
      <trkpt lat="44.62239" lon="6.24259">
        <ele>1524.34</ele>
        <time>2015-10-11T13:12:52Z</time>
      </trkpt>
      <trkpt lat="44.62244" lon="6.24242">
        <ele>1522.02</ele>
        <time>2015-10-11T13:13:08Z</time>
      </trkpt>
      <trkpt lat="44.62243" lon="6.24229">
        <ele>1520.24</ele>
        <time>2015-10-11T13:13:28Z</time>
      </trkpt>
      <trkpt lat="44.62244" lon="6.24217">
        <ele>1517.71</ele>
        <time>2015-10-11T13:13:44Z</time>
      </trkpt>
      <trkpt lat="44.62252" lon="6.24201">
        <ele>1515.18</ele>
        <time>2015-10-11T13:14:01Z</time>
      </trkpt>
      <trkpt lat="44.62252" lon="6.24176">
        <ele>1512.1</ele>
        <time>2015-10-11T13:14:18Z</time>
      </trkpt>
      <trkpt lat="44.62253" lon="6.24164">
        <ele>1511.46</ele>
        <time>2015-10-11T13:14:25Z</time>
      </trkpt>
      <trkpt lat="44.62255" lon="6.24152">
        <ele>1510.88</ele>
        <time>2015-10-11T13:14:33Z</time>
      </trkpt>
      <trkpt lat="44.62254" lon="6.24141">
        <ele>1510.84</ele>
        <time>2015-10-11T13:14:40Z</time>
      </trkpt>
      <trkpt lat="44.62253" lon="6.24129">
        <ele>1510.64</ele>
        <time>2015-10-11T13:14:47Z</time>
      </trkpt>
      <trkpt lat="44.62253" lon="6.2411">
        <ele>1509.68</ele>
        <time>2015-10-11T13:15:06Z</time>
      </trkpt>
      <trkpt lat="44.62254" lon="6.24099">
        <ele>1509.1</ele>
        <time>2015-10-11T13:15:19Z</time>
      </trkpt>
      <trkpt lat="44.62252" lon="6.24084">
        <ele>1506.55</ele>
        <time>2015-10-11T13:15:29Z</time>
      </trkpt>
      <trkpt lat="44.62252" lon="6.24067">
        <ele>1503.43</ele>
        <time>2015-10-11T13:15:45Z</time>
      </trkpt>
      <trkpt lat="44.62257" lon="6.2405">
        <ele>1500.9</ele>
        <time>2015-10-11T13:16:07Z</time>
      </trkpt>
      <trkpt lat="44.62258" lon="6.24031">
        <ele>1498.93</ele>
        <time>2015-10-11T13:16:25Z</time>
      </trkpt>
      <trkpt lat="44.62248" lon="6.24">
        <ele>1496.12</ele>
        <time>2015-10-11T13:16:46Z</time>
      </trkpt>
      <trkpt lat="44.62246" lon="6.23978">
        <ele>1494.51</ele>
        <time>2015-10-11T13:16:57Z</time>
      </trkpt>
      <trkpt lat="44.62246" lon="6.23971">
        <ele>1494.28</ele>
        <time>2015-10-11T13:17:00Z</time>
      </trkpt>
      <trkpt lat="44.62245" lon="6.23966">
        <ele>1494.12</ele>
        <time>2015-10-11T13:17:02Z</time>
      </trkpt>
      <trkpt lat="44.62236" lon="6.23938">
        <ele>1492.16</ele>
        <time>2015-10-11T13:17:17Z</time>
      </trkpt>
      <trkpt lat="44.62223" lon="6.23919">
        <ele>1490.99</ele>
        <time>2015-10-11T13:17:33Z</time>
      </trkpt>
      <trkpt lat="44.6222" lon="6.23906">
        <ele>1490.55</ele>
        <time>2015-10-11T13:17:41Z</time>
      </trkpt>
      <trkpt lat="44.62221" lon="6.23898">
        <ele>1490.05</ele>
        <time>2015-10-11T13:17:46Z</time>
      </trkpt>
      <trkpt lat="44.62218" lon="6.23869">
        <ele>1486.85</ele>
        <time>2015-10-11T13:18:04Z</time>
      </trkpt>
      <trkpt lat="44.62215" lon="6.23859">
        <ele>1486.19</ele>
        <time>2015-10-11T13:18:10Z</time>
      </trkpt>
      <trkpt lat="44.62209" lon="6.23834">
        <ele>1483.47</ele>
        <time>2015-10-11T13:18:25Z</time>
      </trkpt>
      <trkpt lat="44.62208" lon="6.23831">
        <ele>1482.92</ele>
        <time>2015-10-11T13:18:28Z</time>
      </trkpt>
      <trkpt lat="44.62206" lon="6.23805">
        <ele>1479.95</ele>
        <time>2015-10-11T13:18:45Z</time>
      </trkpt>
      <trkpt lat="44.622" lon="6.23775">
        <ele>1476.94</ele>
        <time>2015-10-11T13:19:05Z</time>
      </trkpt>
      <trkpt lat="44.62192" lon="6.23757">
        <ele>1475.12</ele>
        <time>2015-10-11T13:19:17Z</time>
      </trkpt>
      <trkpt lat="44.62185" lon="6.23739">
        <ele>1473.8</ele>
        <time>2015-10-11T13:19:32Z</time>
      </trkpt>
      <trkpt lat="44.62176" lon="6.2371">
        <ele>1471.81</ele>
        <time>2015-10-11T13:19:52Z</time>
      </trkpt>
      <trkpt lat="44.62164" lon="6.2369">
        <ele>1470.73</ele>
        <time>2015-10-11T13:20:06Z</time>
      </trkpt>
      <trkpt lat="44.6216" lon="6.23685">
        <ele>1470.38</ele>
        <time>2015-10-11T13:20:11Z</time>
      </trkpt>
      <trkpt lat="44.6215" lon="6.23669">
        <ele>1468.72</ele>
        <time>2015-10-11T13:20:26Z</time>
      </trkpt>
      <trkpt lat="44.62142" lon="6.23648">
        <ele>1466.09</ele>
        <time>2015-10-11T13:20:44Z</time>
      </trkpt>
      <trkpt lat="44.62136" lon="6.23624">
        <ele>1463.02</ele>
        <time>2015-10-11T13:21:02Z</time>
      </trkpt>
      <trkpt lat="44.62131" lon="6.23602">
        <ele>1459.88</ele>
        <time>2015-10-11T13:21:17Z</time>
      </trkpt>
      <trkpt lat="44.62129" lon="6.23586">
        <ele>1457.89</ele>
        <time>2015-10-11T13:21:28Z</time>
      </trkpt>
      <trkpt lat="44.62126" lon="6.23579">
        <ele>1456.35</ele>
        <time>2015-10-11T13:21:34Z</time>
      </trkpt>
      <trkpt lat="44.62123" lon="6.23567">
        <ele>1454.01</ele>
        <time>2015-10-11T13:21:43Z</time>
      </trkpt>
      <trkpt lat="44.6212" lon="6.23557">
        <ele>1452.53</ele>
        <time>2015-10-11T13:21:51Z</time>
      </trkpt>
      <trkpt lat="44.62118" lon="6.23536">
        <ele>1449.33</ele>
        <time>2015-10-11T13:22:07Z</time>
      </trkpt>
      <trkpt lat="44.62116" lon="6.23513">
        <ele>1447.29</ele>
        <time>2015-10-11T13:22:21Z</time>
      </trkpt>
      <trkpt lat="44.62116" lon="6.23507">
        <ele>1446.24</ele>
        <time>2015-10-11T13:22:46Z</time>
      </trkpt>
      <trkpt lat="44.6212" lon="6.23496">
        <ele>1445.21</ele>
        <time>2015-10-11T13:23:00Z</time>
      </trkpt>
      <trkpt lat="44.62121" lon="6.23491">
        <ele>1444.38</ele>
        <time>2015-10-11T13:23:15Z</time>
      </trkpt>
      <trkpt lat="44.62123" lon="6.2349">
        <ele>1443.46</ele>
        <time>2015-10-11T13:23:44Z</time>
      </trkpt>
      <trkpt lat="44.62122" lon="6.23491">
        <ele>1443.5</ele>
        <time>2015-10-11T13:24:13Z</time>
      </trkpt>
      <trkpt lat="44.6212" lon="6.23494">
        <ele>1441.19</ele>
        <time>2015-10-11T13:24:47Z</time>
      </trkpt>
    </trkseg>
  </trk>
</gpx>